<?xml version="1.0" encoding="UTF-8" standalone="no" ?>
<gpx xmlns="http://www.topografix.com/GPX/1/1" creator="https://MapMagic.app" xmlns:xsi="http://www.w3.org/2001/XMLSchema-instance" xsi:schemaLocation="http://www.topografix.com/GPX/1/1 http://www.topografix.com/GPX/1/1/gpx.xsd" version="1.1">
	<wpt lat="54.876031" lon="21.651615">
		<name>КП 1</name>
		<type>Generic</type>
	</wpt>
	<wpt lat="54.942286" lon="22.490207">
		<name>КП 2</name>
		<type>Generic</type>
	</wpt>
	<wpt lat="55.038656" lon="22.028441">
		<name>КП 3</name>
		<type>Generic</type>
	</wpt>
	<trk>
		<name>200_Тильзитский_2026</name>
		<desc>200_Тильзитский_2026</desc>
		<trkseg>
			<trkpt lat="55.081311" lon="21.888672"><ele>0.0</ele><time>1970-01-01T00:00:01Z</time></trkpt>
			<trkpt lat="55.081311" lon="21.888672"><ele>0.0</ele><time>1970-01-01T00:00:02Z</time></trkpt>
			<trkpt lat="55.080903" lon="21.888801"><ele>0.0</ele><time>1970-01-01T00:00:03Z</time></trkpt>
			<trkpt lat="55.080903" lon="21.888801"><ele>0.0</ele><time>1970-01-01T00:00:04Z</time></trkpt>
			<trkpt lat="55.080195" lon="21.888265"><ele>0.0</ele><time>1970-01-01T00:00:05Z</time></trkpt>
			<trkpt lat="55.080195" lon="21.888265"><ele>0.0</ele><time>1970-01-01T00:00:06Z</time></trkpt>
			<trkpt lat="55.078264" lon="21.885733"><ele>0.0</ele><time>1970-01-01T00:00:07Z</time></trkpt>
			<trkpt lat="55.078264" lon="21.885733"><ele>0.0</ele><time>1970-01-01T00:00:08Z</time></trkpt>
			<trkpt lat="55.078007" lon="21.885411"><ele>0.0</ele><time>1970-01-01T00:00:09Z</time></trkpt>
			<trkpt lat="55.078007" lon="21.885411"><ele>0.0</ele><time>1970-01-01T00:00:10Z</time></trkpt>
			<trkpt lat="55.077835" lon="21.885282"><ele>0.0</ele><time>1970-01-01T00:00:11Z</time></trkpt>
			<trkpt lat="55.077835" lon="21.885282"><ele>0.0</ele><time>1970-01-01T00:00:12Z</time></trkpt>
			<trkpt lat="55.077470" lon="21.885089"><ele>0.0</ele><time>1970-01-01T00:00:13Z</time></trkpt>
			<trkpt lat="55.077470" lon="21.885089"><ele>0.0</ele><time>1970-01-01T00:00:14Z</time></trkpt>
			<trkpt lat="55.073243" lon="21.883351"><ele>0.0</ele><time>1970-01-01T00:00:15Z</time></trkpt>
			<trkpt lat="55.073243" lon="21.883351"><ele>0.0</ele><time>1970-01-01T00:00:16Z</time></trkpt>
			<trkpt lat="55.072878" lon="21.883093"><ele>0.0</ele><time>1970-01-01T00:00:17Z</time></trkpt>
			<trkpt lat="55.072878" lon="21.883093"><ele>0.0</ele><time>1970-01-01T00:00:18Z</time></trkpt>
			<trkpt lat="55.068544" lon="21.877815"><ele>0.0</ele><time>1970-01-01T00:00:19Z</time></trkpt>
			<trkpt lat="55.068544" lon="21.877815"><ele>0.0</ele><time>1970-01-01T00:00:20Z</time></trkpt>
			<trkpt lat="55.052408" lon="21.863953"><ele>0.0</ele><time>1970-01-01T00:00:21Z</time></trkpt>
			<trkpt lat="55.052408" lon="21.863953"><ele>0.0</ele><time>1970-01-01T00:00:22Z</time></trkpt>
			<trkpt lat="55.050949" lon="21.862537"><ele>0.0</ele><time>1970-01-01T00:00:23Z</time></trkpt>
			<trkpt lat="55.050949" lon="21.862537"><ele>0.0</ele><time>1970-01-01T00:00:24Z</time></trkpt>
			<trkpt lat="55.030778" lon="21.841616"><ele>0.0</ele><time>1970-01-01T00:00:25Z</time></trkpt>
			<trkpt lat="55.030778" lon="21.841616"><ele>0.0</ele><time>1970-01-01T00:00:26Z</time></trkpt>
			<trkpt lat="55.029727" lon="21.840221"><ele>0.0</ele><time>1970-01-01T00:00:27Z</time></trkpt>
			<trkpt lat="55.029727" lon="21.840221"><ele>0.0</ele><time>1970-01-01T00:00:28Z</time></trkpt>
			<trkpt lat="55.026208" lon="21.835779"><ele>0.0</ele><time>1970-01-01T00:00:29Z</time></trkpt>
			<trkpt lat="55.026208" lon="21.835779"><ele>0.0</ele><time>1970-01-01T00:00:30Z</time></trkpt>
			<trkpt lat="55.024556" lon="21.833590"><ele>0.0</ele><time>1970-01-01T00:00:31Z</time></trkpt>
			<trkpt lat="55.024556" lon="21.833590"><ele>0.0</ele><time>1970-01-01T00:00:32Z</time></trkpt>
			<trkpt lat="55.020350" lon="21.827732"><ele>0.0</ele><time>1970-01-01T00:00:33Z</time></trkpt>
			<trkpt lat="55.020350" lon="21.827732"><ele>0.0</ele><time>1970-01-01T00:00:34Z</time></trkpt>
			<trkpt lat="55.020157" lon="21.827604"><ele>0.0</ele><time>1970-01-01T00:00:35Z</time></trkpt>
			<trkpt lat="55.020157" lon="21.827604"><ele>0.0</ele><time>1970-01-01T00:00:36Z</time></trkpt>
			<trkpt lat="55.019899" lon="21.827647"><ele>0.0</ele><time>1970-01-01T00:00:37Z</time></trkpt>
			<trkpt lat="55.019899" lon="21.827647"><ele>0.0</ele><time>1970-01-01T00:00:38Z</time></trkpt>
			<trkpt lat="55.019706" lon="21.827518"><ele>0.0</ele><time>1970-01-01T00:00:39Z</time></trkpt>
			<trkpt lat="55.019706" lon="21.827518"><ele>0.0</ele><time>1970-01-01T00:00:40Z</time></trkpt>
			<trkpt lat="55.018826" lon="21.825823"><ele>0.0</ele><time>1970-01-01T00:00:41Z</time></trkpt>
			<trkpt lat="55.018826" lon="21.825823"><ele>0.0</ele><time>1970-01-01T00:00:42Z</time></trkpt>
			<trkpt lat="55.017968" lon="21.824428"><ele>0.0</ele><time>1970-01-01T00:00:43Z</time></trkpt>
			<trkpt lat="55.017968" lon="21.824428"><ele>0.0</ele><time>1970-01-01T00:00:44Z</time></trkpt>
			<trkpt lat="55.009921" lon="21.813098"><ele>0.0</ele><time>1970-01-01T00:00:45Z</time></trkpt>
			<trkpt lat="55.009921" lon="21.813098"><ele>0.0</ele><time>1970-01-01T00:00:46Z</time></trkpt>
			<trkpt lat="55.003313" lon="21.803957"><ele>0.0</ele><time>1970-01-01T00:00:47Z</time></trkpt>
			<trkpt lat="55.003313" lon="21.803957"><ele>0.0</ele><time>1970-01-01T00:00:48Z</time></trkpt>
			<trkpt lat="55.002089" lon="21.802112"><ele>0.0</ele><time>1970-01-01T00:00:49Z</time></trkpt>
			<trkpt lat="55.002089" lon="21.802112"><ele>0.0</ele><time>1970-01-01T00:00:50Z</time></trkpt>
			<trkpt lat="55.001124" lon="21.799880"><ele>0.0</ele><time>1970-01-01T00:00:51Z</time></trkpt>
			<trkpt lat="55.001124" lon="21.799880"><ele>0.0</ele><time>1970-01-01T00:00:52Z</time></trkpt>
			<trkpt lat="55.000330" lon="21.798314"><ele>0.0</ele><time>1970-01-01T00:00:53Z</time></trkpt>
			<trkpt lat="55.000330" lon="21.798314"><ele>0.0</ele><time>1970-01-01T00:00:54Z</time></trkpt>
			<trkpt lat="54.995695" lon="21.788036"><ele>0.0</ele><time>1970-01-01T00:00:55Z</time></trkpt>
			<trkpt lat="54.995695" lon="21.788036"><ele>0.0</ele><time>1970-01-01T00:00:56Z</time></trkpt>
			<trkpt lat="54.992906" lon="21.781899"><ele>0.0</ele><time>1970-01-01T00:00:57Z</time></trkpt>
			<trkpt lat="54.992906" lon="21.781899"><ele>0.0</ele><time>1970-01-01T00:00:58Z</time></trkpt>
			<trkpt lat="54.992412" lon="21.780890"><ele>0.0</ele><time>1970-01-01T00:00:59Z</time></trkpt>
			<trkpt lat="54.992412" lon="21.780890"><ele>0.0</ele><time>1970-01-01T00:01:00Z</time></trkpt>
			<trkpt lat="54.985825" lon="21.773702"><ele>0.0</ele><time>1970-01-01T00:01:01Z</time></trkpt>
			<trkpt lat="54.985825" lon="21.773702"><ele>0.0</ele><time>1970-01-01T00:01:02Z</time></trkpt>
			<trkpt lat="54.986618" lon="21.771964"><ele>0.0</ele><time>1970-01-01T00:01:03Z</time></trkpt>
			<trkpt lat="54.986618" lon="21.771964"><ele>0.0</ele><time>1970-01-01T00:01:04Z</time></trkpt>
			<trkpt lat="54.988421" lon="21.769067"><ele>0.0</ele><time>1970-01-01T00:01:05Z</time></trkpt>
			<trkpt lat="54.988421" lon="21.769067"><ele>0.0</ele><time>1970-01-01T00:01:06Z</time></trkpt>
			<trkpt lat="54.991597" lon="21.764282"><ele>0.0</ele><time>1970-01-01T00:01:07Z</time></trkpt>
			<trkpt lat="54.991597" lon="21.764282"><ele>0.0</ele><time>1970-01-01T00:01:08Z</time></trkpt>
			<trkpt lat="54.998420" lon="21.754433"><ele>0.0</ele><time>1970-01-01T00:01:09Z</time></trkpt>
			<trkpt lat="54.998420" lon="21.754433"><ele>0.0</ele><time>1970-01-01T00:01:10Z</time></trkpt>
			<trkpt lat="55.000373" lon="21.751708"><ele>0.0</ele><time>1970-01-01T00:01:11Z</time></trkpt>
			<trkpt lat="55.000373" lon="21.751708"><ele>0.0</ele><time>1970-01-01T00:01:12Z</time></trkpt>
			<trkpt lat="55.003677" lon="21.748575"><ele>0.0</ele><time>1970-01-01T00:01:13Z</time></trkpt>
			<trkpt lat="55.003677" lon="21.748575"><ele>0.0</ele><time>1970-01-01T00:01:14Z</time></trkpt>
			<trkpt lat="55.007432" lon="21.744777"><ele>0.0</ele><time>1970-01-01T00:01:15Z</time></trkpt>
			<trkpt lat="55.007432" lon="21.744777"><ele>0.0</ele><time>1970-01-01T00:01:16Z</time></trkpt>
			<trkpt lat="55.010115" lon="21.733619"><ele>0.0</ele><time>1970-01-01T00:01:17Z</time></trkpt>
			<trkpt lat="55.010115" lon="21.733619"><ele>0.0</ele><time>1970-01-01T00:01:18Z</time></trkpt>
			<trkpt lat="55.010587" lon="21.732096"><ele>0.0</ele><time>1970-01-01T00:01:19Z</time></trkpt>
			<trkpt lat="55.010587" lon="21.732096"><ele>0.0</ele><time>1970-01-01T00:01:20Z</time></trkpt>
			<trkpt lat="55.013762" lon="21.726323"><ele>0.0</ele><time>1970-01-01T00:01:21Z</time></trkpt>
			<trkpt lat="55.013762" lon="21.726323"><ele>0.0</ele><time>1970-01-01T00:01:22Z</time></trkpt>
			<trkpt lat="55.015694" lon="21.723856"><ele>0.0</ele><time>1970-01-01T00:01:23Z</time></trkpt>
			<trkpt lat="55.015694" lon="21.723856"><ele>0.0</ele><time>1970-01-01T00:01:24Z</time></trkpt>
			<trkpt lat="55.016380" lon="21.723062"><ele>0.0</ele><time>1970-01-01T00:01:25Z</time></trkpt>
			<trkpt lat="55.016380" lon="21.723062"><ele>0.0</ele><time>1970-01-01T00:01:26Z</time></trkpt>
			<trkpt lat="55.016509" lon="21.722633"><ele>0.0</ele><time>1970-01-01T00:01:27Z</time></trkpt>
			<trkpt lat="55.016509" lon="21.722633"><ele>0.0</ele><time>1970-01-01T00:01:28Z</time></trkpt>
			<trkpt lat="55.016809" lon="21.720744"><ele>0.0</ele><time>1970-01-01T00:01:29Z</time></trkpt>
			<trkpt lat="55.016809" lon="21.720744"><ele>0.0</ele><time>1970-01-01T00:01:30Z</time></trkpt>
			<trkpt lat="55.019363" lon="21.713406"><ele>0.0</ele><time>1970-01-01T00:01:31Z</time></trkpt>
			<trkpt lat="55.019363" lon="21.713406"><ele>0.0</ele><time>1970-01-01T00:01:32Z</time></trkpt>
			<trkpt lat="55.019663" lon="21.712698"><ele>0.0</ele><time>1970-01-01T00:01:33Z</time></trkpt>
			<trkpt lat="55.019663" lon="21.712698"><ele>0.0</ele><time>1970-01-01T00:01:34Z</time></trkpt>
			<trkpt lat="55.019964" lon="21.712419"><ele>0.0</ele><time>1970-01-01T00:01:35Z</time></trkpt>
			<trkpt lat="55.019964" lon="21.712419"><ele>0.0</ele><time>1970-01-01T00:01:36Z</time></trkpt>
			<trkpt lat="55.021659" lon="21.711239"><ele>0.0</ele><time>1970-01-01T00:01:37Z</time></trkpt>
			<trkpt lat="55.021659" lon="21.711239"><ele>0.0</ele><time>1970-01-01T00:01:38Z</time></trkpt>
			<trkpt lat="55.025693" lon="21.707999"><ele>0.0</ele><time>1970-01-01T00:01:39Z</time></trkpt>
			<trkpt lat="55.025693" lon="21.707999"><ele>0.0</ele><time>1970-01-01T00:01:40Z</time></trkpt>
			<trkpt lat="55.031937" lon="21.702806"><ele>0.0</ele><time>1970-01-01T00:01:41Z</time></trkpt>
			<trkpt lat="55.031937" lon="21.702806"><ele>0.0</ele><time>1970-01-01T00:01:42Z</time></trkpt>
			<trkpt lat="55.032602" lon="21.701969"><ele>0.0</ele><time>1970-01-01T00:01:43Z</time></trkpt>
			<trkpt lat="55.032602" lon="21.701969"><ele>0.0</ele><time>1970-01-01T00:01:44Z</time></trkpt>
			<trkpt lat="55.034104" lon="21.698858"><ele>0.0</ele><time>1970-01-01T00:01:45Z</time></trkpt>
			<trkpt lat="55.034104" lon="21.698858"><ele>0.0</ele><time>1970-01-01T00:01:46Z</time></trkpt>
			<trkpt lat="55.036872" lon="21.692528"><ele>0.0</ele><time>1970-01-01T00:01:47Z</time></trkpt>
			<trkpt lat="55.036872" lon="21.692528"><ele>0.0</ele><time>1970-01-01T00:01:48Z</time></trkpt>
			<trkpt lat="55.038289" lon="21.690275"><ele>0.0</ele><time>1970-01-01T00:01:49Z</time></trkpt>
			<trkpt lat="55.038289" lon="21.690275"><ele>0.0</ele><time>1970-01-01T00:01:50Z</time></trkpt>
			<trkpt lat="55.039104" lon="21.689373"><ele>0.0</ele><time>1970-01-01T00:01:51Z</time></trkpt>
			<trkpt lat="55.039104" lon="21.689373"><ele>0.0</ele><time>1970-01-01T00:01:52Z</time></trkpt>
			<trkpt lat="55.041786" lon="21.693407"><ele>0.0</ele><time>1970-01-01T00:01:53Z</time></trkpt>
			<trkpt lat="55.041786" lon="21.693407"><ele>0.0</ele><time>1970-01-01T00:01:54Z</time></trkpt>
			<trkpt lat="55.042108" lon="21.693751"><ele>0.0</ele><time>1970-01-01T00:01:55Z</time></trkpt>
			<trkpt lat="55.042108" lon="21.693751"><ele>0.0</ele><time>1970-01-01T00:01:56Z</time></trkpt>
			<trkpt lat="55.042237" lon="21.693772"><ele>0.0</ele><time>1970-01-01T00:01:57Z</time></trkpt>
			<trkpt lat="55.042237" lon="21.693772"><ele>0.0</ele><time>1970-01-01T00:01:58Z</time></trkpt>
			<trkpt lat="55.043353" lon="21.693772"><ele>0.0</ele><time>1970-01-01T00:01:59Z</time></trkpt>
			<trkpt lat="55.043353" lon="21.693772"><ele>0.0</ele><time>1970-01-01T00:02:00Z</time></trkpt>
			<trkpt lat="55.047344" lon="21.693643"><ele>0.0</ele><time>1970-01-01T00:02:01Z</time></trkpt>
			<trkpt lat="55.047344" lon="21.693643"><ele>0.0</ele><time>1970-01-01T00:02:02Z</time></trkpt>
			<trkpt lat="55.048052" lon="21.693343"><ele>0.0</ele><time>1970-01-01T00:02:03Z</time></trkpt>
			<trkpt lat="55.048052" lon="21.693343"><ele>0.0</ele><time>1970-01-01T00:02:04Z</time></trkpt>
			<trkpt lat="55.049725" lon="21.692978"><ele>0.0</ele><time>1970-01-01T00:02:05Z</time></trkpt>
			<trkpt lat="55.049725" lon="21.692978"><ele>0.0</ele><time>1970-01-01T00:02:06Z</time></trkpt>
			<trkpt lat="55.055433" lon="21.692528"><ele>0.0</ele><time>1970-01-01T00:02:07Z</time></trkpt>
			<trkpt lat="55.055433" lon="21.692528"><ele>0.0</ele><time>1970-01-01T00:02:08Z</time></trkpt>
			<trkpt lat="55.055004" lon="21.686584"><ele>0.0</ele><time>1970-01-01T00:02:09Z</time></trkpt>
			<trkpt lat="55.055004" lon="21.686584"><ele>0.0</ele><time>1970-01-01T00:02:10Z</time></trkpt>
			<trkpt lat="55.053931" lon="21.680554"><ele>0.0</ele><time>1970-01-01T00:02:11Z</time></trkpt>
			<trkpt lat="55.053931" lon="21.680554"><ele>0.0</ele><time>1970-01-01T00:02:12Z</time></trkpt>
			<trkpt lat="55.052408" lon="21.675962"><ele>0.0</ele><time>1970-01-01T00:02:13Z</time></trkpt>
			<trkpt lat="55.052408" lon="21.675962"><ele>0.0</ele><time>1970-01-01T00:02:14Z</time></trkpt>
			<trkpt lat="55.051807" lon="21.674396"><ele>0.0</ele><time>1970-01-01T00:02:15Z</time></trkpt>
			<trkpt lat="55.051807" lon="21.674396"><ele>0.0</ele><time>1970-01-01T00:02:16Z</time></trkpt>
			<trkpt lat="55.049425" lon="21.669525"><ele>0.0</ele><time>1970-01-01T00:02:17Z</time></trkpt>
			<trkpt lat="55.049425" lon="21.669525"><ele>0.0</ele><time>1970-01-01T00:02:18Z</time></trkpt>
			<trkpt lat="55.048867" lon="21.668238"><ele>0.0</ele><time>1970-01-01T00:02:19Z</time></trkpt>
			<trkpt lat="55.048867" lon="21.668238"><ele>0.0</ele><time>1970-01-01T00:02:20Z</time></trkpt>
			<trkpt lat="55.047236" lon="21.664697"><ele>0.0</ele><time>1970-01-01T00:02:21Z</time></trkpt>
			<trkpt lat="55.047236" lon="21.664697"><ele>0.0</ele><time>1970-01-01T00:02:22Z</time></trkpt>
			<trkpt lat="55.047065" lon="21.663710"><ele>0.0</ele><time>1970-01-01T00:02:23Z</time></trkpt>
			<trkpt lat="55.047065" lon="21.663710"><ele>0.0</ele><time>1970-01-01T00:02:24Z</time></trkpt>
			<trkpt lat="55.046915" lon="21.663088"><ele>0.0</ele><time>1970-01-01T00:02:25Z</time></trkpt>
			<trkpt lat="55.046915" lon="21.663088"><ele>0.0</ele><time>1970-01-01T00:02:26Z</time></trkpt>
			<trkpt lat="55.046721" lon="21.662508"><ele>0.0</ele><time>1970-01-01T00:02:27Z</time></trkpt>
			<trkpt lat="55.046721" lon="21.662508"><ele>0.0</ele><time>1970-01-01T00:02:28Z</time></trkpt>
			<trkpt lat="55.045370" lon="21.660212"><ele>0.0</ele><time>1970-01-01T00:02:29Z</time></trkpt>
			<trkpt lat="55.045370" lon="21.660212"><ele>0.0</ele><time>1970-01-01T00:02:30Z</time></trkpt>
			<trkpt lat="55.044661" lon="21.659440"><ele>0.0</ele><time>1970-01-01T00:02:31Z</time></trkpt>
			<trkpt lat="55.044661" lon="21.659440"><ele>0.0</ele><time>1970-01-01T00:02:32Z</time></trkpt>
			<trkpt lat="55.044447" lon="21.659290"><ele>0.0</ele><time>1970-01-01T00:02:33Z</time></trkpt>
			<trkpt lat="55.044447" lon="21.659290"><ele>0.0</ele><time>1970-01-01T00:02:34Z</time></trkpt>
			<trkpt lat="55.044275" lon="21.659225"><ele>0.0</ele><time>1970-01-01T00:02:35Z</time></trkpt>
			<trkpt lat="55.044275" lon="21.659225"><ele>0.0</ele><time>1970-01-01T00:02:36Z</time></trkpt>
			<trkpt lat="55.044082" lon="21.659333"><ele>0.0</ele><time>1970-01-01T00:02:37Z</time></trkpt>
			<trkpt lat="55.044082" lon="21.659333"><ele>0.0</ele><time>1970-01-01T00:02:38Z</time></trkpt>
			<trkpt lat="55.043288" lon="21.660127"><ele>0.0</ele><time>1970-01-01T00:02:39Z</time></trkpt>
			<trkpt lat="55.043288" lon="21.660127"><ele>0.0</ele><time>1970-01-01T00:02:40Z</time></trkpt>
			<trkpt lat="55.041872" lon="21.661307"><ele>0.0</ele><time>1970-01-01T00:02:41Z</time></trkpt>
			<trkpt lat="55.041872" lon="21.661307"><ele>0.0</ele><time>1970-01-01T00:02:42Z</time></trkpt>
			<trkpt lat="55.040134" lon="21.662659"><ele>0.0</ele><time>1970-01-01T00:02:43Z</time></trkpt>
			<trkpt lat="55.040134" lon="21.662659"><ele>0.0</ele><time>1970-01-01T00:02:44Z</time></trkpt>
			<trkpt lat="55.040112" lon="21.662465"><ele>0.0</ele><time>1970-01-01T00:02:45Z</time></trkpt>
			<trkpt lat="55.040112" lon="21.662465"><ele>0.0</ele><time>1970-01-01T00:02:46Z</time></trkpt>
			<trkpt lat="55.040155" lon="21.662616"><ele>0.0</ele><time>1970-01-01T00:02:47Z</time></trkpt>
			<trkpt lat="55.040155" lon="21.662616"><ele>0.0</ele><time>1970-01-01T00:02:48Z</time></trkpt>
			<trkpt lat="55.039984" lon="21.659783"><ele>0.0</ele><time>1970-01-01T00:02:49Z</time></trkpt>
			<trkpt lat="55.039984" lon="21.659783"><ele>0.0</ele><time>1970-01-01T00:02:50Z</time></trkpt>
			<trkpt lat="55.039833" lon="21.659182"><ele>0.0</ele><time>1970-01-01T00:02:51Z</time></trkpt>
			<trkpt lat="55.039833" lon="21.659182"><ele>0.0</ele><time>1970-01-01T00:02:52Z</time></trkpt>
			<trkpt lat="55.036636" lon="21.648647"><ele>0.0</ele><time>1970-01-01T00:02:53Z</time></trkpt>
			<trkpt lat="55.036636" lon="21.648647"><ele>0.0</ele><time>1970-01-01T00:02:54Z</time></trkpt>
			<trkpt lat="55.033611" lon="21.641952"><ele>0.0</ele><time>1970-01-01T00:02:55Z</time></trkpt>
			<trkpt lat="55.033611" lon="21.641952"><ele>0.0</ele><time>1970-01-01T00:02:56Z</time></trkpt>
			<trkpt lat="55.033482" lon="21.641523"><ele>0.0</ele><time>1970-01-01T00:02:57Z</time></trkpt>
			<trkpt lat="55.033482" lon="21.641523"><ele>0.0</ele><time>1970-01-01T00:02:58Z</time></trkpt>
			<trkpt lat="55.032559" lon="21.639656"><ele>0.0</ele><time>1970-01-01T00:02:59Z</time></trkpt>
			<trkpt lat="55.032559" lon="21.639656"><ele>0.0</ele><time>1970-01-01T00:03:00Z</time></trkpt>
			<trkpt lat="55.032302" lon="21.639205"><ele>0.0</ele><time>1970-01-01T00:03:01Z</time></trkpt>
			<trkpt lat="55.032302" lon="21.639205"><ele>0.0</ele><time>1970-01-01T00:03:02Z</time></trkpt>
			<trkpt lat="55.030092" lon="21.633605"><ele>0.0</ele><time>1970-01-01T00:03:03Z</time></trkpt>
			<trkpt lat="55.030092" lon="21.633605"><ele>0.0</ele><time>1970-01-01T00:03:04Z</time></trkpt>
			<trkpt lat="55.028912" lon="21.630858"><ele>0.0</ele><time>1970-01-01T00:03:05Z</time></trkpt>
			<trkpt lat="55.028912" lon="21.630858"><ele>0.0</ele><time>1970-01-01T00:03:06Z</time></trkpt>
			<trkpt lat="55.028096" lon="21.629077"><ele>0.0</ele><time>1970-01-01T00:03:07Z</time></trkpt>
			<trkpt lat="55.028096" lon="21.629077"><ele>0.0</ele><time>1970-01-01T00:03:08Z</time></trkpt>
			<trkpt lat="55.025929" lon="21.626352"><ele>0.0</ele><time>1970-01-01T00:03:09Z</time></trkpt>
			<trkpt lat="55.025929" lon="21.626352"><ele>0.0</ele><time>1970-01-01T00:03:10Z</time></trkpt>
			<trkpt lat="55.025800" lon="21.626266"><ele>0.0</ele><time>1970-01-01T00:03:11Z</time></trkpt>
			<trkpt lat="55.025800" lon="21.626266"><ele>0.0</ele><time>1970-01-01T00:03:12Z</time></trkpt>
			<trkpt lat="55.025371" lon="21.626138"><ele>0.0</ele><time>1970-01-01T00:03:13Z</time></trkpt>
			<trkpt lat="55.025371" lon="21.626138"><ele>0.0</ele><time>1970-01-01T00:03:14Z</time></trkpt>
			<trkpt lat="55.021594" lon="21.625408"><ele>0.0</ele><time>1970-01-01T00:03:15Z</time></trkpt>
			<trkpt lat="55.021594" lon="21.625408"><ele>0.0</ele><time>1970-01-01T00:03:16Z</time></trkpt>
			<trkpt lat="55.021079" lon="21.625000"><ele>0.0</ele><time>1970-01-01T00:03:17Z</time></trkpt>
			<trkpt lat="55.021079" lon="21.625000"><ele>0.0</ele><time>1970-01-01T00:03:18Z</time></trkpt>
			<trkpt lat="55.019020" lon="21.621910"><ele>0.0</ele><time>1970-01-01T00:03:19Z</time></trkpt>
			<trkpt lat="55.019020" lon="21.621910"><ele>0.0</ele><time>1970-01-01T00:03:20Z</time></trkpt>
			<trkpt lat="55.017904" lon="21.619765"><ele>0.0</ele><time>1970-01-01T00:03:21Z</time></trkpt>
			<trkpt lat="55.017904" lon="21.619765"><ele>0.0</ele><time>1970-01-01T00:03:22Z</time></trkpt>
			<trkpt lat="55.016595" lon="21.617490"><ele>0.0</ele><time>1970-01-01T00:03:23Z</time></trkpt>
			<trkpt lat="55.016595" lon="21.617490"><ele>0.0</ele><time>1970-01-01T00:03:24Z</time></trkpt>
			<trkpt lat="55.014277" lon="21.612705"><ele>0.0</ele><time>1970-01-01T00:03:25Z</time></trkpt>
			<trkpt lat="55.014277" lon="21.612705"><ele>0.0</ele><time>1970-01-01T00:03:26Z</time></trkpt>
			<trkpt lat="55.014106" lon="21.612104"><ele>0.0</ele><time>1970-01-01T00:03:27Z</time></trkpt>
			<trkpt lat="55.014106" lon="21.612104"><ele>0.0</ele><time>1970-01-01T00:03:28Z</time></trkpt>
			<trkpt lat="55.013956" lon="21.611267"><ele>0.0</ele><time>1970-01-01T00:03:29Z</time></trkpt>
			<trkpt lat="55.013956" lon="21.611267"><ele>0.0</ele><time>1970-01-01T00:03:30Z</time></trkpt>
			<trkpt lat="55.013956" lon="21.611310"><ele>0.0</ele><time>1970-01-01T00:03:31Z</time></trkpt>
			<trkpt lat="55.013956" lon="21.611310"><ele>0.0</ele><time>1970-01-01T00:03:32Z</time></trkpt>
			<trkpt lat="55.013805" lon="21.608199"><ele>0.0</ele><time>1970-01-01T00:03:33Z</time></trkpt>
			<trkpt lat="55.013805" lon="21.608199"><ele>0.0</ele><time>1970-01-01T00:03:34Z</time></trkpt>
			<trkpt lat="55.013205" lon="21.603392"><ele>0.0</ele><time>1970-01-01T00:03:35Z</time></trkpt>
			<trkpt lat="55.013205" lon="21.603392"><ele>0.0</ele><time>1970-01-01T00:03:36Z</time></trkpt>
			<trkpt lat="55.013119" lon="21.602062"><ele>0.0</ele><time>1970-01-01T00:03:37Z</time></trkpt>
			<trkpt lat="55.013119" lon="21.602062"><ele>0.0</ele><time>1970-01-01T00:03:38Z</time></trkpt>
			<trkpt lat="55.013033" lon="21.600410"><ele>0.0</ele><time>1970-01-01T00:03:39Z</time></trkpt>
			<trkpt lat="55.013033" lon="21.600410"><ele>0.0</ele><time>1970-01-01T00:03:40Z</time></trkpt>
			<trkpt lat="55.013119" lon="21.597921"><ele>0.0</ele><time>1970-01-01T00:03:41Z</time></trkpt>
			<trkpt lat="55.013119" lon="21.597921"><ele>0.0</ele><time>1970-01-01T00:03:42Z</time></trkpt>
			<trkpt lat="55.012926" lon="21.595668"><ele>0.0</ele><time>1970-01-01T00:03:43Z</time></trkpt>
			<trkpt lat="55.012926" lon="21.595668"><ele>0.0</ele><time>1970-01-01T00:03:44Z</time></trkpt>
			<trkpt lat="55.012861" lon="21.587921"><ele>0.0</ele><time>1970-01-01T00:03:45Z</time></trkpt>
			<trkpt lat="55.012861" lon="21.587921"><ele>0.0</ele><time>1970-01-01T00:03:46Z</time></trkpt>
			<trkpt lat="55.012711" lon="21.582879"><ele>0.0</ele><time>1970-01-01T00:03:47Z</time></trkpt>
			<trkpt lat="55.012711" lon="21.582879"><ele>0.0</ele><time>1970-01-01T00:03:48Z</time></trkpt>
			<trkpt lat="55.012475" lon="21.579446"><ele>0.0</ele><time>1970-01-01T00:03:49Z</time></trkpt>
			<trkpt lat="55.012475" lon="21.579446"><ele>0.0</ele><time>1970-01-01T00:03:50Z</time></trkpt>
			<trkpt lat="55.013033" lon="21.570627"><ele>0.0</ele><time>1970-01-01T00:03:51Z</time></trkpt>
			<trkpt lat="55.013033" lon="21.570627"><ele>0.0</ele><time>1970-01-01T00:03:52Z</time></trkpt>
			<trkpt lat="55.013119" lon="21.567623"><ele>0.0</ele><time>1970-01-01T00:03:53Z</time></trkpt>
			<trkpt lat="55.013119" lon="21.567623"><ele>0.0</ele><time>1970-01-01T00:03:54Z</time></trkpt>
			<trkpt lat="55.013033" lon="21.566056"><ele>0.0</ele><time>1970-01-01T00:03:55Z</time></trkpt>
			<trkpt lat="55.013033" lon="21.566056"><ele>0.0</ele><time>1970-01-01T00:03:56Z</time></trkpt>
			<trkpt lat="55.012883" lon="21.565091"><ele>0.0</ele><time>1970-01-01T00:03:57Z</time></trkpt>
			<trkpt lat="55.012883" lon="21.565091"><ele>0.0</ele><time>1970-01-01T00:03:58Z</time></trkpt>
			<trkpt lat="55.011960" lon="21.561464"><ele>0.0</ele><time>1970-01-01T00:03:59Z</time></trkpt>
			<trkpt lat="55.011960" lon="21.561464"><ele>0.0</ele><time>1970-01-01T00:04:00Z</time></trkpt>
			<trkpt lat="54.998077" lon="21.575240"><ele>0.0</ele><time>1970-01-01T00:04:01Z</time></trkpt>
			<trkpt lat="54.998077" lon="21.575240"><ele>0.0</ele><time>1970-01-01T00:04:02Z</time></trkpt>
			<trkpt lat="54.997798" lon="21.575347"><ele>0.0</ele><time>1970-01-01T00:04:03Z</time></trkpt>
			<trkpt lat="54.997798" lon="21.575347"><ele>0.0</ele><time>1970-01-01T00:04:04Z</time></trkpt>
			<trkpt lat="54.996983" lon="21.575154"><ele>0.0</ele><time>1970-01-01T00:04:05Z</time></trkpt>
			<trkpt lat="54.996983" lon="21.575154"><ele>0.0</ele><time>1970-01-01T00:04:06Z</time></trkpt>
			<trkpt lat="54.988700" lon="21.572987"><ele>0.0</ele><time>1970-01-01T00:04:07Z</time></trkpt>
			<trkpt lat="54.988700" lon="21.572987"><ele>0.0</ele><time>1970-01-01T00:04:08Z</time></trkpt>
			<trkpt lat="54.988099" lon="21.572944"><ele>0.0</ele><time>1970-01-01T00:04:09Z</time></trkpt>
			<trkpt lat="54.988099" lon="21.572944"><ele>0.0</ele><time>1970-01-01T00:04:10Z</time></trkpt>
			<trkpt lat="54.985074" lon="21.573523"><ele>0.0</ele><time>1970-01-01T00:04:11Z</time></trkpt>
			<trkpt lat="54.985074" lon="21.573523"><ele>0.0</ele><time>1970-01-01T00:04:12Z</time></trkpt>
			<trkpt lat="54.984365" lon="21.573674"><ele>0.0</ele><time>1970-01-01T00:04:13Z</time></trkpt>
			<trkpt lat="54.984365" lon="21.573674"><ele>0.0</ele><time>1970-01-01T00:04:14Z</time></trkpt>
			<trkpt lat="54.984237" lon="21.573738"><ele>0.0</ele><time>1970-01-01T00:04:15Z</time></trkpt>
			<trkpt lat="54.984237" lon="21.573738"><ele>0.0</ele><time>1970-01-01T00:04:16Z</time></trkpt>
			<trkpt lat="54.979731" lon="21.578351"><ele>0.0</ele><time>1970-01-01T00:04:17Z</time></trkpt>
			<trkpt lat="54.979731" lon="21.578351"><ele>0.0</ele><time>1970-01-01T00:04:18Z</time></trkpt>
			<trkpt lat="54.977327" lon="21.580883"><ele>0.0</ele><time>1970-01-01T00:04:19Z</time></trkpt>
			<trkpt lat="54.977327" lon="21.580883"><ele>0.0</ele><time>1970-01-01T00:04:20Z</time></trkpt>
			<trkpt lat="54.976426" lon="21.581484"><ele>0.0</ele><time>1970-01-01T00:04:21Z</time></trkpt>
			<trkpt lat="54.976426" lon="21.581484"><ele>0.0</ele><time>1970-01-01T00:04:22Z</time></trkpt>
			<trkpt lat="54.975933" lon="21.581677"><ele>0.0</ele><time>1970-01-01T00:04:23Z</time></trkpt>
			<trkpt lat="54.975933" lon="21.581677"><ele>0.0</ele><time>1970-01-01T00:04:24Z</time></trkpt>
			<trkpt lat="54.963830" lon="21.587814"><ele>0.0</ele><time>1970-01-01T00:04:25Z</time></trkpt>
			<trkpt lat="54.963830" lon="21.587814"><ele>0.0</ele><time>1970-01-01T00:04:26Z</time></trkpt>
			<trkpt lat="54.963809" lon="21.587879"><ele>0.0</ele><time>1970-01-01T00:04:27Z</time></trkpt>
			<trkpt lat="54.963809" lon="21.587879"><ele>0.0</ele><time>1970-01-01T00:04:28Z</time></trkpt>
			<trkpt lat="54.963101" lon="21.588372"><ele>0.0</ele><time>1970-01-01T00:04:29Z</time></trkpt>
			<trkpt lat="54.963101" lon="21.588372"><ele>0.0</ele><time>1970-01-01T00:04:30Z</time></trkpt>
			<trkpt lat="54.942952" lon="21.606740"><ele>0.0</ele><time>1970-01-01T00:04:31Z</time></trkpt>
			<trkpt lat="54.942952" lon="21.606740"><ele>0.0</ele><time>1970-01-01T00:04:32Z</time></trkpt>
			<trkpt lat="54.941750" lon="21.607770"><ele>0.0</ele><time>1970-01-01T00:04:33Z</time></trkpt>
			<trkpt lat="54.941750" lon="21.607770"><ele>0.0</ele><time>1970-01-01T00:04:34Z</time></trkpt>
			<trkpt lat="54.941321" lon="21.607920"><ele>0.0</ele><time>1970-01-01T00:04:35Z</time></trkpt>
			<trkpt lat="54.941321" lon="21.607920"><ele>0.0</ele><time>1970-01-01T00:04:36Z</time></trkpt>
			<trkpt lat="54.922546" lon="21.609422"><ele>0.0</ele><time>1970-01-01T00:04:37Z</time></trkpt>
			<trkpt lat="54.922546" lon="21.609422"><ele>0.0</ele><time>1970-01-01T00:04:38Z</time></trkpt>
			<trkpt lat="54.922331" lon="21.609551"><ele>0.0</ele><time>1970-01-01T00:04:39Z</time></trkpt>
			<trkpt lat="54.922331" lon="21.609551"><ele>0.0</ele><time>1970-01-01T00:04:40Z</time></trkpt>
			<trkpt lat="54.920143" lon="21.611611"><ele>0.0</ele><time>1970-01-01T00:04:41Z</time></trkpt>
			<trkpt lat="54.920143" lon="21.611611"><ele>0.0</ele><time>1970-01-01T00:04:42Z</time></trkpt>
			<trkpt lat="54.919392" lon="21.612469"><ele>0.0</ele><time>1970-01-01T00:04:43Z</time></trkpt>
			<trkpt lat="54.919392" lon="21.612469"><ele>0.0</ele><time>1970-01-01T00:04:44Z</time></trkpt>
			<trkpt lat="54.918276" lon="21.614143"><ele>0.0</ele><time>1970-01-01T00:04:45Z</time></trkpt>
			<trkpt lat="54.918276" lon="21.614143"><ele>0.0</ele><time>1970-01-01T00:04:46Z</time></trkpt>
			<trkpt lat="54.917632" lon="21.615173"><ele>0.0</ele><time>1970-01-01T00:04:47Z</time></trkpt>
			<trkpt lat="54.917632" lon="21.615173"><ele>0.0</ele><time>1970-01-01T00:04:48Z</time></trkpt>
			<trkpt lat="54.915100" lon="21.617833"><ele>0.0</ele><time>1970-01-01T00:04:49Z</time></trkpt>
			<trkpt lat="54.915100" lon="21.617833"><ele>0.0</ele><time>1970-01-01T00:04:50Z</time></trkpt>
			<trkpt lat="54.913298" lon="21.619893"><ele>0.0</ele><time>1970-01-01T00:04:51Z</time></trkpt>
			<trkpt lat="54.913298" lon="21.619893"><ele>0.0</ele><time>1970-01-01T00:04:52Z</time></trkpt>
			<trkpt lat="54.902483" lon="21.632854"><ele>0.0</ele><time>1970-01-01T00:04:53Z</time></trkpt>
			<trkpt lat="54.902483" lon="21.632854"><ele>0.0</ele><time>1970-01-01T00:04:54Z</time></trkpt>
			<trkpt lat="54.901882" lon="21.633498"><ele>0.0</ele><time>1970-01-01T00:04:55Z</time></trkpt>
			<trkpt lat="54.901882" lon="21.633498"><ele>0.0</ele><time>1970-01-01T00:04:56Z</time></trkpt>
			<trkpt lat="54.896797" lon="21.640836"><ele>0.0</ele><time>1970-01-01T00:04:57Z</time></trkpt>
			<trkpt lat="54.896797" lon="21.640836"><ele>0.0</ele><time>1970-01-01T00:04:58Z</time></trkpt>
			<trkpt lat="54.894865" lon="21.643025"><ele>0.0</ele><time>1970-01-01T00:04:59Z</time></trkpt>
			<trkpt lat="54.894865" lon="21.643025"><ele>0.0</ele><time>1970-01-01T00:05:00Z</time></trkpt>
			<trkpt lat="54.891003" lon="21.647188"><ele>0.0</ele><time>1970-01-01T00:05:01Z</time></trkpt>
			<trkpt lat="54.891003" lon="21.647188"><ele>0.0</ele><time>1970-01-01T00:05:02Z</time></trkpt>
			<trkpt lat="54.889823" lon="21.648411"><ele>0.0</ele><time>1970-01-01T00:05:03Z</time></trkpt>
			<trkpt lat="54.889823" lon="21.648411"><ele>0.0</ele><time>1970-01-01T00:05:04Z</time></trkpt>
			<trkpt lat="54.889437" lon="21.648668"><ele>0.0</ele><time>1970-01-01T00:05:05Z</time></trkpt>
			<trkpt lat="54.889437" lon="21.648668"><ele>0.0</ele><time>1970-01-01T00:05:06Z</time></trkpt>
			<trkpt lat="54.888986" lon="21.648775"><ele>0.0</ele><time>1970-01-01T00:05:07Z</time></trkpt>
			<trkpt lat="54.888986" lon="21.648775"><ele>0.0</ele><time>1970-01-01T00:05:08Z</time></trkpt>
			<trkpt lat="54.887484" lon="21.648561"><ele>0.0</ele><time>1970-01-01T00:05:09Z</time></trkpt>
			<trkpt lat="54.887484" lon="21.648561"><ele>0.0</ele><time>1970-01-01T00:05:10Z</time></trkpt>
			<trkpt lat="54.885896" lon="21.648818"><ele>0.0</ele><time>1970-01-01T00:05:11Z</time></trkpt>
			<trkpt lat="54.885896" lon="21.648818"><ele>0.0</ele><time>1970-01-01T00:05:12Z</time></trkpt>
			<trkpt lat="54.882463" lon="21.649076"><ele>0.0</ele><time>1970-01-01T00:05:13Z</time></trkpt>
			<trkpt lat="54.882463" lon="21.649076"><ele>0.0</ele><time>1970-01-01T00:05:14Z</time></trkpt>
			<trkpt lat="54.877227" lon="21.650256"><ele>0.0</ele><time>1970-01-01T00:05:15Z</time></trkpt>
			<trkpt lat="54.877227" lon="21.650256"><ele>0.0</ele><time>1970-01-01T00:05:16Z</time></trkpt>
			<trkpt lat="54.876305" lon="21.650170"><ele>0.0</ele><time>1970-01-01T00:05:17Z</time></trkpt>
			<trkpt lat="54.876305" lon="21.650170"><ele>0.0</ele><time>1970-01-01T00:05:18Z</time></trkpt>
			<trkpt lat="54.876090" lon="21.651694"><ele>0.0</ele><time>1970-01-01T00:05:19Z</time></trkpt>
			<trkpt lat="54.876090" lon="21.651694"><ele>0.0</ele><time>1970-01-01T00:05:20Z</time></trkpt>
			<trkpt lat="54.875983" lon="21.653131"><ele>0.0</ele><time>1970-01-01T00:05:21Z</time></trkpt>
			<trkpt lat="54.875983" lon="21.653131"><ele>0.0</ele><time>1970-01-01T00:05:22Z</time></trkpt>
			<trkpt lat="54.876755" lon="21.654397"><ele>0.0</ele><time>1970-01-01T00:05:23Z</time></trkpt>
			<trkpt lat="54.876755" lon="21.654397"><ele>0.0</ele><time>1970-01-01T00:05:24Z</time></trkpt>
			<trkpt lat="54.876755" lon="21.654848"><ele>0.0</ele><time>1970-01-01T00:05:25Z</time></trkpt>
			<trkpt lat="54.876755" lon="21.654848"><ele>0.0</ele><time>1970-01-01T00:05:26Z</time></trkpt>
			<trkpt lat="54.877184" lon="21.656200"><ele>0.0</ele><time>1970-01-01T00:05:27Z</time></trkpt>
			<trkpt lat="54.877184" lon="21.656200"><ele>0.0</ele><time>1970-01-01T00:05:28Z</time></trkpt>
			<trkpt lat="54.879566" lon="21.662637"><ele>0.0</ele><time>1970-01-01T00:05:29Z</time></trkpt>
			<trkpt lat="54.879566" lon="21.662637"><ele>0.0</ele><time>1970-01-01T00:05:30Z</time></trkpt>
			<trkpt lat="54.880317" lon="21.665212"><ele>0.0</ele><time>1970-01-01T00:05:31Z</time></trkpt>
			<trkpt lat="54.880317" lon="21.665212"><ele>0.0</ele><time>1970-01-01T00:05:32Z</time></trkpt>
			<trkpt lat="54.881583" lon="21.673216"><ele>0.0</ele><time>1970-01-01T00:05:33Z</time></trkpt>
			<trkpt lat="54.881583" lon="21.673216"><ele>0.0</ele><time>1970-01-01T00:05:34Z</time></trkpt>
			<trkpt lat="54.881884" lon="21.675598"><ele>0.0</ele><time>1970-01-01T00:05:35Z</time></trkpt>
			<trkpt lat="54.881884" lon="21.675598"><ele>0.0</ele><time>1970-01-01T00:05:36Z</time></trkpt>
			<trkpt lat="54.882656" lon="21.683515"><ele>0.0</ele><time>1970-01-01T00:05:37Z</time></trkpt>
			<trkpt lat="54.882656" lon="21.683515"><ele>0.0</ele><time>1970-01-01T00:05:38Z</time></trkpt>
			<trkpt lat="54.882914" lon="21.686627"><ele>0.0</ele><time>1970-01-01T00:05:39Z</time></trkpt>
			<trkpt lat="54.882914" lon="21.686627"><ele>0.0</ele><time>1970-01-01T00:05:40Z</time></trkpt>
			<trkpt lat="54.883321" lon="21.690532"><ele>0.0</ele><time>1970-01-01T00:05:41Z</time></trkpt>
			<trkpt lat="54.883321" lon="21.690532"><ele>0.0</ele><time>1970-01-01T00:05:42Z</time></trkpt>
			<trkpt lat="54.884008" lon="21.694180"><ele>0.0</ele><time>1970-01-01T00:05:43Z</time></trkpt>
			<trkpt lat="54.884008" lon="21.694180"><ele>0.0</ele><time>1970-01-01T00:05:44Z</time></trkpt>
			<trkpt lat="54.884029" lon="21.694716"><ele>0.0</ele><time>1970-01-01T00:05:45Z</time></trkpt>
			<trkpt lat="54.884029" lon="21.694716"><ele>0.0</ele><time>1970-01-01T00:05:46Z</time></trkpt>
			<trkpt lat="54.883836" lon="21.696004"><ele>0.0</ele><time>1970-01-01T00:05:47Z</time></trkpt>
			<trkpt lat="54.883836" lon="21.696004"><ele>0.0</ele><time>1970-01-01T00:05:48Z</time></trkpt>
			<trkpt lat="54.883750" lon="21.697549"><ele>0.0</ele><time>1970-01-01T00:05:49Z</time></trkpt>
			<trkpt lat="54.883750" lon="21.697549"><ele>0.0</ele><time>1970-01-01T00:05:50Z</time></trkpt>
			<trkpt lat="54.883300" lon="21.699931"><ele>0.0</ele><time>1970-01-01T00:05:51Z</time></trkpt>
			<trkpt lat="54.883300" lon="21.699931"><ele>0.0</ele><time>1970-01-01T00:05:52Z</time></trkpt>
			<trkpt lat="54.883214" lon="21.702527"><ele>0.0</ele><time>1970-01-01T00:05:53Z</time></trkpt>
			<trkpt lat="54.883214" lon="21.702527"><ele>0.0</ele><time>1970-01-01T00:05:54Z</time></trkpt>
			<trkpt lat="54.883600" lon="21.705231"><ele>0.0</ele><time>1970-01-01T00:05:55Z</time></trkpt>
			<trkpt lat="54.883600" lon="21.705231"><ele>0.0</ele><time>1970-01-01T00:05:56Z</time></trkpt>
			<trkpt lat="54.883836" lon="21.706411"><ele>0.0</ele><time>1970-01-01T00:05:57Z</time></trkpt>
			<trkpt lat="54.883836" lon="21.706411"><ele>0.0</ele><time>1970-01-01T00:05:58Z</time></trkpt>
			<trkpt lat="54.883943" lon="21.707355"><ele>0.0</ele><time>1970-01-01T00:05:59Z</time></trkpt>
			<trkpt lat="54.883943" lon="21.707355"><ele>0.0</ele><time>1970-01-01T00:06:00Z</time></trkpt>
			<trkpt lat="54.883965" lon="21.707934"><ele>0.0</ele><time>1970-01-01T00:06:01Z</time></trkpt>
			<trkpt lat="54.883965" lon="21.707934"><ele>0.0</ele><time>1970-01-01T00:06:02Z</time></trkpt>
			<trkpt lat="54.883600" lon="21.717440"><ele>0.0</ele><time>1970-01-01T00:06:03Z</time></trkpt>
			<trkpt lat="54.883600" lon="21.717440"><ele>0.0</ele><time>1970-01-01T00:06:04Z</time></trkpt>
			<trkpt lat="54.884158" lon="21.732396"><ele>0.0</ele><time>1970-01-01T00:06:05Z</time></trkpt>
			<trkpt lat="54.884158" lon="21.732396"><ele>0.0</ele><time>1970-01-01T00:06:06Z</time></trkpt>
			<trkpt lat="54.884115" lon="21.734134"><ele>0.0</ele><time>1970-01-01T00:06:07Z</time></trkpt>
			<trkpt lat="54.884115" lon="21.734134"><ele>0.0</ele><time>1970-01-01T00:06:08Z</time></trkpt>
			<trkpt lat="54.883986" lon="21.736022"><ele>0.0</ele><time>1970-01-01T00:06:09Z</time></trkpt>
			<trkpt lat="54.883986" lon="21.736022"><ele>0.0</ele><time>1970-01-01T00:06:10Z</time></trkpt>
			<trkpt lat="54.883622" lon="21.739949"><ele>0.0</ele><time>1970-01-01T00:06:11Z</time></trkpt>
			<trkpt lat="54.883622" lon="21.739949"><ele>0.0</ele><time>1970-01-01T00:06:12Z</time></trkpt>
			<trkpt lat="54.883600" lon="21.741022"><ele>0.0</ele><time>1970-01-01T00:06:13Z</time></trkpt>
			<trkpt lat="54.883600" lon="21.741022"><ele>0.0</ele><time>1970-01-01T00:06:14Z</time></trkpt>
			<trkpt lat="54.884094" lon="21.744369"><ele>0.0</ele><time>1970-01-01T00:06:15Z</time></trkpt>
			<trkpt lat="54.884094" lon="21.744369"><ele>0.0</ele><time>1970-01-01T00:06:16Z</time></trkpt>
			<trkpt lat="54.883235" lon="21.746494"><ele>0.0</ele><time>1970-01-01T00:06:17Z</time></trkpt>
			<trkpt lat="54.883235" lon="21.746494"><ele>0.0</ele><time>1970-01-01T00:06:18Z</time></trkpt>
			<trkpt lat="54.882742" lon="21.747609"><ele>0.0</ele><time>1970-01-01T00:06:19Z</time></trkpt>
			<trkpt lat="54.882742" lon="21.747609"><ele>0.0</ele><time>1970-01-01T00:06:20Z</time></trkpt>
			<trkpt lat="54.882098" lon="21.750249"><ele>0.0</ele><time>1970-01-01T00:06:21Z</time></trkpt>
			<trkpt lat="54.882098" lon="21.750249"><ele>0.0</ele><time>1970-01-01T00:06:22Z</time></trkpt>
			<trkpt lat="54.881283" lon="21.753982"><ele>0.0</ele><time>1970-01-01T00:06:23Z</time></trkpt>
			<trkpt lat="54.881283" lon="21.753982"><ele>0.0</ele><time>1970-01-01T00:06:24Z</time></trkpt>
			<trkpt lat="54.881154" lon="21.754733"><ele>0.0</ele><time>1970-01-01T00:06:25Z</time></trkpt>
			<trkpt lat="54.881154" lon="21.754733"><ele>0.0</ele><time>1970-01-01T00:06:26Z</time></trkpt>
			<trkpt lat="54.880961" lon="21.756493"><ele>0.0</ele><time>1970-01-01T00:06:27Z</time></trkpt>
			<trkpt lat="54.880961" lon="21.756493"><ele>0.0</ele><time>1970-01-01T00:06:28Z</time></trkpt>
			<trkpt lat="54.879974" lon="21.767093"><ele>0.0</ele><time>1970-01-01T00:06:29Z</time></trkpt>
			<trkpt lat="54.879974" lon="21.767093"><ele>0.0</ele><time>1970-01-01T00:06:30Z</time></trkpt>
			<trkpt lat="54.879931" lon="21.767866"><ele>0.0</ele><time>1970-01-01T00:06:31Z</time></trkpt>
			<trkpt lat="54.879931" lon="21.767866"><ele>0.0</ele><time>1970-01-01T00:06:32Z</time></trkpt>
			<trkpt lat="54.880038" lon="21.776105"><ele>0.0</ele><time>1970-01-01T00:06:33Z</time></trkpt>
			<trkpt lat="54.880038" lon="21.776105"><ele>0.0</ele><time>1970-01-01T00:06:34Z</time></trkpt>
			<trkpt lat="54.880145" lon="21.777371"><ele>0.0</ele><time>1970-01-01T00:06:35Z</time></trkpt>
			<trkpt lat="54.880145" lon="21.777371"><ele>0.0</ele><time>1970-01-01T00:06:36Z</time></trkpt>
			<trkpt lat="54.880618" lon="21.780204"><ele>0.0</ele><time>1970-01-01T00:06:37Z</time></trkpt>
			<trkpt lat="54.880618" lon="21.780204"><ele>0.0</ele><time>1970-01-01T00:06:38Z</time></trkpt>
			<trkpt lat="54.880660" lon="21.780869"><ele>0.0</ele><time>1970-01-01T00:06:39Z</time></trkpt>
			<trkpt lat="54.880660" lon="21.780869"><ele>0.0</ele><time>1970-01-01T00:06:40Z</time></trkpt>
			<trkpt lat="54.880596" lon="21.781255"><ele>0.0</ele><time>1970-01-01T00:06:41Z</time></trkpt>
			<trkpt lat="54.880596" lon="21.781255"><ele>0.0</ele><time>1970-01-01T00:06:42Z</time></trkpt>
			<trkpt lat="54.877785" lon="21.787778"><ele>0.0</ele><time>1970-01-01T00:06:43Z</time></trkpt>
			<trkpt lat="54.877785" lon="21.787778"><ele>0.0</ele><time>1970-01-01T00:06:44Z</time></trkpt>
			<trkpt lat="54.876712" lon="21.790160"><ele>0.0</ele><time>1970-01-01T00:06:45Z</time></trkpt>
			<trkpt lat="54.876712" lon="21.790160"><ele>0.0</ele><time>1970-01-01T00:06:46Z</time></trkpt>
			<trkpt lat="54.876197" lon="21.791190"><ele>0.0</ele><time>1970-01-01T00:06:47Z</time></trkpt>
			<trkpt lat="54.876197" lon="21.791190"><ele>0.0</ele><time>1970-01-01T00:06:48Z</time></trkpt>
			<trkpt lat="54.872786" lon="21.806854"><ele>0.0</ele><time>1970-01-01T00:06:49Z</time></trkpt>
			<trkpt lat="54.872786" lon="21.806854"><ele>0.0</ele><time>1970-01-01T00:06:50Z</time></trkpt>
			<trkpt lat="54.872571" lon="21.807433"><ele>0.0</ele><time>1970-01-01T00:06:51Z</time></trkpt>
			<trkpt lat="54.872571" lon="21.807433"><ele>0.0</ele><time>1970-01-01T00:06:52Z</time></trkpt>
			<trkpt lat="54.864353" lon="21.822282"><ele>0.0</ele><time>1970-01-01T00:06:53Z</time></trkpt>
			<trkpt lat="54.864353" lon="21.822282"><ele>0.0</ele><time>1970-01-01T00:06:54Z</time></trkpt>
			<trkpt lat="54.864567" lon="21.823741"><ele>0.0</ele><time>1970-01-01T00:06:55Z</time></trkpt>
			<trkpt lat="54.864567" lon="21.823741"><ele>0.0</ele><time>1970-01-01T00:06:56Z</time></trkpt>
			<trkpt lat="54.864782" lon="21.824406"><ele>0.0</ele><time>1970-01-01T00:06:57Z</time></trkpt>
			<trkpt lat="54.864782" lon="21.824406"><ele>0.0</ele><time>1970-01-01T00:06:58Z</time></trkpt>
			<trkpt lat="54.869760" lon="21.832432"><ele>0.0</ele><time>1970-01-01T00:06:59Z</time></trkpt>
			<trkpt lat="54.869760" lon="21.832432"><ele>0.0</ele><time>1970-01-01T00:07:00Z</time></trkpt>
			<trkpt lat="54.869953" lon="21.832925"><ele>0.0</ele><time>1970-01-01T00:07:01Z</time></trkpt>
			<trkpt lat="54.869953" lon="21.832925"><ele>0.0</ele><time>1970-01-01T00:07:02Z</time></trkpt>
			<trkpt lat="54.870103" lon="21.833397"><ele>0.0</ele><time>1970-01-01T00:07:03Z</time></trkpt>
			<trkpt lat="54.870103" lon="21.833397"><ele>0.0</ele><time>1970-01-01T00:07:04Z</time></trkpt>
			<trkpt lat="54.870597" lon="21.836637"><ele>0.0</ele><time>1970-01-01T00:07:05Z</time></trkpt>
			<trkpt lat="54.870597" lon="21.836637"><ele>0.0</ele><time>1970-01-01T00:07:06Z</time></trkpt>
			<trkpt lat="54.870747" lon="21.837260"><ele>0.0</ele><time>1970-01-01T00:07:07Z</time></trkpt>
			<trkpt lat="54.870747" lon="21.837260"><ele>0.0</ele><time>1970-01-01T00:07:08Z</time></trkpt>
			<trkpt lat="54.872185" lon="21.839813"><ele>0.0</ele><time>1970-01-01T00:07:09Z</time></trkpt>
			<trkpt lat="54.872185" lon="21.839813"><ele>0.0</ele><time>1970-01-01T00:07:10Z</time></trkpt>
			<trkpt lat="54.872421" lon="21.840500"><ele>0.0</ele><time>1970-01-01T00:07:11Z</time></trkpt>
			<trkpt lat="54.872421" lon="21.840500"><ele>0.0</ele><time>1970-01-01T00:07:12Z</time></trkpt>
			<trkpt lat="54.873343" lon="21.844019"><ele>0.0</ele><time>1970-01-01T00:07:13Z</time></trkpt>
			<trkpt lat="54.873343" lon="21.844019"><ele>0.0</ele><time>1970-01-01T00:07:14Z</time></trkpt>
			<trkpt lat="54.873601" lon="21.844813"><ele>0.0</ele><time>1970-01-01T00:07:15Z</time></trkpt>
			<trkpt lat="54.873601" lon="21.844813"><ele>0.0</ele><time>1970-01-01T00:07:16Z</time></trkpt>
			<trkpt lat="54.878665" lon="21.859468"><ele>0.0</ele><time>1970-01-01T00:07:17Z</time></trkpt>
			<trkpt lat="54.878665" lon="21.859468"><ele>0.0</ele><time>1970-01-01T00:07:18Z</time></trkpt>
			<trkpt lat="54.885360" lon="21.879982"><ele>0.0</ele><time>1970-01-01T00:07:19Z</time></trkpt>
			<trkpt lat="54.885360" lon="21.879982"><ele>0.0</ele><time>1970-01-01T00:07:20Z</time></trkpt>
			<trkpt lat="54.885574" lon="21.880540"><ele>0.0</ele><time>1970-01-01T00:07:21Z</time></trkpt>
			<trkpt lat="54.885574" lon="21.880540"><ele>0.0</ele><time>1970-01-01T00:07:22Z</time></trkpt>
			<trkpt lat="54.886969" lon="21.883522"><ele>0.0</ele><time>1970-01-01T00:07:23Z</time></trkpt>
			<trkpt lat="54.886969" lon="21.883522"><ele>0.0</ele><time>1970-01-01T00:07:24Z</time></trkpt>
			<trkpt lat="54.889844" lon="21.888715"><ele>0.0</ele><time>1970-01-01T00:07:25Z</time></trkpt>
			<trkpt lat="54.889844" lon="21.888715"><ele>0.0</ele><time>1970-01-01T00:07:26Z</time></trkpt>
			<trkpt lat="54.895745" lon="21.898822"><ele>0.0</ele><time>1970-01-01T00:07:27Z</time></trkpt>
			<trkpt lat="54.895745" lon="21.898822"><ele>0.0</ele><time>1970-01-01T00:07:28Z</time></trkpt>
			<trkpt lat="54.896754" lon="21.900624"><ele>0.0</ele><time>1970-01-01T00:07:29Z</time></trkpt>
			<trkpt lat="54.896754" lon="21.900624"><ele>0.0</ele><time>1970-01-01T00:07:30Z</time></trkpt>
			<trkpt lat="54.904607" lon="21.916331"><ele>0.0</ele><time>1970-01-01T00:07:31Z</time></trkpt>
			<trkpt lat="54.904607" lon="21.916331"><ele>0.0</ele><time>1970-01-01T00:07:32Z</time></trkpt>
			<trkpt lat="54.905036" lon="21.917468"><ele>0.0</ele><time>1970-01-01T00:07:33Z</time></trkpt>
			<trkpt lat="54.905036" lon="21.917468"><ele>0.0</ele><time>1970-01-01T00:07:34Z</time></trkpt>
			<trkpt lat="54.905101" lon="21.917790"><ele>0.0</ele><time>1970-01-01T00:07:35Z</time></trkpt>
			<trkpt lat="54.905101" lon="21.917790"><ele>0.0</ele><time>1970-01-01T00:07:36Z</time></trkpt>
			<trkpt lat="54.905230" lon="21.919850"><ele>0.0</ele><time>1970-01-01T00:07:37Z</time></trkpt>
			<trkpt lat="54.905230" lon="21.919850"><ele>0.0</ele><time>1970-01-01T00:07:38Z</time></trkpt>
			<trkpt lat="54.905015" lon="21.920236"><ele>0.0</ele><time>1970-01-01T00:07:39Z</time></trkpt>
			<trkpt lat="54.905015" lon="21.920236"><ele>0.0</ele><time>1970-01-01T00:07:40Z</time></trkpt>
			<trkpt lat="54.904157" lon="21.922490"><ele>0.0</ele><time>1970-01-01T00:07:41Z</time></trkpt>
			<trkpt lat="54.904157" lon="21.922490"><ele>0.0</ele><time>1970-01-01T00:07:42Z</time></trkpt>
			<trkpt lat="54.903427" lon="21.925837"><ele>0.0</ele><time>1970-01-01T00:07:43Z</time></trkpt>
			<trkpt lat="54.903427" lon="21.925837"><ele>0.0</ele><time>1970-01-01T00:07:44Z</time></trkpt>
			<trkpt lat="54.902976" lon="21.927189"><ele>0.0</ele><time>1970-01-01T00:07:45Z</time></trkpt>
			<trkpt lat="54.902976" lon="21.927189"><ele>0.0</ele><time>1970-01-01T00:07:46Z</time></trkpt>
			<trkpt lat="54.902783" lon="21.927403"><ele>0.0</ele><time>1970-01-01T00:07:47Z</time></trkpt>
			<trkpt lat="54.902783" lon="21.927403"><ele>0.0</ele><time>1970-01-01T00:07:48Z</time></trkpt>
			<trkpt lat="54.902869" lon="21.927747"><ele>0.0</ele><time>1970-01-01T00:07:49Z</time></trkpt>
			<trkpt lat="54.902869" lon="21.927747"><ele>0.0</ele><time>1970-01-01T00:07:50Z</time></trkpt>
			<trkpt lat="54.903234" lon="21.928583"><ele>0.0</ele><time>1970-01-01T00:07:51Z</time></trkpt>
			<trkpt lat="54.903234" lon="21.928583"><ele>0.0</ele><time>1970-01-01T00:07:52Z</time></trkpt>
			<trkpt lat="54.903620" lon="21.929120"><ele>0.0</ele><time>1970-01-01T00:07:53Z</time></trkpt>
			<trkpt lat="54.903620" lon="21.929120"><ele>0.0</ele><time>1970-01-01T00:07:54Z</time></trkpt>
			<trkpt lat="54.903878" lon="21.929313"><ele>0.0</ele><time>1970-01-01T00:07:55Z</time></trkpt>
			<trkpt lat="54.903878" lon="21.929313"><ele>0.0</ele><time>1970-01-01T00:07:56Z</time></trkpt>
			<trkpt lat="54.904328" lon="21.930879"><ele>0.0</ele><time>1970-01-01T00:07:57Z</time></trkpt>
			<trkpt lat="54.904328" lon="21.930879"><ele>0.0</ele><time>1970-01-01T00:07:58Z</time></trkpt>
			<trkpt lat="54.904951" lon="21.933905"><ele>0.0</ele><time>1970-01-01T00:07:59Z</time></trkpt>
			<trkpt lat="54.904951" lon="21.933905"><ele>0.0</ele><time>1970-01-01T00:08:00Z</time></trkpt>
			<trkpt lat="54.906023" lon="21.939849"><ele>0.0</ele><time>1970-01-01T00:08:01Z</time></trkpt>
			<trkpt lat="54.906023" lon="21.939849"><ele>0.0</ele><time>1970-01-01T00:08:02Z</time></trkpt>
			<trkpt lat="54.906774" lon="21.943475"><ele>0.0</ele><time>1970-01-01T00:08:03Z</time></trkpt>
			<trkpt lat="54.906774" lon="21.943475"><ele>0.0</ele><time>1970-01-01T00:08:04Z</time></trkpt>
			<trkpt lat="54.907375" lon="21.947016"><ele>0.0</ele><time>1970-01-01T00:08:05Z</time></trkpt>
			<trkpt lat="54.907375" lon="21.947016"><ele>0.0</ele><time>1970-01-01T00:08:06Z</time></trkpt>
			<trkpt lat="54.909349" lon="21.957380"><ele>0.0</ele><time>1970-01-01T00:08:07Z</time></trkpt>
			<trkpt lat="54.909349" lon="21.957380"><ele>0.0</ele><time>1970-01-01T00:08:08Z</time></trkpt>
			<trkpt lat="54.910100" lon="21.974825"><ele>0.0</ele><time>1970-01-01T00:08:09Z</time></trkpt>
			<trkpt lat="54.910100" lon="21.974825"><ele>0.0</ele><time>1970-01-01T00:08:10Z</time></trkpt>
			<trkpt lat="54.911602" lon="21.986369"><ele>0.0</ele><time>1970-01-01T00:08:11Z</time></trkpt>
			<trkpt lat="54.911602" lon="21.986369"><ele>0.0</ele><time>1970-01-01T00:08:12Z</time></trkpt>
			<trkpt lat="54.911753" lon="21.988794"><ele>0.0</ele><time>1970-01-01T00:08:13Z</time></trkpt>
			<trkpt lat="54.911753" lon="21.988794"><ele>0.0</ele><time>1970-01-01T00:08:14Z</time></trkpt>
			<trkpt lat="54.911152" lon="22.019285"><ele>0.0</ele><time>1970-01-01T00:08:15Z</time></trkpt>
			<trkpt lat="54.911152" lon="22.019285"><ele>0.0</ele><time>1970-01-01T00:08:16Z</time></trkpt>
			<trkpt lat="54.911087" lon="22.019500"><ele>0.0</ele><time>1970-01-01T00:08:17Z</time></trkpt>
			<trkpt lat="54.911087" lon="22.019500"><ele>0.0</ele><time>1970-01-01T00:08:18Z</time></trkpt>
			<trkpt lat="54.912826" lon="22.033941"><ele>0.0</ele><time>1970-01-01T00:08:19Z</time></trkpt>
			<trkpt lat="54.912826" lon="22.033941"><ele>0.0</ele><time>1970-01-01T00:08:20Z</time></trkpt>
			<trkpt lat="54.913147" lon="22.036129"><ele>0.0</ele><time>1970-01-01T00:08:21Z</time></trkpt>
			<trkpt lat="54.913147" lon="22.036129"><ele>0.0</ele><time>1970-01-01T00:08:22Z</time></trkpt>
			<trkpt lat="54.917246" lon="22.060334"><ele>0.0</ele><time>1970-01-01T00:08:23Z</time></trkpt>
			<trkpt lat="54.917246" lon="22.060334"><ele>0.0</ele><time>1970-01-01T00:08:24Z</time></trkpt>
			<trkpt lat="54.919649" lon="22.076405"><ele>0.0</ele><time>1970-01-01T00:08:25Z</time></trkpt>
			<trkpt lat="54.919649" lon="22.076405"><ele>0.0</ele><time>1970-01-01T00:08:26Z</time></trkpt>
			<trkpt lat="54.919713" lon="22.077156"><ele>0.0</ele><time>1970-01-01T00:08:27Z</time></trkpt>
			<trkpt lat="54.919713" lon="22.077156"><ele>0.0</ele><time>1970-01-01T00:08:28Z</time></trkpt>
			<trkpt lat="54.920014" lon="22.078143"><ele>0.0</ele><time>1970-01-01T00:08:29Z</time></trkpt>
			<trkpt lat="54.920014" lon="22.078143"><ele>0.0</ele><time>1970-01-01T00:08:30Z</time></trkpt>
			<trkpt lat="54.920379" lon="22.079774"><ele>0.0</ele><time>1970-01-01T00:08:31Z</time></trkpt>
			<trkpt lat="54.920379" lon="22.079774"><ele>0.0</ele><time>1970-01-01T00:08:32Z</time></trkpt>
			<trkpt lat="54.920550" lon="22.081019"><ele>0.0</ele><time>1970-01-01T00:08:33Z</time></trkpt>
			<trkpt lat="54.920550" lon="22.081019"><ele>0.0</ele><time>1970-01-01T00:08:34Z</time></trkpt>
			<trkpt lat="54.921108" lon="22.085890"><ele>0.0</ele><time>1970-01-01T00:08:35Z</time></trkpt>
			<trkpt lat="54.921108" lon="22.085890"><ele>0.0</ele><time>1970-01-01T00:08:36Z</time></trkpt>
			<trkpt lat="54.921688" lon="22.092992"><ele>0.0</ele><time>1970-01-01T00:08:37Z</time></trkpt>
			<trkpt lat="54.921688" lon="22.092992"><ele>0.0</ele><time>1970-01-01T00:08:38Z</time></trkpt>
			<trkpt lat="54.921881" lon="22.095696"><ele>0.0</ele><time>1970-01-01T00:08:39Z</time></trkpt>
			<trkpt lat="54.921881" lon="22.095696"><ele>0.0</ele><time>1970-01-01T00:08:40Z</time></trkpt>
			<trkpt lat="54.921881" lon="22.098292"><ele>0.0</ele><time>1970-01-01T00:08:41Z</time></trkpt>
			<trkpt lat="54.921881" lon="22.098292"><ele>0.0</ele><time>1970-01-01T00:08:42Z</time></trkpt>
			<trkpt lat="54.921688" lon="22.099987"><ele>0.0</ele><time>1970-01-01T00:08:43Z</time></trkpt>
			<trkpt lat="54.921688" lon="22.099987"><ele>0.0</ele><time>1970-01-01T00:08:44Z</time></trkpt>
			<trkpt lat="54.921537" lon="22.100760"><ele>0.0</ele><time>1970-01-01T00:08:45Z</time></trkpt>
			<trkpt lat="54.921537" lon="22.100760"><ele>0.0</ele><time>1970-01-01T00:08:46Z</time></trkpt>
			<trkpt lat="54.921151" lon="22.102326"><ele>0.0</ele><time>1970-01-01T00:08:47Z</time></trkpt>
			<trkpt lat="54.921151" lon="22.102326"><ele>0.0</ele><time>1970-01-01T00:08:48Z</time></trkpt>
			<trkpt lat="54.919220" lon="22.107176"><ele>0.0</ele><time>1970-01-01T00:08:49Z</time></trkpt>
			<trkpt lat="54.919220" lon="22.107176"><ele>0.0</ele><time>1970-01-01T00:08:50Z</time></trkpt>
			<trkpt lat="54.918512" lon="22.109150"><ele>0.0</ele><time>1970-01-01T00:08:51Z</time></trkpt>
			<trkpt lat="54.918512" lon="22.109150"><ele>0.0</ele><time>1970-01-01T00:08:52Z</time></trkpt>
			<trkpt lat="54.918383" lon="22.109836"><ele>0.0</ele><time>1970-01-01T00:08:53Z</time></trkpt>
			<trkpt lat="54.918383" lon="22.109836"><ele>0.0</ele><time>1970-01-01T00:08:54Z</time></trkpt>
			<trkpt lat="54.918168" lon="22.111617"><ele>0.0</ele><time>1970-01-01T00:08:55Z</time></trkpt>
			<trkpt lat="54.918168" lon="22.111617"><ele>0.0</ele><time>1970-01-01T00:08:56Z</time></trkpt>
			<trkpt lat="54.917997" lon="22.132238"><ele>0.0</ele><time>1970-01-01T00:08:57Z</time></trkpt>
			<trkpt lat="54.917997" lon="22.132238"><ele>0.0</ele><time>1970-01-01T00:08:58Z</time></trkpt>
			<trkpt lat="54.917847" lon="22.134470"><ele>0.0</ele><time>1970-01-01T00:08:59Z</time></trkpt>
			<trkpt lat="54.917847" lon="22.134470"><ele>0.0</ele><time>1970-01-01T00:09:00Z</time></trkpt>
			<trkpt lat="54.917804" lon="22.139512"><ele>0.0</ele><time>1970-01-01T00:09:01Z</time></trkpt>
			<trkpt lat="54.917804" lon="22.139512"><ele>0.0</ele><time>1970-01-01T00:09:02Z</time></trkpt>
			<trkpt lat="54.917761" lon="22.140693"><ele>0.0</ele><time>1970-01-01T00:09:03Z</time></trkpt>
			<trkpt lat="54.917761" lon="22.140693"><ele>0.0</ele><time>1970-01-01T00:09:04Z</time></trkpt>
			<trkpt lat="54.917589" lon="22.142238"><ele>0.0</ele><time>1970-01-01T00:09:05Z</time></trkpt>
			<trkpt lat="54.917589" lon="22.142238"><ele>0.0</ele><time>1970-01-01T00:09:06Z</time></trkpt>
			<trkpt lat="54.917460" lon="22.142817"><ele>0.0</ele><time>1970-01-01T00:09:07Z</time></trkpt>
			<trkpt lat="54.917460" lon="22.142817"><ele>0.0</ele><time>1970-01-01T00:09:08Z</time></trkpt>
			<trkpt lat="54.911881" lon="22.163266"><ele>0.0</ele><time>1970-01-01T00:09:09Z</time></trkpt>
			<trkpt lat="54.911881" lon="22.163266"><ele>0.0</ele><time>1970-01-01T00:09:10Z</time></trkpt>
			<trkpt lat="54.909113" lon="22.173244"><ele>0.0</ele><time>1970-01-01T00:09:11Z</time></trkpt>
			<trkpt lat="54.909113" lon="22.173244"><ele>0.0</ele><time>1970-01-01T00:09:12Z</time></trkpt>
			<trkpt lat="54.908448" lon="22.175797"><ele>0.0</ele><time>1970-01-01T00:09:13Z</time></trkpt>
			<trkpt lat="54.908448" lon="22.175797"><ele>0.0</ele><time>1970-01-01T00:09:14Z</time></trkpt>
			<trkpt lat="54.897054" lon="22.217211"><ele>0.0</ele><time>1970-01-01T00:09:15Z</time></trkpt>
			<trkpt lat="54.897054" lon="22.217211"><ele>0.0</ele><time>1970-01-01T00:09:16Z</time></trkpt>
			<trkpt lat="54.896775" lon="22.218069"><ele>0.0</ele><time>1970-01-01T00:09:17Z</time></trkpt>
			<trkpt lat="54.896775" lon="22.218069"><ele>0.0</ele><time>1970-01-01T00:09:18Z</time></trkpt>
			<trkpt lat="54.896174" lon="22.219592"><ele>0.0</ele><time>1970-01-01T00:09:19Z</time></trkpt>
			<trkpt lat="54.896174" lon="22.219592"><ele>0.0</ele><time>1970-01-01T00:09:20Z</time></trkpt>
			<trkpt lat="54.894243" lon="22.223176"><ele>0.0</ele><time>1970-01-01T00:09:21Z</time></trkpt>
			<trkpt lat="54.894243" lon="22.223176"><ele>0.0</ele><time>1970-01-01T00:09:22Z</time></trkpt>
			<trkpt lat="54.893170" lon="22.225300"><ele>0.0</ele><time>1970-01-01T00:09:23Z</time></trkpt>
			<trkpt lat="54.893170" lon="22.225300"><ele>0.0</ele><time>1970-01-01T00:09:24Z</time></trkpt>
			<trkpt lat="54.892698" lon="22.226545"><ele>0.0</ele><time>1970-01-01T00:09:25Z</time></trkpt>
			<trkpt lat="54.892698" lon="22.226545"><ele>0.0</ele><time>1970-01-01T00:09:26Z</time></trkpt>
			<trkpt lat="54.892205" lon="22.228798"><ele>0.0</ele><time>1970-01-01T00:09:27Z</time></trkpt>
			<trkpt lat="54.892205" lon="22.228798"><ele>0.0</ele><time>1970-01-01T00:09:28Z</time></trkpt>
			<trkpt lat="54.889780" lon="22.241951"><ele>0.0</ele><time>1970-01-01T00:09:29Z</time></trkpt>
			<trkpt lat="54.889780" lon="22.241951"><ele>0.0</ele><time>1970-01-01T00:09:30Z</time></trkpt>
			<trkpt lat="54.889158" lon="22.245234"><ele>0.0</ele><time>1970-01-01T00:09:31Z</time></trkpt>
			<trkpt lat="54.889158" lon="22.245234"><ele>0.0</ele><time>1970-01-01T00:09:32Z</time></trkpt>
			<trkpt lat="54.888879" lon="22.246436"><ele>0.0</ele><time>1970-01-01T00:09:33Z</time></trkpt>
			<trkpt lat="54.888879" lon="22.246436"><ele>0.0</ele><time>1970-01-01T00:09:34Z</time></trkpt>
			<trkpt lat="54.888707" lon="22.246887"><ele>0.0</ele><time>1970-01-01T00:09:35Z</time></trkpt>
			<trkpt lat="54.888707" lon="22.246887"><ele>0.0</ele><time>1970-01-01T00:09:36Z</time></trkpt>
			<trkpt lat="54.873837" lon="22.267829"><ele>0.0</ele><time>1970-01-01T00:09:37Z</time></trkpt>
			<trkpt lat="54.873837" lon="22.267829"><ele>0.0</ele><time>1970-01-01T00:09:38Z</time></trkpt>
			<trkpt lat="54.871155" lon="22.271541"><ele>0.0</ele><time>1970-01-01T00:09:39Z</time></trkpt>
			<trkpt lat="54.871155" lon="22.271541"><ele>0.0</ele><time>1970-01-01T00:09:40Z</time></trkpt>
			<trkpt lat="54.864803" lon="22.280833"><ele>0.0</ele><time>1970-01-01T00:09:41Z</time></trkpt>
			<trkpt lat="54.864803" lon="22.280833"><ele>0.0</ele><time>1970-01-01T00:09:42Z</time></trkpt>
			<trkpt lat="54.864396" lon="22.281219"><ele>0.0</ele><time>1970-01-01T00:09:43Z</time></trkpt>
			<trkpt lat="54.864396" lon="22.281219"><ele>0.0</ele><time>1970-01-01T00:09:44Z</time></trkpt>
			<trkpt lat="54.862679" lon="22.282463"><ele>0.0</ele><time>1970-01-01T00:09:45Z</time></trkpt>
			<trkpt lat="54.862679" lon="22.282463"><ele>0.0</ele><time>1970-01-01T00:09:46Z</time></trkpt>
			<trkpt lat="54.861971" lon="22.282871"><ele>0.0</ele><time>1970-01-01T00:09:47Z</time></trkpt>
			<trkpt lat="54.861971" lon="22.282871"><ele>0.0</ele><time>1970-01-01T00:09:48Z</time></trkpt>
			<trkpt lat="54.859138" lon="22.284845"><ele>0.0</ele><time>1970-01-01T00:09:49Z</time></trkpt>
			<trkpt lat="54.859138" lon="22.284845"><ele>0.0</ele><time>1970-01-01T00:09:50Z</time></trkpt>
			<trkpt lat="54.859653" lon="22.286712"><ele>0.0</ele><time>1970-01-01T00:09:51Z</time></trkpt>
			<trkpt lat="54.859653" lon="22.286712"><ele>0.0</ele><time>1970-01-01T00:09:52Z</time></trkpt>
			<trkpt lat="54.859739" lon="22.286862"><ele>0.0</ele><time>1970-01-01T00:09:53Z</time></trkpt>
			<trkpt lat="54.859739" lon="22.286862"><ele>0.0</ele><time>1970-01-01T00:09:54Z</time></trkpt>
			<trkpt lat="54.859975" lon="22.287077"><ele>0.0</ele><time>1970-01-01T00:09:55Z</time></trkpt>
			<trkpt lat="54.859975" lon="22.287077"><ele>0.0</ele><time>1970-01-01T00:09:56Z</time></trkpt>
			<trkpt lat="54.860447" lon="22.287399"><ele>0.0</ele><time>1970-01-01T00:09:57Z</time></trkpt>
			<trkpt lat="54.860447" lon="22.287399"><ele>0.0</ele><time>1970-01-01T00:09:58Z</time></trkpt>
			<trkpt lat="54.862057" lon="22.288429"><ele>0.0</ele><time>1970-01-01T00:09:59Z</time></trkpt>
			<trkpt lat="54.862057" lon="22.288429"><ele>0.0</ele><time>1970-01-01T00:10:00Z</time></trkpt>
			<trkpt lat="54.879223" lon="22.305316"><ele>0.0</ele><time>1970-01-01T00:10:01Z</time></trkpt>
			<trkpt lat="54.879223" lon="22.305316"><ele>0.0</ele><time>1970-01-01T00:10:02Z</time></trkpt>
			<trkpt lat="54.886197" lon="22.314950"><ele>0.0</ele><time>1970-01-01T00:10:03Z</time></trkpt>
			<trkpt lat="54.886197" lon="22.314950"><ele>0.0</ele><time>1970-01-01T00:10:04Z</time></trkpt>
			<trkpt lat="54.886669" lon="22.315809"><ele>0.0</ele><time>1970-01-01T00:10:05Z</time></trkpt>
			<trkpt lat="54.886669" lon="22.315809"><ele>0.0</ele><time>1970-01-01T00:10:06Z</time></trkpt>
			<trkpt lat="54.887055" lon="22.317203"><ele>0.0</ele><time>1970-01-01T00:10:07Z</time></trkpt>
			<trkpt lat="54.887055" lon="22.317203"><ele>0.0</ele><time>1970-01-01T00:10:08Z</time></trkpt>
			<trkpt lat="54.889394" lon="22.334713"><ele>0.0</ele><time>1970-01-01T00:10:09Z</time></trkpt>
			<trkpt lat="54.889394" lon="22.334713"><ele>0.0</ele><time>1970-01-01T00:10:10Z</time></trkpt>
			<trkpt lat="54.889737" lon="22.336279"><ele>0.0</ele><time>1970-01-01T00:10:11Z</time></trkpt>
			<trkpt lat="54.889737" lon="22.336279"><ele>0.0</ele><time>1970-01-01T00:10:12Z</time></trkpt>
			<trkpt lat="54.890896" lon="22.340828"><ele>0.0</ele><time>1970-01-01T00:10:13Z</time></trkpt>
			<trkpt lat="54.890896" lon="22.340828"><ele>0.0</ele><time>1970-01-01T00:10:14Z</time></trkpt>
			<trkpt lat="54.891668" lon="22.344819"><ele>0.0</ele><time>1970-01-01T00:10:15Z</time></trkpt>
			<trkpt lat="54.891668" lon="22.344819"><ele>0.0</ele><time>1970-01-01T00:10:16Z</time></trkpt>
			<trkpt lat="54.891733" lon="22.346107"><ele>0.0</ele><time>1970-01-01T00:10:17Z</time></trkpt>
			<trkpt lat="54.891733" lon="22.346107"><ele>0.0</ele><time>1970-01-01T00:10:18Z</time></trkpt>
			<trkpt lat="54.891153" lon="22.360333"><ele>0.0</ele><time>1970-01-01T00:10:19Z</time></trkpt>
			<trkpt lat="54.891153" lon="22.360333"><ele>0.0</ele><time>1970-01-01T00:10:20Z</time></trkpt>
			<trkpt lat="54.891196" lon="22.361041"><ele>0.0</ele><time>1970-01-01T00:10:21Z</time></trkpt>
			<trkpt lat="54.891196" lon="22.361041"><ele>0.0</ele><time>1970-01-01T00:10:22Z</time></trkpt>
			<trkpt lat="54.891883" lon="22.365719"><ele>0.0</ele><time>1970-01-01T00:10:23Z</time></trkpt>
			<trkpt lat="54.891883" lon="22.365719"><ele>0.0</ele><time>1970-01-01T00:10:24Z</time></trkpt>
			<trkpt lat="54.892226" lon="22.366384"><ele>0.0</ele><time>1970-01-01T00:10:25Z</time></trkpt>
			<trkpt lat="54.892226" lon="22.366384"><ele>0.0</ele><time>1970-01-01T00:10:26Z</time></trkpt>
			<trkpt lat="54.892291" lon="22.366427"><ele>0.0</ele><time>1970-01-01T00:10:27Z</time></trkpt>
			<trkpt lat="54.892291" lon="22.366427"><ele>0.0</ele><time>1970-01-01T00:10:28Z</time></trkpt>
			<trkpt lat="54.894372" lon="22.369110"><ele>0.0</ele><time>1970-01-01T00:10:29Z</time></trkpt>
			<trkpt lat="54.894372" lon="22.369110"><ele>0.0</ele><time>1970-01-01T00:10:30Z</time></trkpt>
			<trkpt lat="54.894844" lon="22.369775"><ele>0.0</ele><time>1970-01-01T00:10:31Z</time></trkpt>
			<trkpt lat="54.894844" lon="22.369775"><ele>0.0</ele><time>1970-01-01T00:10:32Z</time></trkpt>
			<trkpt lat="54.895595" lon="22.370697"><ele>0.0</ele><time>1970-01-01T00:10:33Z</time></trkpt>
			<trkpt lat="54.895595" lon="22.370697"><ele>0.0</ele><time>1970-01-01T00:10:34Z</time></trkpt>
			<trkpt lat="54.898792" lon="22.378615"><ele>0.0</ele><time>1970-01-01T00:10:35Z</time></trkpt>
			<trkpt lat="54.898792" lon="22.378615"><ele>0.0</ele><time>1970-01-01T00:10:36Z</time></trkpt>
			<trkpt lat="54.900316" lon="22.384087"><ele>0.0</ele><time>1970-01-01T00:10:37Z</time></trkpt>
			<trkpt lat="54.900316" lon="22.384087"><ele>0.0</ele><time>1970-01-01T00:10:38Z</time></trkpt>
			<trkpt lat="54.900487" lon="22.384237"><ele>0.0</ele><time>1970-01-01T00:10:39Z</time></trkpt>
			<trkpt lat="54.900487" lon="22.384237"><ele>0.0</ele><time>1970-01-01T00:10:40Z</time></trkpt>
			<trkpt lat="54.900809" lon="22.384387"><ele>0.0</ele><time>1970-01-01T00:10:41Z</time></trkpt>
			<trkpt lat="54.900809" lon="22.384387"><ele>0.0</ele><time>1970-01-01T00:10:42Z</time></trkpt>
			<trkpt lat="54.901217" lon="22.384709"><ele>0.0</ele><time>1970-01-01T00:10:43Z</time></trkpt>
			<trkpt lat="54.901217" lon="22.384709"><ele>0.0</ele><time>1970-01-01T00:10:44Z</time></trkpt>
			<trkpt lat="54.901668" lon="22.385138"><ele>0.0</ele><time>1970-01-01T00:10:45Z</time></trkpt>
			<trkpt lat="54.901668" lon="22.385138"><ele>0.0</ele><time>1970-01-01T00:10:46Z</time></trkpt>
			<trkpt lat="54.901925" lon="22.385246"><ele>0.0</ele><time>1970-01-01T00:10:47Z</time></trkpt>
			<trkpt lat="54.901925" lon="22.385246"><ele>0.0</ele><time>1970-01-01T00:10:48Z</time></trkpt>
			<trkpt lat="54.904328" lon="22.385868"><ele>0.0</ele><time>1970-01-01T00:10:49Z</time></trkpt>
			<trkpt lat="54.904328" lon="22.385868"><ele>0.0</ele><time>1970-01-01T00:10:50Z</time></trkpt>
			<trkpt lat="54.906517" lon="22.386683"><ele>0.0</ele><time>1970-01-01T00:10:51Z</time></trkpt>
			<trkpt lat="54.906517" lon="22.386683"><ele>0.0</ele><time>1970-01-01T00:10:52Z</time></trkpt>
			<trkpt lat="54.906774" lon="22.387177"><ele>0.0</ele><time>1970-01-01T00:10:53Z</time></trkpt>
			<trkpt lat="54.906774" lon="22.387177"><ele>0.0</ele><time>1970-01-01T00:10:54Z</time></trkpt>
			<trkpt lat="54.907118" lon="22.388250"><ele>0.0</ele><time>1970-01-01T00:10:55Z</time></trkpt>
			<trkpt lat="54.907118" lon="22.388250"><ele>0.0</ele><time>1970-01-01T00:10:56Z</time></trkpt>
			<trkpt lat="54.912568" lon="22.404021"><ele>0.0</ele><time>1970-01-01T00:10:57Z</time></trkpt>
			<trkpt lat="54.912568" lon="22.404021"><ele>0.0</ele><time>1970-01-01T00:10:58Z</time></trkpt>
			<trkpt lat="54.912740" lon="22.404879"><ele>0.0</ele><time>1970-01-01T00:10:59Z</time></trkpt>
			<trkpt lat="54.912740" lon="22.404879"><ele>0.0</ele><time>1970-01-01T00:11:00Z</time></trkpt>
			<trkpt lat="54.912761" lon="22.405223"><ele>0.0</ele><time>1970-01-01T00:11:01Z</time></trkpt>
			<trkpt lat="54.912761" lon="22.405223"><ele>0.0</ele><time>1970-01-01T00:11:02Z</time></trkpt>
			<trkpt lat="54.913813" lon="22.425093"><ele>0.0</ele><time>1970-01-01T00:11:03Z</time></trkpt>
			<trkpt lat="54.913813" lon="22.425093"><ele>0.0</ele><time>1970-01-01T00:11:04Z</time></trkpt>
			<trkpt lat="54.913963" lon="22.427410"><ele>0.0</ele><time>1970-01-01T00:11:05Z</time></trkpt>
			<trkpt lat="54.913963" lon="22.427410"><ele>0.0</ele><time>1970-01-01T00:11:06Z</time></trkpt>
			<trkpt lat="54.914821" lon="22.431938"><ele>0.0</ele><time>1970-01-01T00:11:07Z</time></trkpt>
			<trkpt lat="54.914821" lon="22.431938"><ele>0.0</ele><time>1970-01-01T00:11:08Z</time></trkpt>
			<trkpt lat="54.914993" lon="22.433118"><ele>0.0</ele><time>1970-01-01T00:11:09Z</time></trkpt>
			<trkpt lat="54.914993" lon="22.433118"><ele>0.0</ele><time>1970-01-01T00:11:10Z</time></trkpt>
			<trkpt lat="54.915615" lon="22.435800"><ele>0.0</ele><time>1970-01-01T00:11:11Z</time></trkpt>
			<trkpt lat="54.915615" lon="22.435800"><ele>0.0</ele><time>1970-01-01T00:11:12Z</time></trkpt>
			<trkpt lat="54.916066" lon="22.437109"><ele>0.0</ele><time>1970-01-01T00:11:13Z</time></trkpt>
			<trkpt lat="54.916066" lon="22.437109"><ele>0.0</ele><time>1970-01-01T00:11:14Z</time></trkpt>
			<trkpt lat="54.916516" lon="22.438718"><ele>0.0</ele><time>1970-01-01T00:11:15Z</time></trkpt>
			<trkpt lat="54.916516" lon="22.438718"><ele>0.0</ele><time>1970-01-01T00:11:16Z</time></trkpt>
			<trkpt lat="54.916902" lon="22.440328"><ele>0.0</ele><time>1970-01-01T00:11:17Z</time></trkpt>
			<trkpt lat="54.916902" lon="22.440328"><ele>0.0</ele><time>1970-01-01T00:11:18Z</time></trkpt>
			<trkpt lat="54.916302" lon="22.448996"><ele>0.0</ele><time>1970-01-01T00:11:19Z</time></trkpt>
			<trkpt lat="54.916302" lon="22.448996"><ele>0.0</ele><time>1970-01-01T00:11:20Z</time></trkpt>
			<trkpt lat="54.916302" lon="22.449511"><ele>0.0</ele><time>1970-01-01T00:11:21Z</time></trkpt>
			<trkpt lat="54.916302" lon="22.449511"><ele>0.0</ele><time>1970-01-01T00:11:22Z</time></trkpt>
			<trkpt lat="54.916602" lon="22.450220"><ele>0.0</ele><time>1970-01-01T00:11:23Z</time></trkpt>
			<trkpt lat="54.916602" lon="22.450220"><ele>0.0</ele><time>1970-01-01T00:11:24Z</time></trkpt>
			<trkpt lat="54.921709" lon="22.460734"><ele>0.0</ele><time>1970-01-01T00:11:25Z</time></trkpt>
			<trkpt lat="54.921709" lon="22.460734"><ele>0.0</ele><time>1970-01-01T00:11:26Z</time></trkpt>
			<trkpt lat="54.922138" lon="22.461549"><ele>0.0</ele><time>1970-01-01T00:11:27Z</time></trkpt>
			<trkpt lat="54.922138" lon="22.461549"><ele>0.0</ele><time>1970-01-01T00:11:28Z</time></trkpt>
			<trkpt lat="54.929326" lon="22.472986"><ele>0.0</ele><time>1970-01-01T00:11:29Z</time></trkpt>
			<trkpt lat="54.929326" lon="22.472986"><ele>0.0</ele><time>1970-01-01T00:11:30Z</time></trkpt>
			<trkpt lat="54.931107" lon="22.475990"><ele>0.0</ele><time>1970-01-01T00:11:31Z</time></trkpt>
			<trkpt lat="54.931107" lon="22.475990"><ele>0.0</ele><time>1970-01-01T00:11:32Z</time></trkpt>
			<trkpt lat="54.932073" lon="22.477986"><ele>0.0</ele><time>1970-01-01T00:11:33Z</time></trkpt>
			<trkpt lat="54.932073" lon="22.477986"><ele>0.0</ele><time>1970-01-01T00:11:34Z</time></trkpt>
			<trkpt lat="54.933124" lon="22.480604"><ele>0.0</ele><time>1970-01-01T00:11:35Z</time></trkpt>
			<trkpt lat="54.933124" lon="22.480604"><ele>0.0</ele><time>1970-01-01T00:11:36Z</time></trkpt>
			<trkpt lat="54.934197" lon="22.483071"><ele>0.0</ele><time>1970-01-01T00:11:37Z</time></trkpt>
			<trkpt lat="54.934197" lon="22.483071"><ele>0.0</ele><time>1970-01-01T00:11:38Z</time></trkpt>
			<trkpt lat="54.933682" lon="22.483801"><ele>0.0</ele><time>1970-01-01T00:11:39Z</time></trkpt>
			<trkpt lat="54.933682" lon="22.483801"><ele>0.0</ele><time>1970-01-01T00:11:40Z</time></trkpt>
			<trkpt lat="54.934197" lon="22.484080"><ele>0.0</ele><time>1970-01-01T00:11:41Z</time></trkpt>
			<trkpt lat="54.934197" lon="22.484080"><ele>0.0</ele><time>1970-01-01T00:11:42Z</time></trkpt>
			<trkpt lat="54.934734" lon="22.484294"><ele>0.0</ele><time>1970-01-01T00:11:43Z</time></trkpt>
			<trkpt lat="54.934734" lon="22.484294"><ele>0.0</ele><time>1970-01-01T00:11:44Z</time></trkpt>
			<trkpt lat="54.935614" lon="22.485067"><ele>0.0</ele><time>1970-01-01T00:11:45Z</time></trkpt>
			<trkpt lat="54.935614" lon="22.485067"><ele>0.0</ele><time>1970-01-01T00:11:46Z</time></trkpt>
			<trkpt lat="54.939454" lon="22.488758"><ele>0.0</ele><time>1970-01-01T00:11:47Z</time></trkpt>
			<trkpt lat="54.939454" lon="22.488758"><ele>0.0</ele><time>1970-01-01T00:11:48Z</time></trkpt>
			<trkpt lat="54.939497" lon="22.488843"><ele>0.0</ele><time>1970-01-01T00:11:49Z</time></trkpt>
			<trkpt lat="54.939497" lon="22.488843"><ele>0.0</ele><time>1970-01-01T00:11:50Z</time></trkpt>
			<trkpt lat="54.940098" lon="22.489337"><ele>0.0</ele><time>1970-01-01T00:11:51Z</time></trkpt>
			<trkpt lat="54.940098" lon="22.489337"><ele>0.0</ele><time>1970-01-01T00:11:52Z</time></trkpt>
			<trkpt lat="54.940742" lon="22.490002"><ele>0.0</ele><time>1970-01-01T00:11:53Z</time></trkpt>
			<trkpt lat="54.940742" lon="22.490002"><ele>0.0</ele><time>1970-01-01T00:11:54Z</time></trkpt>
			<trkpt lat="54.941171" lon="22.490324"><ele>0.0</ele><time>1970-01-01T00:11:55Z</time></trkpt>
			<trkpt lat="54.941171" lon="22.490324"><ele>0.0</ele><time>1970-01-01T00:11:56Z</time></trkpt>
			<trkpt lat="54.941622" lon="22.490517"><ele>0.0</ele><time>1970-01-01T00:11:57Z</time></trkpt>
			<trkpt lat="54.941622" lon="22.490517"><ele>0.0</ele><time>1970-01-01T00:11:58Z</time></trkpt>
			<trkpt lat="54.942201" lon="22.490603"><ele>0.0</ele><time>1970-01-01T00:11:59Z</time></trkpt>
			<trkpt lat="54.942201" lon="22.490603"><ele>0.0</ele><time>1970-01-01T00:12:00Z</time></trkpt>
			<trkpt lat="54.942265" lon="22.491397"><ele>0.0</ele><time>1970-01-01T00:12:01Z</time></trkpt>
			<trkpt lat="54.942265" lon="22.491397"><ele>0.0</ele><time>1970-01-01T00:12:02Z</time></trkpt>
			<trkpt lat="54.943660" lon="22.496182"><ele>0.0</ele><time>1970-01-01T00:12:03Z</time></trkpt>
			<trkpt lat="54.943660" lon="22.496182"><ele>0.0</ele><time>1970-01-01T00:12:04Z</time></trkpt>
			<trkpt lat="54.944089" lon="22.497362"><ele>0.0</ele><time>1970-01-01T00:12:05Z</time></trkpt>
			<trkpt lat="54.944089" lon="22.497362"><ele>0.0</ele><time>1970-01-01T00:12:06Z</time></trkpt>
			<trkpt lat="54.944883" lon="22.497620"><ele>0.0</ele><time>1970-01-01T00:12:07Z</time></trkpt>
			<trkpt lat="54.944883" lon="22.497620"><ele>0.0</ele><time>1970-01-01T00:12:08Z</time></trkpt>
			<trkpt lat="54.945463" lon="22.497662"><ele>0.0</ele><time>1970-01-01T00:12:09Z</time></trkpt>
			<trkpt lat="54.945463" lon="22.497662"><ele>0.0</ele><time>1970-01-01T00:12:10Z</time></trkpt>
			<trkpt lat="54.947072" lon="22.497019"><ele>0.0</ele><time>1970-01-01T00:12:11Z</time></trkpt>
			<trkpt lat="54.947072" lon="22.497019"><ele>0.0</ele><time>1970-01-01T00:12:12Z</time></trkpt>
			<trkpt lat="54.948831" lon="22.496396"><ele>0.0</ele><time>1970-01-01T00:12:13Z</time></trkpt>
			<trkpt lat="54.948831" lon="22.496396"><ele>0.0</ele><time>1970-01-01T00:12:14Z</time></trkpt>
			<trkpt lat="54.949325" lon="22.496182"><ele>0.0</ele><time>1970-01-01T00:12:15Z</time></trkpt>
			<trkpt lat="54.949325" lon="22.496182"><ele>0.0</ele><time>1970-01-01T00:12:16Z</time></trkpt>
			<trkpt lat="54.949647" lon="22.496182"><ele>0.0</ele><time>1970-01-01T00:12:17Z</time></trkpt>
			<trkpt lat="54.949647" lon="22.496182"><ele>0.0</ele><time>1970-01-01T00:12:18Z</time></trkpt>
			<trkpt lat="54.949904" lon="22.496246"><ele>0.0</ele><time>1970-01-01T00:12:19Z</time></trkpt>
			<trkpt lat="54.949904" lon="22.496246"><ele>0.0</ele><time>1970-01-01T00:12:20Z</time></trkpt>
			<trkpt lat="54.950226" lon="22.495946"><ele>0.0</ele><time>1970-01-01T00:12:21Z</time></trkpt>
			<trkpt lat="54.950226" lon="22.495946"><ele>0.0</ele><time>1970-01-01T00:12:22Z</time></trkpt>
			<trkpt lat="54.950934" lon="22.495045"><ele>0.0</ele><time>1970-01-01T00:12:23Z</time></trkpt>
			<trkpt lat="54.950934" lon="22.495045"><ele>0.0</ele><time>1970-01-01T00:12:24Z</time></trkpt>
			<trkpt lat="54.951213" lon="22.494809"><ele>0.0</ele><time>1970-01-01T00:12:25Z</time></trkpt>
			<trkpt lat="54.951213" lon="22.494809"><ele>0.0</ele><time>1970-01-01T00:12:26Z</time></trkpt>
			<trkpt lat="54.955805" lon="22.492513"><ele>0.0</ele><time>1970-01-01T00:12:27Z</time></trkpt>
			<trkpt lat="54.955805" lon="22.492513"><ele>0.0</ele><time>1970-01-01T00:12:28Z</time></trkpt>
			<trkpt lat="54.956406" lon="22.491633"><ele>0.0</ele><time>1970-01-01T00:12:29Z</time></trkpt>
			<trkpt lat="54.956406" lon="22.491633"><ele>0.0</ele><time>1970-01-01T00:12:30Z</time></trkpt>
			<trkpt lat="54.957071" lon="22.490775"><ele>0.0</ele><time>1970-01-01T00:12:31Z</time></trkpt>
			<trkpt lat="54.957071" lon="22.490775"><ele>0.0</ele><time>1970-01-01T00:12:32Z</time></trkpt>
			<trkpt lat="54.957329" lon="22.490517"><ele>0.0</ele><time>1970-01-01T00:12:33Z</time></trkpt>
			<trkpt lat="54.957329" lon="22.490517"><ele>0.0</ele><time>1970-01-01T00:12:34Z</time></trkpt>
			<trkpt lat="54.959475" lon="22.489294"><ele>0.0</ele><time>1970-01-01T00:12:35Z</time></trkpt>
			<trkpt lat="54.959475" lon="22.489294"><ele>0.0</ele><time>1970-01-01T00:12:36Z</time></trkpt>
			<trkpt lat="54.965504" lon="22.486226"><ele>0.0</ele><time>1970-01-01T00:12:37Z</time></trkpt>
			<trkpt lat="54.965504" lon="22.486226"><ele>0.0</ele><time>1970-01-01T00:12:38Z</time></trkpt>
			<trkpt lat="54.967500" lon="22.485174"><ele>0.0</ele><time>1970-01-01T00:12:39Z</time></trkpt>
			<trkpt lat="54.967500" lon="22.485174"><ele>0.0</ele><time>1970-01-01T00:12:40Z</time></trkpt>
			<trkpt lat="54.974087" lon="22.481870"><ele>0.0</ele><time>1970-01-01T00:12:41Z</time></trkpt>
			<trkpt lat="54.974087" lon="22.481870"><ele>0.0</ele><time>1970-01-01T00:12:42Z</time></trkpt>
			<trkpt lat="54.974709" lon="22.481398"><ele>0.0</ele><time>1970-01-01T00:12:43Z</time></trkpt>
			<trkpt lat="54.974709" lon="22.481398"><ele>0.0</ele><time>1970-01-01T00:12:44Z</time></trkpt>
			<trkpt lat="54.975654" lon="22.480518"><ele>0.0</ele><time>1970-01-01T00:12:45Z</time></trkpt>
			<trkpt lat="54.975654" lon="22.480518"><ele>0.0</ele><time>1970-01-01T00:12:46Z</time></trkpt>
			<trkpt lat="54.977950" lon="22.477685"><ele>0.0</ele><time>1970-01-01T00:12:47Z</time></trkpt>
			<trkpt lat="54.977950" lon="22.477685"><ele>0.0</ele><time>1970-01-01T00:12:48Z</time></trkpt>
			<trkpt lat="54.978207" lon="22.477299"><ele>0.0</ele><time>1970-01-01T00:12:49Z</time></trkpt>
			<trkpt lat="54.978207" lon="22.477299"><ele>0.0</ele><time>1970-01-01T00:12:50Z</time></trkpt>
			<trkpt lat="54.979537" lon="22.473565"><ele>0.0</ele><time>1970-01-01T00:12:51Z</time></trkpt>
			<trkpt lat="54.979537" lon="22.473565"><ele>0.0</ele><time>1970-01-01T00:12:52Z</time></trkpt>
			<trkpt lat="54.979945" lon="22.472257"><ele>0.0</ele><time>1970-01-01T00:12:53Z</time></trkpt>
			<trkpt lat="54.979945" lon="22.472257"><ele>0.0</ele><time>1970-01-01T00:12:54Z</time></trkpt>
			<trkpt lat="54.980288" lon="22.470840"><ele>0.0</ele><time>1970-01-01T00:12:55Z</time></trkpt>
			<trkpt lat="54.980288" lon="22.470840"><ele>0.0</ele><time>1970-01-01T00:12:56Z</time></trkpt>
			<trkpt lat="54.982906" lon="22.458331"><ele>0.0</ele><time>1970-01-01T00:12:57Z</time></trkpt>
			<trkpt lat="54.982906" lon="22.458331"><ele>0.0</ele><time>1970-01-01T00:12:58Z</time></trkpt>
			<trkpt lat="54.983056" lon="22.457816"><ele>0.0</ele><time>1970-01-01T00:12:59Z</time></trkpt>
			<trkpt lat="54.983056" lon="22.457816"><ele>0.0</ele><time>1970-01-01T00:13:00Z</time></trkpt>
			<trkpt lat="54.983314" lon="22.457429"><ele>0.0</ele><time>1970-01-01T00:13:01Z</time></trkpt>
			<trkpt lat="54.983314" lon="22.457429"><ele>0.0</ele><time>1970-01-01T00:13:02Z</time></trkpt>
			<trkpt lat="54.983464" lon="22.457301"><ele>0.0</ele><time>1970-01-01T00:13:03Z</time></trkpt>
			<trkpt lat="54.983464" lon="22.457301"><ele>0.0</ele><time>1970-01-01T00:13:04Z</time></trkpt>
			<trkpt lat="54.983700" lon="22.457215"><ele>0.0</ele><time>1970-01-01T00:13:05Z</time></trkpt>
			<trkpt lat="54.983700" lon="22.457215"><ele>0.0</ele><time>1970-01-01T00:13:06Z</time></trkpt>
			<trkpt lat="54.984044" lon="22.457150"><ele>0.0</ele><time>1970-01-01T00:13:07Z</time></trkpt>
			<trkpt lat="54.984044" lon="22.457150"><ele>0.0</ele><time>1970-01-01T00:13:08Z</time></trkpt>
			<trkpt lat="54.984773" lon="22.457172"><ele>0.0</ele><time>1970-01-01T00:13:09Z</time></trkpt>
			<trkpt lat="54.984773" lon="22.457172"><ele>0.0</ele><time>1970-01-01T00:13:10Z</time></trkpt>
			<trkpt lat="54.991146" lon="22.457000"><ele>0.0</ele><time>1970-01-01T00:13:11Z</time></trkpt>
			<trkpt lat="54.991146" lon="22.457000"><ele>0.0</ele><time>1970-01-01T00:13:12Z</time></trkpt>
			<trkpt lat="54.992734" lon="22.457150"><ele>0.0</ele><time>1970-01-01T00:13:13Z</time></trkpt>
			<trkpt lat="54.992734" lon="22.457150"><ele>0.0</ele><time>1970-01-01T00:13:14Z</time></trkpt>
			<trkpt lat="55.001853" lon="22.457022"><ele>0.0</ele><time>1970-01-01T00:13:15Z</time></trkpt>
			<trkpt lat="55.001853" lon="22.457022"><ele>0.0</ele><time>1970-01-01T00:13:16Z</time></trkpt>
			<trkpt lat="55.008012" lon="22.456893"><ele>0.0</ele><time>1970-01-01T00:13:17Z</time></trkpt>
			<trkpt lat="55.008012" lon="22.456893"><ele>0.0</ele><time>1970-01-01T00:13:18Z</time></trkpt>
			<trkpt lat="55.017389" lon="22.456635"><ele>0.0</ele><time>1970-01-01T00:13:19Z</time></trkpt>
			<trkpt lat="55.017389" lon="22.456635"><ele>0.0</ele><time>1970-01-01T00:13:20Z</time></trkpt>
			<trkpt lat="55.024041" lon="22.456528"><ele>0.0</ele><time>1970-01-01T00:13:21Z</time></trkpt>
			<trkpt lat="55.024041" lon="22.456528"><ele>0.0</ele><time>1970-01-01T00:13:22Z</time></trkpt>
			<trkpt lat="55.027581" lon="22.456399"><ele>0.0</ele><time>1970-01-01T00:13:23Z</time></trkpt>
			<trkpt lat="55.027581" lon="22.456399"><ele>0.0</ele><time>1970-01-01T00:13:24Z</time></trkpt>
			<trkpt lat="55.030306" lon="22.456356"><ele>0.0</ele><time>1970-01-01T00:13:25Z</time></trkpt>
			<trkpt lat="55.030306" lon="22.456356"><ele>0.0</ele><time>1970-01-01T00:13:26Z</time></trkpt>
			<trkpt lat="55.030263" lon="22.450885"><ele>0.0</ele><time>1970-01-01T00:13:27Z</time></trkpt>
			<trkpt lat="55.030263" lon="22.450885"><ele>0.0</ele><time>1970-01-01T00:13:28Z</time></trkpt>
			<trkpt lat="55.030328" lon="22.450456"><ele>0.0</ele><time>1970-01-01T00:13:29Z</time></trkpt>
			<trkpt lat="55.030328" lon="22.450456"><ele>0.0</ele><time>1970-01-01T00:13:30Z</time></trkpt>
			<trkpt lat="55.030907" lon="22.449104"><ele>0.0</ele><time>1970-01-01T00:13:31Z</time></trkpt>
			<trkpt lat="55.030907" lon="22.449104"><ele>0.0</ele><time>1970-01-01T00:13:32Z</time></trkpt>
			<trkpt lat="55.032924" lon="22.444962"><ele>0.0</ele><time>1970-01-01T00:13:33Z</time></trkpt>
			<trkpt lat="55.032924" lon="22.444962"><ele>0.0</ele><time>1970-01-01T00:13:34Z</time></trkpt>
			<trkpt lat="55.035349" lon="22.437946"><ele>0.0</ele><time>1970-01-01T00:13:35Z</time></trkpt>
			<trkpt lat="55.035349" lon="22.437946"><ele>0.0</ele><time>1970-01-01T00:13:36Z</time></trkpt>
			<trkpt lat="55.035799" lon="22.436487"><ele>0.0</ele><time>1970-01-01T00:13:37Z</time></trkpt>
			<trkpt lat="55.035799" lon="22.436487"><ele>0.0</ele><time>1970-01-01T00:13:38Z</time></trkpt>
			<trkpt lat="55.036078" lon="22.435714"><ele>0.0</ele><time>1970-01-01T00:13:39Z</time></trkpt>
			<trkpt lat="55.036078" lon="22.435714"><ele>0.0</ele><time>1970-01-01T00:13:40Z</time></trkpt>
			<trkpt lat="55.036894" lon="22.434384"><ele>0.0</ele><time>1970-01-01T00:13:41Z</time></trkpt>
			<trkpt lat="55.036894" lon="22.434384"><ele>0.0</ele><time>1970-01-01T00:13:42Z</time></trkpt>
			<trkpt lat="55.037988" lon="22.431916"><ele>0.0</ele><time>1970-01-01T00:13:43Z</time></trkpt>
			<trkpt lat="55.037988" lon="22.431916"><ele>0.0</ele><time>1970-01-01T00:13:44Z</time></trkpt>
			<trkpt lat="55.039190" lon="22.429513"><ele>0.0</ele><time>1970-01-01T00:13:45Z</time></trkpt>
			<trkpt lat="55.039190" lon="22.429513"><ele>0.0</ele><time>1970-01-01T00:13:46Z</time></trkpt>
			<trkpt lat="55.040005" lon="22.427453"><ele>0.0</ele><time>1970-01-01T00:13:47Z</time></trkpt>
			<trkpt lat="55.040005" lon="22.427453"><ele>0.0</ele><time>1970-01-01T00:13:48Z</time></trkpt>
			<trkpt lat="55.040434" lon="22.426530"><ele>0.0</ele><time>1970-01-01T00:13:49Z</time></trkpt>
			<trkpt lat="55.040434" lon="22.426530"><ele>0.0</ele><time>1970-01-01T00:13:50Z</time></trkpt>
			<trkpt lat="55.040713" lon="22.426144"><ele>0.0</ele><time>1970-01-01T00:13:51Z</time></trkpt>
			<trkpt lat="55.040713" lon="22.426144"><ele>0.0</ele><time>1970-01-01T00:13:52Z</time></trkpt>
			<trkpt lat="55.041786" lon="22.425329"><ele>0.0</ele><time>1970-01-01T00:13:53Z</time></trkpt>
			<trkpt lat="55.041786" lon="22.425329"><ele>0.0</ele><time>1970-01-01T00:13:54Z</time></trkpt>
			<trkpt lat="55.042516" lon="22.424277"><ele>0.0</ele><time>1970-01-01T00:13:55Z</time></trkpt>
			<trkpt lat="55.042516" lon="22.424277"><ele>0.0</ele><time>1970-01-01T00:13:56Z</time></trkpt>
			<trkpt lat="55.045134" lon="22.420308"><ele>0.0</ele><time>1970-01-01T00:13:57Z</time></trkpt>
			<trkpt lat="55.045134" lon="22.420308"><ele>0.0</ele><time>1970-01-01T00:13:58Z</time></trkpt>
			<trkpt lat="55.047794" lon="22.412626"><ele>0.0</ele><time>1970-01-01T00:13:59Z</time></trkpt>
			<trkpt lat="55.047794" lon="22.412626"><ele>0.0</ele><time>1970-01-01T00:14:00Z</time></trkpt>
			<trkpt lat="55.048417" lon="22.410716"><ele>0.0</ele><time>1970-01-01T00:14:01Z</time></trkpt>
			<trkpt lat="55.048417" lon="22.410716"><ele>0.0</ele><time>1970-01-01T00:14:02Z</time></trkpt>
			<trkpt lat="55.048545" lon="22.410201"><ele>0.0</ele><time>1970-01-01T00:14:03Z</time></trkpt>
			<trkpt lat="55.048545" lon="22.410201"><ele>0.0</ele><time>1970-01-01T00:14:04Z</time></trkpt>
			<trkpt lat="55.048502" lon="22.409772"><ele>0.0</ele><time>1970-01-01T00:14:05Z</time></trkpt>
			<trkpt lat="55.048502" lon="22.409772"><ele>0.0</ele><time>1970-01-01T00:14:06Z</time></trkpt>
			<trkpt lat="55.047880" lon="22.408184"><ele>0.0</ele><time>1970-01-01T00:14:07Z</time></trkpt>
			<trkpt lat="55.047880" lon="22.408184"><ele>0.0</ele><time>1970-01-01T00:14:08Z</time></trkpt>
			<trkpt lat="55.047751" lon="22.407776"><ele>0.0</ele><time>1970-01-01T00:14:09Z</time></trkpt>
			<trkpt lat="55.047751" lon="22.407776"><ele>0.0</ele><time>1970-01-01T00:14:10Z</time></trkpt>
			<trkpt lat="55.047623" lon="22.406532"><ele>0.0</ele><time>1970-01-01T00:14:11Z</time></trkpt>
			<trkpt lat="55.047623" lon="22.406532"><ele>0.0</ele><time>1970-01-01T00:14:12Z</time></trkpt>
			<trkpt lat="55.047859" lon="22.404665"><ele>0.0</ele><time>1970-01-01T00:14:13Z</time></trkpt>
			<trkpt lat="55.047859" lon="22.404665"><ele>0.0</ele><time>1970-01-01T00:14:14Z</time></trkpt>
			<trkpt lat="55.047923" lon="22.404364"><ele>0.0</ele><time>1970-01-01T00:14:15Z</time></trkpt>
			<trkpt lat="55.047923" lon="22.404364"><ele>0.0</ele><time>1970-01-01T00:14:16Z</time></trkpt>
			<trkpt lat="55.048266" lon="22.403613"><ele>0.0</ele><time>1970-01-01T00:14:17Z</time></trkpt>
			<trkpt lat="55.048266" lon="22.403613"><ele>0.0</ele><time>1970-01-01T00:14:18Z</time></trkpt>
			<trkpt lat="55.048974" lon="22.401639"><ele>0.0</ele><time>1970-01-01T00:14:19Z</time></trkpt>
			<trkpt lat="55.048974" lon="22.401639"><ele>0.0</ele><time>1970-01-01T00:14:20Z</time></trkpt>
			<trkpt lat="55.049210" lon="22.400502"><ele>0.0</ele><time>1970-01-01T00:14:21Z</time></trkpt>
			<trkpt lat="55.049210" lon="22.400502"><ele>0.0</ele><time>1970-01-01T00:14:22Z</time></trkpt>
			<trkpt lat="55.049339" lon="22.398657"><ele>0.0</ele><time>1970-01-01T00:14:23Z</time></trkpt>
			<trkpt lat="55.049339" lon="22.398657"><ele>0.0</ele><time>1970-01-01T00:14:24Z</time></trkpt>
			<trkpt lat="55.049339" lon="22.398142"><ele>0.0</ele><time>1970-01-01T00:14:25Z</time></trkpt>
			<trkpt lat="55.049339" lon="22.398142"><ele>0.0</ele><time>1970-01-01T00:14:26Z</time></trkpt>
			<trkpt lat="55.049125" lon="22.396425"><ele>0.0</ele><time>1970-01-01T00:14:27Z</time></trkpt>
			<trkpt lat="55.049125" lon="22.396425"><ele>0.0</ele><time>1970-01-01T00:14:28Z</time></trkpt>
			<trkpt lat="55.049103" lon="22.395309"><ele>0.0</ele><time>1970-01-01T00:14:29Z</time></trkpt>
			<trkpt lat="55.049103" lon="22.395309"><ele>0.0</ele><time>1970-01-01T00:14:30Z</time></trkpt>
			<trkpt lat="55.049168" lon="22.393893"><ele>0.0</ele><time>1970-01-01T00:14:31Z</time></trkpt>
			<trkpt lat="55.049168" lon="22.393893"><ele>0.0</ele><time>1970-01-01T00:14:32Z</time></trkpt>
			<trkpt lat="55.049296" lon="22.393078"><ele>0.0</ele><time>1970-01-01T00:14:33Z</time></trkpt>
			<trkpt lat="55.049296" lon="22.393078"><ele>0.0</ele><time>1970-01-01T00:14:34Z</time></trkpt>
			<trkpt lat="55.049489" lon="22.392219"><ele>0.0</ele><time>1970-01-01T00:14:35Z</time></trkpt>
			<trkpt lat="55.049489" lon="22.392219"><ele>0.0</ele><time>1970-01-01T00:14:36Z</time></trkpt>
			<trkpt lat="55.049618" lon="22.391855"><ele>0.0</ele><time>1970-01-01T00:14:37Z</time></trkpt>
			<trkpt lat="55.049618" lon="22.391855"><ele>0.0</ele><time>1970-01-01T00:14:38Z</time></trkpt>
			<trkpt lat="55.049661" lon="22.391297"><ele>0.0</ele><time>1970-01-01T00:14:39Z</time></trkpt>
			<trkpt lat="55.049661" lon="22.391297"><ele>0.0</ele><time>1970-01-01T00:14:40Z</time></trkpt>
			<trkpt lat="55.049640" lon="22.389301"><ele>0.0</ele><time>1970-01-01T00:14:41Z</time></trkpt>
			<trkpt lat="55.049640" lon="22.389301"><ele>0.0</ele><time>1970-01-01T00:14:42Z</time></trkpt>
			<trkpt lat="55.049768" lon="22.386984"><ele>0.0</ele><time>1970-01-01T00:14:43Z</time></trkpt>
			<trkpt lat="55.049768" lon="22.386984"><ele>0.0</ele><time>1970-01-01T00:14:44Z</time></trkpt>
			<trkpt lat="55.050069" lon="22.385911"><ele>0.0</ele><time>1970-01-01T00:14:45Z</time></trkpt>
			<trkpt lat="55.050069" lon="22.385911"><ele>0.0</ele><time>1970-01-01T00:14:46Z</time></trkpt>
			<trkpt lat="55.050283" lon="22.385396"><ele>0.0</ele><time>1970-01-01T00:14:47Z</time></trkpt>
			<trkpt lat="55.050283" lon="22.385396"><ele>0.0</ele><time>1970-01-01T00:14:48Z</time></trkpt>
			<trkpt lat="55.050584" lon="22.383593"><ele>0.0</ele><time>1970-01-01T00:14:49Z</time></trkpt>
			<trkpt lat="55.050584" lon="22.383593"><ele>0.0</ele><time>1970-01-01T00:14:50Z</time></trkpt>
			<trkpt lat="55.048245" lon="22.381212"><ele>0.0</ele><time>1970-01-01T00:14:51Z</time></trkpt>
			<trkpt lat="55.048245" lon="22.381212"><ele>0.0</ele><time>1970-01-01T00:14:52Z</time></trkpt>
			<trkpt lat="55.047837" lon="22.380461"><ele>0.0</ele><time>1970-01-01T00:14:53Z</time></trkpt>
			<trkpt lat="55.047837" lon="22.380461"><ele>0.0</ele><time>1970-01-01T00:14:54Z</time></trkpt>
			<trkpt lat="55.046035" lon="22.374431"><ele>0.0</ele><time>1970-01-01T00:14:55Z</time></trkpt>
			<trkpt lat="55.046035" lon="22.374431"><ele>0.0</ele><time>1970-01-01T00:14:56Z</time></trkpt>
			<trkpt lat="55.045498" lon="22.372478"><ele>0.0</ele><time>1970-01-01T00:14:57Z</time></trkpt>
			<trkpt lat="55.045498" lon="22.372478"><ele>0.0</ele><time>1970-01-01T00:14:58Z</time></trkpt>
			<trkpt lat="55.045262" lon="22.371899"><ele>0.0</ele><time>1970-01-01T00:14:59Z</time></trkpt>
			<trkpt lat="55.045262" lon="22.371899"><ele>0.0</ele><time>1970-01-01T00:15:00Z</time></trkpt>
			<trkpt lat="55.044897" lon="22.371255"><ele>0.0</ele><time>1970-01-01T00:15:01Z</time></trkpt>
			<trkpt lat="55.044897" lon="22.371255"><ele>0.0</ele><time>1970-01-01T00:15:02Z</time></trkpt>
			<trkpt lat="55.043674" lon="22.369989"><ele>0.0</ele><time>1970-01-01T00:15:03Z</time></trkpt>
			<trkpt lat="55.043674" lon="22.369989"><ele>0.0</ele><time>1970-01-01T00:15:04Z</time></trkpt>
			<trkpt lat="55.043331" lon="22.369496"><ele>0.0</ele><time>1970-01-01T00:15:05Z</time></trkpt>
			<trkpt lat="55.043331" lon="22.369496"><ele>0.0</ele><time>1970-01-01T00:15:06Z</time></trkpt>
			<trkpt lat="55.042859" lon="22.368208"><ele>0.0</ele><time>1970-01-01T00:15:07Z</time></trkpt>
			<trkpt lat="55.042859" lon="22.368208"><ele>0.0</ele><time>1970-01-01T00:15:08Z</time></trkpt>
			<trkpt lat="55.042194" lon="22.366105"><ele>0.0</ele><time>1970-01-01T00:15:09Z</time></trkpt>
			<trkpt lat="55.042194" lon="22.366105"><ele>0.0</ele><time>1970-01-01T00:15:10Z</time></trkpt>
			<trkpt lat="55.041314" lon="22.362179"><ele>0.0</ele><time>1970-01-01T00:15:11Z</time></trkpt>
			<trkpt lat="55.041314" lon="22.362179"><ele>0.0</ele><time>1970-01-01T00:15:12Z</time></trkpt>
			<trkpt lat="55.040456" lon="22.359733"><ele>0.0</ele><time>1970-01-01T00:15:13Z</time></trkpt>
			<trkpt lat="55.040456" lon="22.359733"><ele>0.0</ele><time>1970-01-01T00:15:14Z</time></trkpt>
			<trkpt lat="55.040091" lon="22.357673"><ele>0.0</ele><time>1970-01-01T00:15:15Z</time></trkpt>
			<trkpt lat="55.040091" lon="22.357673"><ele>0.0</ele><time>1970-01-01T00:15:16Z</time></trkpt>
			<trkpt lat="55.039640" lon="22.354518"><ele>0.0</ele><time>1970-01-01T00:15:17Z</time></trkpt>
			<trkpt lat="55.039640" lon="22.354518"><ele>0.0</ele><time>1970-01-01T00:15:18Z</time></trkpt>
			<trkpt lat="55.039104" lon="22.352716"><ele>0.0</ele><time>1970-01-01T00:15:19Z</time></trkpt>
			<trkpt lat="55.039104" lon="22.352716"><ele>0.0</ele><time>1970-01-01T00:15:20Z</time></trkpt>
			<trkpt lat="55.038997" lon="22.352029"><ele>0.0</ele><time>1970-01-01T00:15:21Z</time></trkpt>
			<trkpt lat="55.038997" lon="22.352029"><ele>0.0</ele><time>1970-01-01T00:15:22Z</time></trkpt>
			<trkpt lat="55.038181" lon="22.344455"><ele>0.0</ele><time>1970-01-01T00:15:23Z</time></trkpt>
			<trkpt lat="55.038181" lon="22.344455"><ele>0.0</ele><time>1970-01-01T00:15:24Z</time></trkpt>
			<trkpt lat="55.037838" lon="22.340399"><ele>0.0</ele><time>1970-01-01T00:15:25Z</time></trkpt>
			<trkpt lat="55.037838" lon="22.340399"><ele>0.0</ele><time>1970-01-01T00:15:26Z</time></trkpt>
			<trkpt lat="55.037731" lon="22.339820"><ele>0.0</ele><time>1970-01-01T00:15:27Z</time></trkpt>
			<trkpt lat="55.037731" lon="22.339820"><ele>0.0</ele><time>1970-01-01T00:15:28Z</time></trkpt>
			<trkpt lat="55.037452" lon="22.338575"><ele>0.0</ele><time>1970-01-01T00:15:29Z</time></trkpt>
			<trkpt lat="55.037452" lon="22.338575"><ele>0.0</ele><time>1970-01-01T00:15:30Z</time></trkpt>
			<trkpt lat="55.030929" lon="22.314586"><ele>0.0</ele><time>1970-01-01T00:15:31Z</time></trkpt>
			<trkpt lat="55.030929" lon="22.314586"><ele>0.0</ele><time>1970-01-01T00:15:32Z</time></trkpt>
			<trkpt lat="55.030564" lon="22.313599"><ele>0.0</ele><time>1970-01-01T00:15:33Z</time></trkpt>
			<trkpt lat="55.030564" lon="22.313599"><ele>0.0</ele><time>1970-01-01T00:15:34Z</time></trkpt>
			<trkpt lat="55.029620" lon="22.311496"><ele>0.0</ele><time>1970-01-01T00:15:35Z</time></trkpt>
			<trkpt lat="55.029620" lon="22.311496"><ele>0.0</ele><time>1970-01-01T00:15:36Z</time></trkpt>
			<trkpt lat="55.028289" lon="22.307998"><ele>0.0</ele><time>1970-01-01T00:15:37Z</time></trkpt>
			<trkpt lat="55.028289" lon="22.307998"><ele>0.0</ele><time>1970-01-01T00:15:38Z</time></trkpt>
			<trkpt lat="55.027388" lon="22.306346"><ele>0.0</ele><time>1970-01-01T00:15:39Z</time></trkpt>
			<trkpt lat="55.027388" lon="22.306346"><ele>0.0</ele><time>1970-01-01T00:15:40Z</time></trkpt>
			<trkpt lat="55.026444" lon="22.304758"><ele>0.0</ele><time>1970-01-01T00:15:41Z</time></trkpt>
			<trkpt lat="55.026444" lon="22.304758"><ele>0.0</ele><time>1970-01-01T00:15:42Z</time></trkpt>
			<trkpt lat="55.019921" lon="22.294458"><ele>0.0</ele><time>1970-01-01T00:15:43Z</time></trkpt>
			<trkpt lat="55.019921" lon="22.294458"><ele>0.0</ele><time>1970-01-01T00:15:44Z</time></trkpt>
			<trkpt lat="55.019148" lon="22.293085"><ele>0.0</ele><time>1970-01-01T00:15:45Z</time></trkpt>
			<trkpt lat="55.019148" lon="22.293085"><ele>0.0</ele><time>1970-01-01T00:15:46Z</time></trkpt>
			<trkpt lat="55.018955" lon="22.292527"><ele>0.0</ele><time>1970-01-01T00:15:47Z</time></trkpt>
			<trkpt lat="55.018955" lon="22.292527"><ele>0.0</ele><time>1970-01-01T00:15:48Z</time></trkpt>
			<trkpt lat="55.017346" lon="22.286776"><ele>0.0</ele><time>1970-01-01T00:15:49Z</time></trkpt>
			<trkpt lat="55.017346" lon="22.286776"><ele>0.0</ele><time>1970-01-01T00:15:50Z</time></trkpt>
			<trkpt lat="55.016788" lon="22.283923"><ele>0.0</ele><time>1970-01-01T00:15:51Z</time></trkpt>
			<trkpt lat="55.016788" lon="22.283923"><ele>0.0</ele><time>1970-01-01T00:15:52Z</time></trkpt>
			<trkpt lat="55.016466" lon="22.281627"><ele>0.0</ele><time>1970-01-01T00:15:53Z</time></trkpt>
			<trkpt lat="55.016466" lon="22.281627"><ele>0.0</ele><time>1970-01-01T00:15:54Z</time></trkpt>
			<trkpt lat="55.015672" lon="22.278472"><ele>0.0</ele><time>1970-01-01T00:15:55Z</time></trkpt>
			<trkpt lat="55.015672" lon="22.278472"><ele>0.0</ele><time>1970-01-01T00:15:56Z</time></trkpt>
			<trkpt lat="55.015458" lon="22.277807"><ele>0.0</ele><time>1970-01-01T00:15:57Z</time></trkpt>
			<trkpt lat="55.015458" lon="22.277807"><ele>0.0</ele><time>1970-01-01T00:15:58Z</time></trkpt>
			<trkpt lat="55.010436" lon="22.264718"><ele>0.0</ele><time>1970-01-01T00:15:59Z</time></trkpt>
			<trkpt lat="55.010436" lon="22.264718"><ele>0.0</ele><time>1970-01-01T00:16:00Z</time></trkpt>
			<trkpt lat="55.010222" lon="22.263838"><ele>0.0</ele><time>1970-01-01T00:16:01Z</time></trkpt>
			<trkpt lat="55.010222" lon="22.263838"><ele>0.0</ele><time>1970-01-01T00:16:02Z</time></trkpt>
			<trkpt lat="55.008591" lon="22.254440"><ele>0.0</ele><time>1970-01-01T00:16:03Z</time></trkpt>
			<trkpt lat="55.008591" lon="22.254440"><ele>0.0</ele><time>1970-01-01T00:16:04Z</time></trkpt>
			<trkpt lat="55.008634" lon="22.253624"><ele>0.0</ele><time>1970-01-01T00:16:05Z</time></trkpt>
			<trkpt lat="55.008634" lon="22.253624"><ele>0.0</ele><time>1970-01-01T00:16:06Z</time></trkpt>
			<trkpt lat="55.009020" lon="22.250921"><ele>0.0</ele><time>1970-01-01T00:16:07Z</time></trkpt>
			<trkpt lat="55.009020" lon="22.250921"><ele>0.0</ele><time>1970-01-01T00:16:08Z</time></trkpt>
			<trkpt lat="55.009278" lon="22.249955"><ele>0.0</ele><time>1970-01-01T00:16:09Z</time></trkpt>
			<trkpt lat="55.009278" lon="22.249955"><ele>0.0</ele><time>1970-01-01T00:16:10Z</time></trkpt>
			<trkpt lat="55.009900" lon="22.248153"><ele>0.0</ele><time>1970-01-01T00:16:11Z</time></trkpt>
			<trkpt lat="55.009900" lon="22.248153"><ele>0.0</ele><time>1970-01-01T00:16:12Z</time></trkpt>
			<trkpt lat="55.011745" lon="22.240685"><ele>0.0</ele><time>1970-01-01T00:16:13Z</time></trkpt>
			<trkpt lat="55.011745" lon="22.240685"><ele>0.0</ele><time>1970-01-01T00:16:14Z</time></trkpt>
			<trkpt lat="55.012046" lon="22.239763"><ele>0.0</ele><time>1970-01-01T00:16:15Z</time></trkpt>
			<trkpt lat="55.012046" lon="22.239763"><ele>0.0</ele><time>1970-01-01T00:16:16Z</time></trkpt>
			<trkpt lat="55.015651" lon="22.231845"><ele>0.0</ele><time>1970-01-01T00:16:17Z</time></trkpt>
			<trkpt lat="55.015651" lon="22.231845"><ele>0.0</ele><time>1970-01-01T00:16:18Z</time></trkpt>
			<trkpt lat="55.016809" lon="22.228776"><ele>0.0</ele><time>1970-01-01T00:16:19Z</time></trkpt>
			<trkpt lat="55.016809" lon="22.228776"><ele>0.0</ele><time>1970-01-01T00:16:20Z</time></trkpt>
			<trkpt lat="55.019878" lon="22.220301"><ele>0.0</ele><time>1970-01-01T00:16:21Z</time></trkpt>
			<trkpt lat="55.019878" lon="22.220301"><ele>0.0</ele><time>1970-01-01T00:16:22Z</time></trkpt>
			<trkpt lat="55.019985" lon="22.219893"><ele>0.0</ele><time>1970-01-01T00:16:23Z</time></trkpt>
			<trkpt lat="55.019985" lon="22.219893"><ele>0.0</ele><time>1970-01-01T00:16:24Z</time></trkpt>
			<trkpt lat="55.020071" lon="22.219335"><ele>0.0</ele><time>1970-01-01T00:16:25Z</time></trkpt>
			<trkpt lat="55.020071" lon="22.219335"><ele>0.0</ele><time>1970-01-01T00:16:26Z</time></trkpt>
			<trkpt lat="55.020264" lon="22.217661"><ele>0.0</ele><time>1970-01-01T00:16:27Z</time></trkpt>
			<trkpt lat="55.020264" lon="22.217661"><ele>0.0</ele><time>1970-01-01T00:16:28Z</time></trkpt>
			<trkpt lat="55.020178" lon="22.216717"><ele>0.0</ele><time>1970-01-01T00:16:29Z</time></trkpt>
			<trkpt lat="55.020178" lon="22.216717"><ele>0.0</ele><time>1970-01-01T00:16:30Z</time></trkpt>
			<trkpt lat="55.019792" lon="22.215129"><ele>0.0</ele><time>1970-01-01T00:16:31Z</time></trkpt>
			<trkpt lat="55.019792" lon="22.215129"><ele>0.0</ele><time>1970-01-01T00:16:32Z</time></trkpt>
			<trkpt lat="55.019384" lon="22.213842"><ele>0.0</ele><time>1970-01-01T00:16:33Z</time></trkpt>
			<trkpt lat="55.019384" lon="22.213842"><ele>0.0</ele><time>1970-01-01T00:16:34Z</time></trkpt>
			<trkpt lat="55.017367" lon="22.208713"><ele>0.0</ele><time>1970-01-01T00:16:35Z</time></trkpt>
			<trkpt lat="55.017367" lon="22.208713"><ele>0.0</ele><time>1970-01-01T00:16:36Z</time></trkpt>
			<trkpt lat="55.017239" lon="22.208284"><ele>0.0</ele><time>1970-01-01T00:16:37Z</time></trkpt>
			<trkpt lat="55.017239" lon="22.208284"><ele>0.0</ele><time>1970-01-01T00:16:38Z</time></trkpt>
			<trkpt lat="55.017196" lon="22.207598"><ele>0.0</ele><time>1970-01-01T00:16:39Z</time></trkpt>
			<trkpt lat="55.017196" lon="22.207598"><ele>0.0</ele><time>1970-01-01T00:16:40Z</time></trkpt>
			<trkpt lat="55.017217" lon="22.206997"><ele>0.0</ele><time>1970-01-01T00:16:41Z</time></trkpt>
			<trkpt lat="55.017217" lon="22.206997"><ele>0.0</ele><time>1970-01-01T00:16:42Z</time></trkpt>
			<trkpt lat="55.017389" lon="22.206031"><ele>0.0</ele><time>1970-01-01T00:16:43Z</time></trkpt>
			<trkpt lat="55.017389" lon="22.206031"><ele>0.0</ele><time>1970-01-01T00:16:44Z</time></trkpt>
			<trkpt lat="55.017410" lon="22.205602"><ele>0.0</ele><time>1970-01-01T00:16:45Z</time></trkpt>
			<trkpt lat="55.017410" lon="22.205602"><ele>0.0</ele><time>1970-01-01T00:16:46Z</time></trkpt>
			<trkpt lat="55.017367" lon="22.205409"><ele>0.0</ele><time>1970-01-01T00:16:47Z</time></trkpt>
			<trkpt lat="55.017367" lon="22.205409"><ele>0.0</ele><time>1970-01-01T00:16:48Z</time></trkpt>
			<trkpt lat="55.016380" lon="22.203113"><ele>0.0</ele><time>1970-01-01T00:16:49Z</time></trkpt>
			<trkpt lat="55.016380" lon="22.203113"><ele>0.0</ele><time>1970-01-01T00:16:50Z</time></trkpt>
			<trkpt lat="55.010522" lon="22.189981"><ele>0.0</ele><time>1970-01-01T00:16:51Z</time></trkpt>
			<trkpt lat="55.010522" lon="22.189981"><ele>0.0</ele><time>1970-01-01T00:16:52Z</time></trkpt>
			<trkpt lat="55.009407" lon="22.188136"><ele>0.0</ele><time>1970-01-01T00:16:53Z</time></trkpt>
			<trkpt lat="55.009407" lon="22.188136"><ele>0.0</ele><time>1970-01-01T00:16:54Z</time></trkpt>
			<trkpt lat="54.998892" lon="22.171592"><ele>0.0</ele><time>1970-01-01T00:16:55Z</time></trkpt>
			<trkpt lat="54.998892" lon="22.171592"><ele>0.0</ele><time>1970-01-01T00:16:56Z</time></trkpt>
			<trkpt lat="54.998678" lon="22.171205"><ele>0.0</ele><time>1970-01-01T00:16:57Z</time></trkpt>
			<trkpt lat="54.998678" lon="22.171205"><ele>0.0</ele><time>1970-01-01T00:16:58Z</time></trkpt>
			<trkpt lat="54.998613" lon="22.170712"><ele>0.0</ele><time>1970-01-01T00:16:59Z</time></trkpt>
			<trkpt lat="54.998613" lon="22.170712"><ele>0.0</ele><time>1970-01-01T00:17:00Z</time></trkpt>
			<trkpt lat="54.998635" lon="22.170497"><ele>0.0</ele><time>1970-01-01T00:17:01Z</time></trkpt>
			<trkpt lat="54.998635" lon="22.170497"><ele>0.0</ele><time>1970-01-01T00:17:02Z</time></trkpt>
			<trkpt lat="55.009621" lon="22.137731"><ele>0.0</ele><time>1970-01-01T00:17:03Z</time></trkpt>
			<trkpt lat="55.009621" lon="22.137731"><ele>0.0</ele><time>1970-01-01T00:17:04Z</time></trkpt>
			<trkpt lat="55.013891" lon="22.124792"><ele>0.0</ele><time>1970-01-01T00:17:05Z</time></trkpt>
			<trkpt lat="55.013891" lon="22.124792"><ele>0.0</ele><time>1970-01-01T00:17:06Z</time></trkpt>
			<trkpt lat="55.016595" lon="22.116403"><ele>0.0</ele><time>1970-01-01T00:17:07Z</time></trkpt>
			<trkpt lat="55.016595" lon="22.116403"><ele>0.0</ele><time>1970-01-01T00:17:08Z</time></trkpt>
			<trkpt lat="55.016960" lon="22.114686"><ele>0.0</ele><time>1970-01-01T00:17:09Z</time></trkpt>
			<trkpt lat="55.016960" lon="22.114686"><ele>0.0</ele><time>1970-01-01T00:17:10Z</time></trkpt>
			<trkpt lat="55.017045" lon="22.113806"><ele>0.0</ele><time>1970-01-01T00:17:11Z</time></trkpt>
			<trkpt lat="55.017045" lon="22.113806"><ele>0.0</ele><time>1970-01-01T00:17:12Z</time></trkpt>
			<trkpt lat="55.017153" lon="22.110995"><ele>0.0</ele><time>1970-01-01T00:17:13Z</time></trkpt>
			<trkpt lat="55.017153" lon="22.110995"><ele>0.0</ele><time>1970-01-01T00:17:14Z</time></trkpt>
			<trkpt lat="55.017217" lon="22.110180"><ele>0.0</ele><time>1970-01-01T00:17:15Z</time></trkpt>
			<trkpt lat="55.017217" lon="22.110180"><ele>0.0</ele><time>1970-01-01T00:17:16Z</time></trkpt>
			<trkpt lat="55.017904" lon="22.105717"><ele>0.0</ele><time>1970-01-01T00:17:17Z</time></trkpt>
			<trkpt lat="55.017904" lon="22.105717"><ele>0.0</ele><time>1970-01-01T00:17:18Z</time></trkpt>
			<trkpt lat="55.018419" lon="22.100245"><ele>0.0</ele><time>1970-01-01T00:17:19Z</time></trkpt>
			<trkpt lat="55.018419" lon="22.100245"><ele>0.0</ele><time>1970-01-01T00:17:20Z</time></trkpt>
			<trkpt lat="55.020092" lon="22.081362"><ele>0.0</ele><time>1970-01-01T00:17:21Z</time></trkpt>
			<trkpt lat="55.020092" lon="22.081362"><ele>0.0</ele><time>1970-01-01T00:17:22Z</time></trkpt>
			<trkpt lat="55.020371" lon="22.077800"><ele>0.0</ele><time>1970-01-01T00:17:23Z</time></trkpt>
			<trkpt lat="55.020371" lon="22.077800"><ele>0.0</ele><time>1970-01-01T00:17:24Z</time></trkpt>
			<trkpt lat="55.020479" lon="22.075225"><ele>0.0</ele><time>1970-01-01T00:17:25Z</time></trkpt>
			<trkpt lat="55.020479" lon="22.075225"><ele>0.0</ele><time>1970-01-01T00:17:26Z</time></trkpt>
			<trkpt lat="55.020522" lon="22.074882"><ele>0.0</ele><time>1970-01-01T00:17:27Z</time></trkpt>
			<trkpt lat="55.020522" lon="22.074882"><ele>0.0</ele><time>1970-01-01T00:17:28Z</time></trkpt>
			<trkpt lat="55.023483" lon="22.065398"><ele>0.0</ele><time>1970-01-01T00:17:29Z</time></trkpt>
			<trkpt lat="55.023483" lon="22.065398"><ele>0.0</ele><time>1970-01-01T00:17:30Z</time></trkpt>
			<trkpt lat="55.026143" lon="22.056686"><ele>0.0</ele><time>1970-01-01T00:17:31Z</time></trkpt>
			<trkpt lat="55.026143" lon="22.056686"><ele>0.0</ele><time>1970-01-01T00:17:32Z</time></trkpt>
			<trkpt lat="55.026959" lon="22.054368"><ele>0.0</ele><time>1970-01-01T00:17:33Z</time></trkpt>
			<trkpt lat="55.026959" lon="22.054368"><ele>0.0</ele><time>1970-01-01T00:17:34Z</time></trkpt>
			<trkpt lat="55.028675" lon="22.050463"><ele>0.0</ele><time>1970-01-01T00:17:35Z</time></trkpt>
			<trkpt lat="55.028675" lon="22.050463"><ele>0.0</ele><time>1970-01-01T00:17:36Z</time></trkpt>
			<trkpt lat="55.029384" lon="22.048746"><ele>0.0</ele><time>1970-01-01T00:17:37Z</time></trkpt>
			<trkpt lat="55.029384" lon="22.048746"><ele>0.0</ele><time>1970-01-01T00:17:38Z</time></trkpt>
			<trkpt lat="55.030070" lon="22.047266"><ele>0.0</ele><time>1970-01-01T00:17:39Z</time></trkpt>
			<trkpt lat="55.030070" lon="22.047266"><ele>0.0</ele><time>1970-01-01T00:17:40Z</time></trkpt>
			<trkpt lat="55.032731" lon="22.043253"><ele>0.0</ele><time>1970-01-01T00:17:41Z</time></trkpt>
			<trkpt lat="55.032731" lon="22.043253"><ele>0.0</ele><time>1970-01-01T00:17:42Z</time></trkpt>
			<trkpt lat="55.033203" lon="22.042459"><ele>0.0</ele><time>1970-01-01T00:17:43Z</time></trkpt>
			<trkpt lat="55.033203" lon="22.042459"><ele>0.0</ele><time>1970-01-01T00:17:44Z</time></trkpt>
			<trkpt lat="55.033353" lon="22.041987"><ele>0.0</ele><time>1970-01-01T00:17:45Z</time></trkpt>
			<trkpt lat="55.033353" lon="22.041987"><ele>0.0</ele><time>1970-01-01T00:17:46Z</time></trkpt>
			<trkpt lat="55.033611" lon="22.040657"><ele>0.0</ele><time>1970-01-01T00:17:47Z</time></trkpt>
			<trkpt lat="55.033611" lon="22.040657"><ele>0.0</ele><time>1970-01-01T00:17:48Z</time></trkpt>
			<trkpt lat="55.033954" lon="22.039348"><ele>0.0</ele><time>1970-01-01T00:17:49Z</time></trkpt>
			<trkpt lat="55.033954" lon="22.039348"><ele>0.0</ele><time>1970-01-01T00:17:50Z</time></trkpt>
			<trkpt lat="55.034855" lon="22.036795"><ele>0.0</ele><time>1970-01-01T00:17:51Z</time></trkpt>
			<trkpt lat="55.034855" lon="22.036795"><ele>0.0</ele><time>1970-01-01T00:17:52Z</time></trkpt>
			<trkpt lat="55.034963" lon="22.035700"><ele>0.0</ele><time>1970-01-01T00:17:53Z</time></trkpt>
			<trkpt lat="55.034963" lon="22.035700"><ele>0.0</ele><time>1970-01-01T00:17:54Z</time></trkpt>
			<trkpt lat="55.035113" lon="22.035400"><ele>0.0</ele><time>1970-01-01T00:17:55Z</time></trkpt>
			<trkpt lat="55.035113" lon="22.035400"><ele>0.0</ele><time>1970-01-01T00:17:56Z</time></trkpt>
			<trkpt lat="55.035799" lon="22.034670"><ele>0.0</ele><time>1970-01-01T00:17:57Z</time></trkpt>
			<trkpt lat="55.035799" lon="22.034670"><ele>0.0</ele><time>1970-01-01T00:17:58Z</time></trkpt>
			<trkpt lat="55.036422" lon="22.033619"><ele>0.0</ele><time>1970-01-01T00:17:59Z</time></trkpt>
			<trkpt lat="55.036422" lon="22.033619"><ele>0.0</ele><time>1970-01-01T00:18:00Z</time></trkpt>
			<trkpt lat="55.036829" lon="22.033018"><ele>0.0</ele><time>1970-01-01T00:18:01Z</time></trkpt>
			<trkpt lat="55.036829" lon="22.033018"><ele>0.0</ele><time>1970-01-01T00:18:02Z</time></trkpt>
			<trkpt lat="55.037023" lon="22.032803"><ele>0.0</ele><time>1970-01-01T00:18:03Z</time></trkpt>
			<trkpt lat="55.037023" lon="22.032803"><ele>0.0</ele><time>1970-01-01T00:18:04Z</time></trkpt>
			<trkpt lat="55.037237" lon="22.032632"><ele>0.0</ele><time>1970-01-01T00:18:05Z</time></trkpt>
			<trkpt lat="55.037237" lon="22.032632"><ele>0.0</ele><time>1970-01-01T00:18:06Z</time></trkpt>
			<trkpt lat="55.037795" lon="22.032353"><ele>0.0</ele><time>1970-01-01T00:18:07Z</time></trkpt>
			<trkpt lat="55.037795" lon="22.032353"><ele>0.0</ele><time>1970-01-01T00:18:08Z</time></trkpt>
			<trkpt lat="55.038031" lon="22.031967"><ele>0.0</ele><time>1970-01-01T00:18:09Z</time></trkpt>
			<trkpt lat="55.038031" lon="22.031967"><ele>0.0</ele><time>1970-01-01T00:18:10Z</time></trkpt>
			<trkpt lat="55.038224" lon="22.029778"><ele>0.0</ele><time>1970-01-01T00:18:11Z</time></trkpt>
			<trkpt lat="55.038224" lon="22.029778"><ele>0.0</ele><time>1970-01-01T00:18:12Z</time></trkpt>
			<trkpt lat="55.038846" lon="22.028233"><ele>0.0</ele><time>1970-01-01T00:18:13Z</time></trkpt>
			<trkpt lat="55.038846" lon="22.028233"><ele>0.0</ele><time>1970-01-01T00:18:14Z</time></trkpt>
			<trkpt lat="55.035928" lon="22.024499"><ele>0.0</ele><time>1970-01-01T00:18:15Z</time></trkpt>
			<trkpt lat="55.035928" lon="22.024499"><ele>0.0</ele><time>1970-01-01T00:18:16Z</time></trkpt>
			<trkpt lat="55.035649" lon="22.024220"><ele>0.0</ele><time>1970-01-01T00:18:17Z</time></trkpt>
			<trkpt lat="55.035649" lon="22.024220"><ele>0.0</ele><time>1970-01-01T00:18:18Z</time></trkpt>
			<trkpt lat="55.035177" lon="22.024070"><ele>0.0</ele><time>1970-01-01T00:18:19Z</time></trkpt>
			<trkpt lat="55.035177" lon="22.024070"><ele>0.0</ele><time>1970-01-01T00:18:20Z</time></trkpt>
			<trkpt lat="55.034748" lon="22.024027"><ele>0.0</ele><time>1970-01-01T00:18:21Z</time></trkpt>
			<trkpt lat="55.034748" lon="22.024027"><ele>0.0</ele><time>1970-01-01T00:18:22Z</time></trkpt>
			<trkpt lat="55.034426" lon="22.024049"><ele>0.0</ele><time>1970-01-01T00:18:23Z</time></trkpt>
			<trkpt lat="55.034426" lon="22.024049"><ele>0.0</ele><time>1970-01-01T00:18:24Z</time></trkpt>
			<trkpt lat="55.033782" lon="22.024220"><ele>0.0</ele><time>1970-01-01T00:18:25Z</time></trkpt>
			<trkpt lat="55.033782" lon="22.024220"><ele>0.0</ele><time>1970-01-01T00:18:26Z</time></trkpt>
			<trkpt lat="55.033074" lon="22.024049"><ele>0.0</ele><time>1970-01-01T00:18:27Z</time></trkpt>
			<trkpt lat="55.033074" lon="22.024049"><ele>0.0</ele><time>1970-01-01T00:18:28Z</time></trkpt>
			<trkpt lat="55.032645" lon="22.023791"><ele>0.0</ele><time>1970-01-01T00:18:29Z</time></trkpt>
			<trkpt lat="55.032645" lon="22.023791"><ele>0.0</ele><time>1970-01-01T00:18:30Z</time></trkpt>
			<trkpt lat="55.032001" lon="22.023598"><ele>0.0</ele><time>1970-01-01T00:18:31Z</time></trkpt>
			<trkpt lat="55.032001" lon="22.023598"><ele>0.0</ele><time>1970-01-01T00:18:32Z</time></trkpt>
			<trkpt lat="55.029684" lon="22.023298"><ele>0.0</ele><time>1970-01-01T00:18:33Z</time></trkpt>
			<trkpt lat="55.029684" lon="22.023298"><ele>0.0</ele><time>1970-01-01T00:18:34Z</time></trkpt>
			<trkpt lat="55.027131" lon="22.023298"><ele>0.0</ele><time>1970-01-01T00:18:35Z</time></trkpt>
			<trkpt lat="55.027131" lon="22.023298"><ele>0.0</ele><time>1970-01-01T00:18:36Z</time></trkpt>
			<trkpt lat="55.025972" lon="22.023469"><ele>0.0</ele><time>1970-01-01T00:18:37Z</time></trkpt>
			<trkpt lat="55.025972" lon="22.023469"><ele>0.0</ele><time>1970-01-01T00:18:38Z</time></trkpt>
			<trkpt lat="55.025586" lon="22.023426"><ele>0.0</ele><time>1970-01-01T00:18:39Z</time></trkpt>
			<trkpt lat="55.025586" lon="22.023426"><ele>0.0</ele><time>1970-01-01T00:18:40Z</time></trkpt>
			<trkpt lat="55.025114" lon="22.023212"><ele>0.0</ele><time>1970-01-01T00:18:41Z</time></trkpt>
			<trkpt lat="55.025114" lon="22.023212"><ele>0.0</ele><time>1970-01-01T00:18:42Z</time></trkpt>
			<trkpt lat="55.023805" lon="22.022396"><ele>0.0</ele><time>1970-01-01T00:18:43Z</time></trkpt>
			<trkpt lat="55.023805" lon="22.022396"><ele>0.0</ele><time>1970-01-01T00:18:44Z</time></trkpt>
			<trkpt lat="55.022260" lon="22.021388"><ele>0.0</ele><time>1970-01-01T00:18:45Z</time></trkpt>
			<trkpt lat="55.022260" lon="22.021388"><ele>0.0</ele><time>1970-01-01T00:18:46Z</time></trkpt>
			<trkpt lat="55.021831" lon="22.020980"><ele>0.0</ele><time>1970-01-01T00:18:47Z</time></trkpt>
			<trkpt lat="55.021831" lon="22.020980"><ele>0.0</ele><time>1970-01-01T00:18:48Z</time></trkpt>
			<trkpt lat="55.020865" lon="22.019414"><ele>0.0</ele><time>1970-01-01T00:18:49Z</time></trkpt>
			<trkpt lat="55.020865" lon="22.019414"><ele>0.0</ele><time>1970-01-01T00:18:50Z</time></trkpt>
			<trkpt lat="55.019685" lon="22.017204"><ele>0.0</ele><time>1970-01-01T00:18:51Z</time></trkpt>
			<trkpt lat="55.019685" lon="22.017204"><ele>0.0</ele><time>1970-01-01T00:18:52Z</time></trkpt>
			<trkpt lat="55.015200" lon="22.009393"><ele>0.0</ele><time>1970-01-01T00:18:53Z</time></trkpt>
			<trkpt lat="55.015200" lon="22.009393"><ele>0.0</ele><time>1970-01-01T00:18:54Z</time></trkpt>
			<trkpt lat="55.004750" lon="21.990811"><ele>0.0</ele><time>1970-01-01T00:18:55Z</time></trkpt>
			<trkpt lat="55.004750" lon="21.990811"><ele>0.0</ele><time>1970-01-01T00:18:56Z</time></trkpt>
			<trkpt lat="55.004235" lon="21.990146"><ele>0.0</ele><time>1970-01-01T00:18:57Z</time></trkpt>
			<trkpt lat="55.004235" lon="21.990146"><ele>0.0</ele><time>1970-01-01T00:18:58Z</time></trkpt>
			<trkpt lat="55.002926" lon="21.989008"><ele>0.0</ele><time>1970-01-01T00:18:59Z</time></trkpt>
			<trkpt lat="55.002926" lon="21.989008"><ele>0.0</ele><time>1970-01-01T00:19:00Z</time></trkpt>
			<trkpt lat="55.000244" lon="21.986584"><ele>0.0</ele><time>1970-01-01T00:19:01Z</time></trkpt>
			<trkpt lat="55.000244" lon="21.986584"><ele>0.0</ele><time>1970-01-01T00:19:02Z</time></trkpt>
			<trkpt lat="55.006059" lon="21.972228"><ele>0.0</ele><time>1970-01-01T00:19:03Z</time></trkpt>
			<trkpt lat="55.006059" lon="21.972228"><ele>0.0</ele><time>1970-01-01T00:19:04Z</time></trkpt>
			<trkpt lat="55.007497" lon="21.968581"><ele>0.0</ele><time>1970-01-01T00:19:05Z</time></trkpt>
			<trkpt lat="55.007497" lon="21.968581"><ele>0.0</ele><time>1970-01-01T00:19:06Z</time></trkpt>
			<trkpt lat="55.008312" lon="21.965662"><ele>0.0</ele><time>1970-01-01T00:19:07Z</time></trkpt>
			<trkpt lat="55.008312" lon="21.965662"><ele>0.0</ele><time>1970-01-01T00:19:08Z</time></trkpt>
			<trkpt lat="55.012368" lon="21.952874"><ele>0.0</ele><time>1970-01-01T00:19:09Z</time></trkpt>
			<trkpt lat="55.012368" lon="21.952874"><ele>0.0</ele><time>1970-01-01T00:19:10Z</time></trkpt>
			<trkpt lat="55.011531" lon="21.951779"><ele>0.0</ele><time>1970-01-01T00:19:11Z</time></trkpt>
			<trkpt lat="55.011531" lon="21.951779"><ele>0.0</ele><time>1970-01-01T00:19:12Z</time></trkpt>
			<trkpt lat="55.010758" lon="21.950985"><ele>0.0</ele><time>1970-01-01T00:19:13Z</time></trkpt>
			<trkpt lat="55.010758" lon="21.950985"><ele>0.0</ele><time>1970-01-01T00:19:14Z</time></trkpt>
			<trkpt lat="55.009085" lon="21.949848"><ele>0.0</ele><time>1970-01-01T00:19:15Z</time></trkpt>
			<trkpt lat="55.009085" lon="21.949848"><ele>0.0</ele><time>1970-01-01T00:19:16Z</time></trkpt>
			<trkpt lat="55.004321" lon="21.947101"><ele>0.0</ele><time>1970-01-01T00:19:17Z</time></trkpt>
			<trkpt lat="55.004321" lon="21.947101"><ele>0.0</ele><time>1970-01-01T00:19:18Z</time></trkpt>
			<trkpt lat="55.002154" lon="21.945921"><ele>0.0</ele><time>1970-01-01T00:19:19Z</time></trkpt>
			<trkpt lat="55.002154" lon="21.945921"><ele>0.0</ele><time>1970-01-01T00:19:20Z</time></trkpt>
			<trkpt lat="54.998270" lon="21.943733"><ele>0.0</ele><time>1970-01-01T00:19:21Z</time></trkpt>
			<trkpt lat="54.998270" lon="21.943733"><ele>0.0</ele><time>1970-01-01T00:19:22Z</time></trkpt>
			<trkpt lat="54.995266" lon="21.941608"><ele>0.0</ele><time>1970-01-01T00:19:23Z</time></trkpt>
			<trkpt lat="54.995266" lon="21.941608"><ele>0.0</ele><time>1970-01-01T00:19:24Z</time></trkpt>
			<trkpt lat="54.992455" lon="21.939398"><ele>0.0</ele><time>1970-01-01T00:19:25Z</time></trkpt>
			<trkpt lat="54.992455" lon="21.939398"><ele>0.0</ele><time>1970-01-01T00:19:26Z</time></trkpt>
			<trkpt lat="54.992348" lon="21.939355"><ele>0.0</ele><time>1970-01-01T00:19:27Z</time></trkpt>
			<trkpt lat="54.992348" lon="21.939355"><ele>0.0</ele><time>1970-01-01T00:19:28Z</time></trkpt>
			<trkpt lat="54.991361" lon="21.938325"><ele>0.0</ele><time>1970-01-01T00:19:29Z</time></trkpt>
			<trkpt lat="54.991361" lon="21.938325"><ele>0.0</ele><time>1970-01-01T00:19:30Z</time></trkpt>
			<trkpt lat="54.990824" lon="21.937295"><ele>0.0</ele><time>1970-01-01T00:19:31Z</time></trkpt>
			<trkpt lat="54.990824" lon="21.937295"><ele>0.0</ele><time>1970-01-01T00:19:32Z</time></trkpt>
			<trkpt lat="54.986683" lon="21.926867"><ele>0.0</ele><time>1970-01-01T00:19:33Z</time></trkpt>
			<trkpt lat="54.986683" lon="21.926867"><ele>0.0</ele><time>1970-01-01T00:19:34Z</time></trkpt>
			<trkpt lat="54.985889" lon="21.926030"><ele>0.0</ele><time>1970-01-01T00:19:35Z</time></trkpt>
			<trkpt lat="54.985889" lon="21.926030"><ele>0.0</ele><time>1970-01-01T00:19:36Z</time></trkpt>
			<trkpt lat="54.985202" lon="21.925644"><ele>0.0</ele><time>1970-01-01T00:19:37Z</time></trkpt>
			<trkpt lat="54.985202" lon="21.925644"><ele>0.0</ele><time>1970-01-01T00:19:38Z</time></trkpt>
			<trkpt lat="54.985009" lon="21.925429"><ele>0.0</ele><time>1970-01-01T00:19:39Z</time></trkpt>
			<trkpt lat="54.985009" lon="21.925429"><ele>0.0</ele><time>1970-01-01T00:19:40Z</time></trkpt>
			<trkpt lat="54.983850" lon="21.923369"><ele>0.0</ele><time>1970-01-01T00:19:41Z</time></trkpt>
			<trkpt lat="54.983850" lon="21.923369"><ele>0.0</ele><time>1970-01-01T00:19:42Z</time></trkpt>
			<trkpt lat="54.983808" lon="21.923090"><ele>0.0</ele><time>1970-01-01T00:19:43Z</time></trkpt>
			<trkpt lat="54.983808" lon="21.923090"><ele>0.0</ele><time>1970-01-01T00:19:44Z</time></trkpt>
			<trkpt lat="54.983679" lon="21.920902"><ele>0.0</ele><time>1970-01-01T00:19:45Z</time></trkpt>
			<trkpt lat="54.983679" lon="21.920902"><ele>0.0</ele><time>1970-01-01T00:19:46Z</time></trkpt>
			<trkpt lat="54.983614" lon="21.919185"><ele>0.0</ele><time>1970-01-01T00:19:47Z</time></trkpt>
			<trkpt lat="54.983614" lon="21.919185"><ele>0.0</ele><time>1970-01-01T00:19:48Z</time></trkpt>
			<trkpt lat="54.982499" lon="21.912168"><ele>0.0</ele><time>1970-01-01T00:19:49Z</time></trkpt>
			<trkpt lat="54.982499" lon="21.912168"><ele>0.0</ele><time>1970-01-01T00:19:50Z</time></trkpt>
			<trkpt lat="54.982091" lon="21.910409"><ele>0.0</ele><time>1970-01-01T00:19:51Z</time></trkpt>
			<trkpt lat="54.982091" lon="21.910409"><ele>0.0</ele><time>1970-01-01T00:19:52Z</time></trkpt>
			<trkpt lat="54.981018" lon="21.906375"><ele>0.0</ele><time>1970-01-01T00:19:53Z</time></trkpt>
			<trkpt lat="54.981018" lon="21.906375"><ele>0.0</ele><time>1970-01-01T00:19:54Z</time></trkpt>
			<trkpt lat="54.980503" lon="21.905323"><ele>0.0</ele><time>1970-01-01T00:19:55Z</time></trkpt>
			<trkpt lat="54.980503" lon="21.905323"><ele>0.0</ele><time>1970-01-01T00:19:56Z</time></trkpt>
			<trkpt lat="54.979816" lon="21.903628"><ele>0.0</ele><time>1970-01-01T00:19:57Z</time></trkpt>
			<trkpt lat="54.979816" lon="21.903628"><ele>0.0</ele><time>1970-01-01T00:19:58Z</time></trkpt>
			<trkpt lat="54.977113" lon="21.890131"><ele>0.0</ele><time>1970-01-01T00:19:59Z</time></trkpt>
			<trkpt lat="54.977113" lon="21.890131"><ele>0.0</ele><time>1970-01-01T00:20:00Z</time></trkpt>
			<trkpt lat="54.976362" lon="21.884917"><ele>0.0</ele><time>1970-01-01T00:20:01Z</time></trkpt>
			<trkpt lat="54.976362" lon="21.884917"><ele>0.0</ele><time>1970-01-01T00:20:02Z</time></trkpt>
			<trkpt lat="54.976233" lon="21.873759"><ele>0.0</ele><time>1970-01-01T00:20:03Z</time></trkpt>
			<trkpt lat="54.976233" lon="21.873759"><ele>0.0</ele><time>1970-01-01T00:20:04Z</time></trkpt>
			<trkpt lat="54.976147" lon="21.873330"><ele>0.0</ele><time>1970-01-01T00:20:05Z</time></trkpt>
			<trkpt lat="54.976147" lon="21.873330"><ele>0.0</ele><time>1970-01-01T00:20:06Z</time></trkpt>
			<trkpt lat="54.974581" lon="21.869189"><ele>0.0</ele><time>1970-01-01T00:20:07Z</time></trkpt>
			<trkpt lat="54.974581" lon="21.869189"><ele>0.0</ele><time>1970-01-01T00:20:08Z</time></trkpt>
			<trkpt lat="54.973808" lon="21.868137"><ele>0.0</ele><time>1970-01-01T00:20:09Z</time></trkpt>
			<trkpt lat="54.973808" lon="21.868137"><ele>0.0</ele><time>1970-01-01T00:20:10Z</time></trkpt>
			<trkpt lat="54.973443" lon="21.867215"><ele>0.0</ele><time>1970-01-01T00:20:11Z</time></trkpt>
			<trkpt lat="54.973443" lon="21.867215"><ele>0.0</ele><time>1970-01-01T00:20:12Z</time></trkpt>
			<trkpt lat="54.972735" lon="21.865112"><ele>0.0</ele><time>1970-01-01T00:20:13Z</time></trkpt>
			<trkpt lat="54.972735" lon="21.865112"><ele>0.0</ele><time>1970-01-01T00:20:14Z</time></trkpt>
			<trkpt lat="54.971705" lon="21.863481"><ele>0.0</ele><time>1970-01-01T00:20:15Z</time></trkpt>
			<trkpt lat="54.971705" lon="21.863481"><ele>0.0</ele><time>1970-01-01T00:20:16Z</time></trkpt>
			<trkpt lat="54.970032" lon="21.861142"><ele>0.0</ele><time>1970-01-01T00:20:17Z</time></trkpt>
			<trkpt lat="54.970032" lon="21.861142"><ele>0.0</ele><time>1970-01-01T00:20:18Z</time></trkpt>
			<trkpt lat="54.968637" lon="21.859468"><ele>0.0</ele><time>1970-01-01T00:20:19Z</time></trkpt>
			<trkpt lat="54.968637" lon="21.859468"><ele>0.0</ele><time>1970-01-01T00:20:20Z</time></trkpt>
			<trkpt lat="54.966341" lon="21.856400"><ele>0.0</ele><time>1970-01-01T00:20:21Z</time></trkpt>
			<trkpt lat="54.966341" lon="21.856400"><ele>0.0</ele><time>1970-01-01T00:20:22Z</time></trkpt>
			<trkpt lat="54.963637" lon="21.852387"><ele>0.0</ele><time>1970-01-01T00:20:23Z</time></trkpt>
			<trkpt lat="54.963637" lon="21.852387"><ele>0.0</ele><time>1970-01-01T00:20:24Z</time></trkpt>
			<trkpt lat="54.962521" lon="21.850799"><ele>0.0</ele><time>1970-01-01T00:20:25Z</time></trkpt>
			<trkpt lat="54.962521" lon="21.850799"><ele>0.0</ele><time>1970-01-01T00:20:26Z</time></trkpt>
			<trkpt lat="54.958552" lon="21.845499"><ele>0.0</ele><time>1970-01-01T00:20:27Z</time></trkpt>
			<trkpt lat="54.958552" lon="21.845499"><ele>0.0</ele><time>1970-01-01T00:20:28Z</time></trkpt>
			<trkpt lat="54.956900" lon="21.842903"><ele>0.0</ele><time>1970-01-01T00:20:29Z</time></trkpt>
			<trkpt lat="54.956900" lon="21.842903"><ele>0.0</ele><time>1970-01-01T00:20:30Z</time></trkpt>
			<trkpt lat="54.956556" lon="21.842281"><ele>0.0</ele><time>1970-01-01T00:20:31Z</time></trkpt>
			<trkpt lat="54.956556" lon="21.842281"><ele>0.0</ele><time>1970-01-01T00:20:32Z</time></trkpt>
			<trkpt lat="54.956470" lon="21.841723"><ele>0.0</ele><time>1970-01-01T00:20:33Z</time></trkpt>
			<trkpt lat="54.956470" lon="21.841723"><ele>0.0</ele><time>1970-01-01T00:20:34Z</time></trkpt>
			<trkpt lat="54.956556" lon="21.837603"><ele>0.0</ele><time>1970-01-01T00:20:35Z</time></trkpt>
			<trkpt lat="54.956556" lon="21.837603"><ele>0.0</ele><time>1970-01-01T00:20:36Z</time></trkpt>
			<trkpt lat="54.956513" lon="21.835050"><ele>0.0</ele><time>1970-01-01T00:20:37Z</time></trkpt>
			<trkpt lat="54.956513" lon="21.835050"><ele>0.0</ele><time>1970-01-01T00:20:38Z</time></trkpt>
			<trkpt lat="54.956320" lon="21.833290"><ele>0.0</ele><time>1970-01-01T00:20:39Z</time></trkpt>
			<trkpt lat="54.956320" lon="21.833290"><ele>0.0</ele><time>1970-01-01T00:20:40Z</time></trkpt>
			<trkpt lat="54.956041" lon="21.831616"><ele>0.0</ele><time>1970-01-01T00:20:41Z</time></trkpt>
			<trkpt lat="54.956041" lon="21.831616"><ele>0.0</ele><time>1970-01-01T00:20:42Z</time></trkpt>
			<trkpt lat="54.955719" lon="21.830093"><ele>0.0</ele><time>1970-01-01T00:20:43Z</time></trkpt>
			<trkpt lat="54.955719" lon="21.830093"><ele>0.0</ele><time>1970-01-01T00:20:44Z</time></trkpt>
			<trkpt lat="54.955162" lon="21.828655"><ele>0.0</ele><time>1970-01-01T00:20:45Z</time></trkpt>
			<trkpt lat="54.955162" lon="21.828655"><ele>0.0</ele><time>1970-01-01T00:20:46Z</time></trkpt>
			<trkpt lat="54.955569" lon="21.827711"><ele>0.0</ele><time>1970-01-01T00:20:47Z</time></trkpt>
			<trkpt lat="54.955569" lon="21.827711"><ele>0.0</ele><time>1970-01-01T00:20:48Z</time></trkpt>
			<trkpt lat="54.956792" lon="21.825308"><ele>0.0</ele><time>1970-01-01T00:20:49Z</time></trkpt>
			<trkpt lat="54.956792" lon="21.825308"><ele>0.0</ele><time>1970-01-01T00:20:50Z</time></trkpt>
			<trkpt lat="54.963122" lon="21.812240"><ele>0.0</ele><time>1970-01-01T00:20:51Z</time></trkpt>
			<trkpt lat="54.963122" lon="21.812240"><ele>0.0</ele><time>1970-01-01T00:20:52Z</time></trkpt>
			<trkpt lat="54.968465" lon="21.803550"><ele>0.0</ele><time>1970-01-01T00:20:53Z</time></trkpt>
			<trkpt lat="54.968465" lon="21.803550"><ele>0.0</ele><time>1970-01-01T00:20:54Z</time></trkpt>
			<trkpt lat="54.972564" lon="21.798357"><ele>0.0</ele><time>1970-01-01T00:20:55Z</time></trkpt>
			<trkpt lat="54.972564" lon="21.798357"><ele>0.0</ele><time>1970-01-01T00:20:56Z</time></trkpt>
			<trkpt lat="54.974237" lon="21.796318"><ele>0.0</ele><time>1970-01-01T00:20:57Z</time></trkpt>
			<trkpt lat="54.974237" lon="21.796318"><ele>0.0</ele><time>1970-01-01T00:20:58Z</time></trkpt>
			<trkpt lat="54.975396" lon="21.794752"><ele>0.0</ele><time>1970-01-01T00:20:59Z</time></trkpt>
			<trkpt lat="54.975396" lon="21.794752"><ele>0.0</ele><time>1970-01-01T00:21:00Z</time></trkpt>
			<trkpt lat="54.978035" lon="21.790096"><ele>0.0</ele><time>1970-01-01T00:21:01Z</time></trkpt>
			<trkpt lat="54.978035" lon="21.790096"><ele>0.0</ele><time>1970-01-01T00:21:02Z</time></trkpt>
			<trkpt lat="54.980095" lon="21.786577"><ele>0.0</ele><time>1970-01-01T00:21:03Z</time></trkpt>
			<trkpt lat="54.980095" lon="21.786577"><ele>0.0</ele><time>1970-01-01T00:21:04Z</time></trkpt>
			<trkpt lat="54.982241" lon="21.782628"><ele>0.0</ele><time>1970-01-01T00:21:05Z</time></trkpt>
			<trkpt lat="54.982241" lon="21.782628"><ele>0.0</ele><time>1970-01-01T00:21:06Z</time></trkpt>
			<trkpt lat="54.983486" lon="21.780225"><ele>0.0</ele><time>1970-01-01T00:21:07Z</time></trkpt>
			<trkpt lat="54.983486" lon="21.780225"><ele>0.0</ele><time>1970-01-01T00:21:08Z</time></trkpt>
			<trkpt lat="54.985524" lon="21.774753"><ele>0.0</ele><time>1970-01-01T00:21:09Z</time></trkpt>
			<trkpt lat="54.985524" lon="21.774753"><ele>0.0</ele><time>1970-01-01T00:21:10Z</time></trkpt>
			<trkpt lat="54.985867" lon="21.773702"><ele>0.0</ele><time>1970-01-01T00:21:11Z</time></trkpt>
			<trkpt lat="54.985867" lon="21.773702"><ele>0.0</ele><time>1970-01-01T00:21:12Z</time></trkpt>
			<trkpt lat="54.988206" lon="21.776320"><ele>0.0</ele><time>1970-01-01T00:21:13Z</time></trkpt>
			<trkpt lat="54.988206" lon="21.776320"><ele>0.0</ele><time>1970-01-01T00:21:14Z</time></trkpt>
			<trkpt lat="54.992498" lon="21.781019"><ele>0.0</ele><time>1970-01-01T00:21:15Z</time></trkpt>
			<trkpt lat="54.992498" lon="21.781019"><ele>0.0</ele><time>1970-01-01T00:21:16Z</time></trkpt>
			<trkpt lat="54.993850" lon="21.783916"><ele>0.0</ele><time>1970-01-01T00:21:17Z</time></trkpt>
			<trkpt lat="54.993850" lon="21.783916"><ele>0.0</ele><time>1970-01-01T00:21:18Z</time></trkpt>
			<trkpt lat="54.996468" lon="21.789838"><ele>0.0</ele><time>1970-01-01T00:21:19Z</time></trkpt>
			<trkpt lat="54.996468" lon="21.789838"><ele>0.0</ele><time>1970-01-01T00:21:20Z</time></trkpt>
			<trkpt lat="54.998871" lon="21.795095"><ele>0.0</ele><time>1970-01-01T00:21:21Z</time></trkpt>
			<trkpt lat="54.998871" lon="21.795095"><ele>0.0</ele><time>1970-01-01T00:21:22Z</time></trkpt>
			<trkpt lat="55.001059" lon="21.799709"><ele>0.0</ele><time>1970-01-01T00:21:23Z</time></trkpt>
			<trkpt lat="55.001059" lon="21.799709"><ele>0.0</ele><time>1970-01-01T00:21:24Z</time></trkpt>
			<trkpt lat="55.002025" lon="21.801919"><ele>0.0</ele><time>1970-01-01T00:21:25Z</time></trkpt>
			<trkpt lat="55.002025" lon="21.801919"><ele>0.0</ele><time>1970-01-01T00:21:26Z</time></trkpt>
			<trkpt lat="55.002776" lon="21.803163"><ele>0.0</ele><time>1970-01-01T00:21:27Z</time></trkpt>
			<trkpt lat="55.002776" lon="21.803163"><ele>0.0</ele><time>1970-01-01T00:21:28Z</time></trkpt>
			<trkpt lat="55.008634" lon="21.811274"><ele>0.0</ele><time>1970-01-01T00:21:29Z</time></trkpt>
			<trkpt lat="55.008634" lon="21.811274"><ele>0.0</ele><time>1970-01-01T00:21:30Z</time></trkpt>
			<trkpt lat="55.017003" lon="21.823033"><ele>0.0</ele><time>1970-01-01T00:21:31Z</time></trkpt>
			<trkpt lat="55.017003" lon="21.823033"><ele>0.0</ele><time>1970-01-01T00:21:32Z</time></trkpt>
			<trkpt lat="55.018397" lon="21.825093"><ele>0.0</ele><time>1970-01-01T00:21:33Z</time></trkpt>
			<trkpt lat="55.018397" lon="21.825093"><ele>0.0</ele><time>1970-01-01T00:21:34Z</time></trkpt>
			<trkpt lat="55.019170" lon="21.826638"><ele>0.0</ele><time>1970-01-01T00:21:35Z</time></trkpt>
			<trkpt lat="55.019170" lon="21.826638"><ele>0.0</ele><time>1970-01-01T00:21:36Z</time></trkpt>
			<trkpt lat="55.019921" lon="21.828462"><ele>0.0</ele><time>1970-01-01T00:21:37Z</time></trkpt>
			<trkpt lat="55.019921" lon="21.828462"><ele>0.0</ele><time>1970-01-01T00:21:38Z</time></trkpt>
			<trkpt lat="55.020350" lon="21.829728"><ele>0.0</ele><time>1970-01-01T00:21:39Z</time></trkpt>
			<trkpt lat="55.020350" lon="21.829728"><ele>0.0</ele><time>1970-01-01T00:21:40Z</time></trkpt>
			<trkpt lat="55.020736" lon="21.831166"><ele>0.0</ele><time>1970-01-01T00:21:41Z</time></trkpt>
			<trkpt lat="55.020736" lon="21.831166"><ele>0.0</ele><time>1970-01-01T00:21:42Z</time></trkpt>
			<trkpt lat="55.020929" lon="21.832024"><ele>0.0</ele><time>1970-01-01T00:21:43Z</time></trkpt>
			<trkpt lat="55.020929" lon="21.832024"><ele>0.0</ele><time>1970-01-01T00:21:44Z</time></trkpt>
			<trkpt lat="55.021316" lon="21.834148"><ele>0.0</ele><time>1970-01-01T00:21:45Z</time></trkpt>
			<trkpt lat="55.021316" lon="21.834148"><ele>0.0</ele><time>1970-01-01T00:21:46Z</time></trkpt>
			<trkpt lat="55.021509" lon="21.835951"><ele>0.0</ele><time>1970-01-01T00:21:47Z</time></trkpt>
			<trkpt lat="55.021509" lon="21.835951"><ele>0.0</ele><time>1970-01-01T00:21:48Z</time></trkpt>
			<trkpt lat="55.021594" lon="21.838054"><ele>0.0</ele><time>1970-01-01T00:21:49Z</time></trkpt>
			<trkpt lat="55.021594" lon="21.838054"><ele>0.0</ele><time>1970-01-01T00:21:50Z</time></trkpt>
			<trkpt lat="55.021573" lon="21.847280"><ele>0.0</ele><time>1970-01-01T00:21:51Z</time></trkpt>
			<trkpt lat="55.021573" lon="21.847280"><ele>0.0</ele><time>1970-01-01T00:21:52Z</time></trkpt>
			<trkpt lat="55.021594" lon="21.855692"><ele>0.0</ele><time>1970-01-01T00:21:53Z</time></trkpt>
			<trkpt lat="55.021594" lon="21.855692"><ele>0.0</ele><time>1970-01-01T00:21:54Z</time></trkpt>
			<trkpt lat="55.021552" lon="21.863202"><ele>0.0</ele><time>1970-01-01T00:21:55Z</time></trkpt>
			<trkpt lat="55.021552" lon="21.863202"><ele>0.0</ele><time>1970-01-01T00:21:56Z</time></trkpt>
			<trkpt lat="55.021594" lon="21.864532"><ele>0.0</ele><time>1970-01-01T00:21:57Z</time></trkpt>
			<trkpt lat="55.021594" lon="21.864532"><ele>0.0</ele><time>1970-01-01T00:21:58Z</time></trkpt>
			<trkpt lat="55.021788" lon="21.867429"><ele>0.0</ele><time>1970-01-01T00:21:59Z</time></trkpt>
			<trkpt lat="55.021788" lon="21.867429"><ele>0.0</ele><time>1970-01-01T00:22:00Z</time></trkpt>
			<trkpt lat="55.021897" lon="21.868651"><ele>0.0</ele><time>1970-01-01T00:22:01Z</time></trkpt>
			<trkpt lat="55.021897" lon="21.868651"><ele>0.0</ele><time>1970-01-01T00:22:02Z</time></trkpt>
			<trkpt lat="55.022087" lon="21.870282"><ele>0.0</ele><time>1970-01-01T00:22:03Z</time></trkpt>
			<trkpt lat="55.022087" lon="21.870282"><ele>0.0</ele><time>1970-01-01T00:22:04Z</time></trkpt>
			<trkpt lat="55.022309" lon="21.871934"><ele>0.0</ele><time>1970-01-01T00:22:05Z</time></trkpt>
			<trkpt lat="55.022309" lon="21.871934"><ele>0.0</ele><time>1970-01-01T00:22:06Z</time></trkpt>
			<trkpt lat="55.022564" lon="21.873490"><ele>0.0</ele><time>1970-01-01T00:22:07Z</time></trkpt>
			<trkpt lat="55.022564" lon="21.873490"><ele>0.0</ele><time>1970-01-01T00:22:08Z</time></trkpt>
			<trkpt lat="55.023013" lon="21.875710"><ele>0.0</ele><time>1970-01-01T00:22:09Z</time></trkpt>
			<trkpt lat="55.023013" lon="21.875710"><ele>0.0</ele><time>1970-01-01T00:22:10Z</time></trkpt>
			<trkpt lat="55.023419" lon="21.877470"><ele>0.0</ele><time>1970-01-01T00:22:11Z</time></trkpt>
			<trkpt lat="55.023419" lon="21.877470"><ele>0.0</ele><time>1970-01-01T00:22:12Z</time></trkpt>
			<trkpt lat="55.024409" lon="21.881048"><ele>0.0</ele><time>1970-01-01T00:22:13Z</time></trkpt>
			<trkpt lat="55.024409" lon="21.881048"><ele>0.0</ele><time>1970-01-01T00:22:14Z</time></trkpt>
			<trkpt lat="55.024895" lon="21.882405"><ele>0.0</ele><time>1970-01-01T00:22:15Z</time></trkpt>
			<trkpt lat="55.024895" lon="21.882405"><ele>0.0</ele><time>1970-01-01T00:22:16Z</time></trkpt>
			<trkpt lat="55.025405" lon="21.883859"><ele>0.0</ele><time>1970-01-01T00:22:17Z</time></trkpt>
			<trkpt lat="55.025405" lon="21.883859"><ele>0.0</ele><time>1970-01-01T00:22:18Z</time></trkpt>
			<trkpt lat="55.025904" lon="21.885087"><ele>0.0</ele><time>1970-01-01T00:22:19Z</time></trkpt>
			<trkpt lat="55.025904" lon="21.885087"><ele>0.0</ele><time>1970-01-01T00:22:20Z</time></trkpt>
			<trkpt lat="55.026752" lon="21.887035"><ele>0.0</ele><time>1970-01-01T00:22:21Z</time></trkpt>
			<trkpt lat="55.026752" lon="21.887035"><ele>0.0</ele><time>1970-01-01T00:22:22Z</time></trkpt>
			<trkpt lat="55.027595" lon="21.888961"><ele>0.0</ele><time>1970-01-01T00:22:23Z</time></trkpt>
			<trkpt lat="55.027595" lon="21.888961"><ele>0.0</ele><time>1970-01-01T00:22:24Z</time></trkpt>
			<trkpt lat="55.028437" lon="21.890940"><ele>0.0</ele><time>1970-01-01T00:22:25Z</time></trkpt>
			<trkpt lat="55.028437" lon="21.890940"><ele>0.0</ele><time>1970-01-01T00:22:26Z</time></trkpt>
			<trkpt lat="55.029028" lon="21.892233"><ele>0.0</ele><time>1970-01-01T00:22:27Z</time></trkpt>
			<trkpt lat="55.029028" lon="21.892233"><ele>0.0</ele><time>1970-01-01T00:22:28Z</time></trkpt>
			<trkpt lat="55.029747" lon="21.893939"><ele>0.0</ele><time>1970-01-01T00:22:29Z</time></trkpt>
			<trkpt lat="55.029747" lon="21.893939"><ele>0.0</ele><time>1970-01-01T00:22:30Z</time></trkpt>
			<trkpt lat="55.030436" lon="21.895505"><ele>0.0</ele><time>1970-01-01T00:22:31Z</time></trkpt>
			<trkpt lat="55.030436" lon="21.895505"><ele>0.0</ele><time>1970-01-01T00:22:32Z</time></trkpt>
			<trkpt lat="55.031278" lon="21.897426"><ele>0.0</ele><time>1970-01-01T00:22:33Z</time></trkpt>
			<trkpt lat="55.031278" lon="21.897426"><ele>0.0</ele><time>1970-01-01T00:22:34Z</time></trkpt>
			<trkpt lat="55.032081" lon="21.899325"><ele>0.0</ele><time>1970-01-01T00:22:35Z</time></trkpt>
			<trkpt lat="55.032081" lon="21.899325"><ele>0.0</ele><time>1970-01-01T00:22:36Z</time></trkpt>
			<trkpt lat="55.032785" lon="21.900859"><ele>0.0</ele><time>1970-01-01T00:22:37Z</time></trkpt>
			<trkpt lat="55.032785" lon="21.900859"><ele>0.0</ele><time>1970-01-01T00:22:38Z</time></trkpt>
			<trkpt lat="55.033476" lon="21.902506"><ele>0.0</ele><time>1970-01-01T00:22:39Z</time></trkpt>
			<trkpt lat="55.033476" lon="21.902506"><ele>0.0</ele><time>1970-01-01T00:22:40Z</time></trkpt>
			<trkpt lat="55.034266" lon="21.904324"><ele>0.0</ele><time>1970-01-01T00:22:41Z</time></trkpt>
			<trkpt lat="55.034266" lon="21.904324"><ele>0.0</ele><time>1970-01-01T00:22:42Z</time></trkpt>
			<trkpt lat="55.035143" lon="21.906320"><ele>0.0</ele><time>1970-01-01T00:22:43Z</time></trkpt>
			<trkpt lat="55.035143" lon="21.906320"><ele>0.0</ele><time>1970-01-01T00:22:44Z</time></trkpt>
			<trkpt lat="55.035810" lon="21.907988"><ele>0.0</ele><time>1970-01-01T00:22:45Z</time></trkpt>
			<trkpt lat="55.035810" lon="21.907988"><ele>0.0</ele><time>1970-01-01T00:22:46Z</time></trkpt>
			<trkpt lat="55.036864" lon="21.910493"><ele>0.0</ele><time>1970-01-01T00:22:47Z</time></trkpt>
			<trkpt lat="55.036864" lon="21.910493"><ele>0.0</ele><time>1970-01-01T00:22:48Z</time></trkpt>
			<trkpt lat="55.038493" lon="21.914248"><ele>0.0</ele><time>1970-01-01T00:22:49Z</time></trkpt>
			<trkpt lat="55.038493" lon="21.914248"><ele>0.0</ele><time>1970-01-01T00:22:50Z</time></trkpt>
			<trkpt lat="55.039391" lon="21.916217"><ele>0.0</ele><time>1970-01-01T00:22:51Z</time></trkpt>
			<trkpt lat="55.039391" lon="21.916217"><ele>0.0</ele><time>1970-01-01T00:22:52Z</time></trkpt>
			<trkpt lat="55.040169" lon="21.917934"><ele>0.0</ele><time>1970-01-01T00:22:53Z</time></trkpt>
			<trkpt lat="55.040169" lon="21.917934"><ele>0.0</ele><time>1970-01-01T00:22:54Z</time></trkpt>
			<trkpt lat="55.041306" lon="21.920557"><ele>0.0</ele><time>1970-01-01T00:22:55Z</time></trkpt>
			<trkpt lat="55.041306" lon="21.920557"><ele>0.0</ele><time>1970-01-01T00:22:56Z</time></trkpt>
			<trkpt lat="55.041967" lon="21.922070"><ele>0.0</ele><time>1970-01-01T00:22:57Z</time></trkpt>
			<trkpt lat="55.041967" lon="21.922070"><ele>0.0</ele><time>1970-01-01T00:22:58Z</time></trkpt>
			<trkpt lat="55.042932" lon="21.924334"><ele>0.0</ele><time>1970-01-01T00:22:59Z</time></trkpt>
			<trkpt lat="55.042932" lon="21.924334"><ele>0.0</ele><time>1970-01-01T00:23:00Z</time></trkpt>
			<trkpt lat="55.043654" lon="21.925943"><ele>0.0</ele><time>1970-01-01T00:23:01Z</time></trkpt>
			<trkpt lat="55.043654" lon="21.925943"><ele>0.0</ele><time>1970-01-01T00:23:02Z</time></trkpt>
			<trkpt lat="55.044340" lon="21.927536"><ele>0.0</ele><time>1970-01-01T00:23:03Z</time></trkpt>
			<trkpt lat="55.044340" lon="21.927536"><ele>0.0</ele><time>1970-01-01T00:23:04Z</time></trkpt>
			<trkpt lat="55.044951" lon="21.928920"><ele>0.0</ele><time>1970-01-01T00:23:05Z</time></trkpt>
			<trkpt lat="55.044951" lon="21.928920"><ele>0.0</ele><time>1970-01-01T00:23:06Z</time></trkpt>
			<trkpt lat="55.045652" lon="21.930572"><ele>0.0</ele><time>1970-01-01T00:23:07Z</time></trkpt>
			<trkpt lat="55.045652" lon="21.930572"><ele>0.0</ele><time>1970-01-01T00:23:08Z</time></trkpt>
			<trkpt lat="55.046150" lon="21.931726"><ele>0.0</ele><time>1970-01-01T00:23:09Z</time></trkpt>
			<trkpt lat="55.046150" lon="21.931726"><ele>0.0</ele><time>1970-01-01T00:23:10Z</time></trkpt>
			<trkpt lat="55.046851" lon="21.933324"><ele>0.0</ele><time>1970-01-01T00:23:11Z</time></trkpt>
			<trkpt lat="55.046851" lon="21.933324"><ele>0.0</ele><time>1970-01-01T00:23:12Z</time></trkpt>
			<trkpt lat="55.047825" lon="21.935518"><ele>0.0</ele><time>1970-01-01T00:23:13Z</time></trkpt>
			<trkpt lat="55.047825" lon="21.935518"><ele>0.0</ele><time>1970-01-01T00:23:14Z</time></trkpt>
			<trkpt lat="55.048651" lon="21.937444"><ele>0.0</ele><time>1970-01-01T00:23:15Z</time></trkpt>
			<trkpt lat="55.048651" lon="21.937444"><ele>0.0</ele><time>1970-01-01T00:23:16Z</time></trkpt>
			<trkpt lat="55.049072" lon="21.938410"><ele>0.0</ele><time>1970-01-01T00:23:17Z</time></trkpt>
			<trkpt lat="55.049072" lon="21.938410"><ele>0.0</ele><time>1970-01-01T00:23:18Z</time></trkpt>
			<trkpt lat="55.049942" lon="21.940089"><ele>0.0</ele><time>1970-01-01T00:23:19Z</time></trkpt>
			<trkpt lat="55.049942" lon="21.940089"><ele>0.0</ele><time>1970-01-01T00:23:20Z</time></trkpt>
			<trkpt lat="55.050873" lon="21.941698"><ele>0.0</ele><time>1970-01-01T00:23:21Z</time></trkpt>
			<trkpt lat="55.050873" lon="21.941698"><ele>0.0</ele><time>1970-01-01T00:23:22Z</time></trkpt>
			<trkpt lat="55.052013" lon="21.943377"><ele>0.0</ele><time>1970-01-01T00:23:23Z</time></trkpt>
			<trkpt lat="55.052013" lon="21.943377"><ele>0.0</ele><time>1970-01-01T00:23:24Z</time></trkpt>
			<trkpt lat="55.053387" lon="21.945137"><ele>0.0</ele><time>1970-01-01T00:23:25Z</time></trkpt>
			<trkpt lat="55.053387" lon="21.945137"><ele>0.0</ele><time>1970-01-01T00:23:26Z</time></trkpt>
			<trkpt lat="55.054868" lon="21.946639"><ele>0.0</ele><time>1970-01-01T00:23:27Z</time></trkpt>
			<trkpt lat="55.054868" lon="21.946639"><ele>0.0</ele><time>1970-01-01T00:23:28Z</time></trkpt>
			<trkpt lat="55.055965" lon="21.947696"><ele>0.0</ele><time>1970-01-01T00:23:29Z</time></trkpt>
			<trkpt lat="55.055965" lon="21.947696"><ele>0.0</ele><time>1970-01-01T00:23:30Z</time></trkpt>
			<trkpt lat="55.056361" lon="21.948119"><ele>0.0</ele><time>1970-01-01T00:23:31Z</time></trkpt>
			<trkpt lat="55.056361" lon="21.948119"><ele>0.0</ele><time>1970-01-01T00:23:32Z</time></trkpt>
			<trkpt lat="55.056656" lon="21.948613"><ele>0.0</ele><time>1970-01-01T00:23:33Z</time></trkpt>
			<trkpt lat="55.056656" lon="21.948613"><ele>0.0</ele><time>1970-01-01T00:23:34Z</time></trkpt>
			<trkpt lat="55.056960" lon="21.949675"><ele>0.0</ele><time>1970-01-01T00:23:35Z</time></trkpt>
			<trkpt lat="55.056960" lon="21.949675"><ele>0.0</ele><time>1970-01-01T00:23:36Z</time></trkpt>
			<trkpt lat="55.057547" lon="21.951740"><ele>0.0</ele><time>1970-01-01T00:23:37Z</time></trkpt>
			<trkpt lat="55.057547" lon="21.951740"><ele>0.0</ele><time>1970-01-01T00:23:38Z</time></trkpt>
			<trkpt lat="55.057815" lon="21.952685"><ele>0.0</ele><time>1970-01-01T00:23:39Z</time></trkpt>
			<trkpt lat="55.057815" lon="21.952685"><ele>0.0</ele><time>1970-01-01T00:23:40Z</time></trkpt>
			<trkpt lat="55.058647" lon="21.951150"><ele>0.0</ele><time>1970-01-01T00:23:41Z</time></trkpt>
			<trkpt lat="55.058647" lon="21.951150"><ele>0.0</ele><time>1970-01-01T00:23:42Z</time></trkpt>
			<trkpt lat="55.059120" lon="21.950351"><ele>0.0</ele><time>1970-01-01T00:23:43Z</time></trkpt>
			<trkpt lat="55.059120" lon="21.950351"><ele>0.0</ele><time>1970-01-01T00:23:44Z</time></trkpt>
			<trkpt lat="55.059517" lon="21.949756"><ele>0.0</ele><time>1970-01-01T00:23:45Z</time></trkpt>
			<trkpt lat="55.059517" lon="21.949756"><ele>0.0</ele><time>1970-01-01T00:23:46Z</time></trkpt>
			<trkpt lat="55.060036" lon="21.949085"><ele>0.0</ele><time>1970-01-01T00:23:47Z</time></trkpt>
			<trkpt lat="55.060036" lon="21.949085"><ele>0.0</ele><time>1970-01-01T00:23:48Z</time></trkpt>
			<trkpt lat="55.060746" lon="21.948313"><ele>0.0</ele><time>1970-01-01T00:23:49Z</time></trkpt>
			<trkpt lat="55.060746" lon="21.948313"><ele>0.0</ele><time>1970-01-01T00:23:50Z</time></trkpt>
			<trkpt lat="55.061265" lon="21.947835"><ele>0.0</ele><time>1970-01-01T00:23:51Z</time></trkpt>
			<trkpt lat="55.061265" lon="21.947835"><ele>0.0</ele><time>1970-01-01T00:23:52Z</time></trkpt>
			<trkpt lat="55.061526" lon="21.947599"><ele>0.0</ele><time>1970-01-01T00:23:53Z</time></trkpt>
			<trkpt lat="55.061526" lon="21.947599"><ele>0.0</ele><time>1970-01-01T00:23:54Z</time></trkpt>
			<trkpt lat="55.062045" lon="21.947304"><ele>0.0</ele><time>1970-01-01T00:23:55Z</time></trkpt>
			<trkpt lat="55.062045" lon="21.947304"><ele>0.0</ele><time>1970-01-01T00:23:56Z</time></trkpt>
			<trkpt lat="55.062770" lon="21.946843"><ele>0.0</ele><time>1970-01-01T00:23:57Z</time></trkpt>
			<trkpt lat="55.062770" lon="21.946843"><ele>0.0</ele><time>1970-01-01T00:23:58Z</time></trkpt>
			<trkpt lat="55.063434" lon="21.946285"><ele>0.0</ele><time>1970-01-01T00:23:59Z</time></trkpt>
			<trkpt lat="55.063434" lon="21.946285"><ele>0.0</ele><time>1970-01-01T00:24:00Z</time></trkpt>
			<trkpt lat="55.065114" lon="21.944386"><ele>0.0</ele><time>1970-01-01T00:24:01Z</time></trkpt>
			<trkpt lat="55.065114" lon="21.944386"><ele>0.0</ele><time>1970-01-01T00:24:02Z</time></trkpt>
			<trkpt lat="55.065799" lon="21.943506"><ele>0.0</ele><time>1970-01-01T00:24:03Z</time></trkpt>
			<trkpt lat="55.065799" lon="21.943506"><ele>0.0</ele><time>1970-01-01T00:24:04Z</time></trkpt>
			<trkpt lat="55.065999" lon="21.943195"><ele>0.0</ele><time>1970-01-01T00:24:05Z</time></trkpt>
			<trkpt lat="55.065999" lon="21.943195"><ele>0.0</ele><time>1970-01-01T00:24:06Z</time></trkpt>
			<trkpt lat="55.066665" lon="21.941596"><ele>0.0</ele><time>1970-01-01T00:24:07Z</time></trkpt>
			<trkpt lat="55.066665" lon="21.941596"><ele>0.0</ele><time>1970-01-01T00:24:08Z</time></trkpt>
			<trkpt lat="55.067882" lon="21.938737"><ele>0.0</ele><time>1970-01-01T00:24:09Z</time></trkpt>
			<trkpt lat="55.067882" lon="21.938737"><ele>0.0</ele><time>1970-01-01T00:24:10Z</time></trkpt>
			<trkpt lat="55.068266" lon="21.937847"><ele>0.0</ele><time>1970-01-01T00:24:11Z</time></trkpt>
			<trkpt lat="55.068266" lon="21.937847"><ele>0.0</ele><time>1970-01-01T00:24:12Z</time></trkpt>
			<trkpt lat="55.068647" lon="21.936988"><ele>0.0</ele><time>1970-01-01T00:24:13Z</time></trkpt>
			<trkpt lat="55.068647" lon="21.936988"><ele>0.0</ele><time>1970-01-01T00:24:14Z</time></trkpt>
			<trkpt lat="55.068874" lon="21.936666"><ele>0.0</ele><time>1970-01-01T00:24:15Z</time></trkpt>
			<trkpt lat="55.068874" lon="21.936666"><ele>0.0</ele><time>1970-01-01T00:24:16Z</time></trkpt>
			<trkpt lat="55.069175" lon="21.936339"><ele>0.0</ele><time>1970-01-01T00:24:17Z</time></trkpt>
			<trkpt lat="55.069175" lon="21.936339"><ele>0.0</ele><time>1970-01-01T00:24:18Z</time></trkpt>
			<trkpt lat="55.069608" lon="21.935953"><ele>0.0</ele><time>1970-01-01T00:24:19Z</time></trkpt>
			<trkpt lat="55.069608" lon="21.935953"><ele>0.0</ele><time>1970-01-01T00:24:20Z</time></trkpt>
			<trkpt lat="55.070659" lon="21.934939"><ele>0.0</ele><time>1970-01-01T00:24:21Z</time></trkpt>
			<trkpt lat="55.070659" lon="21.934939"><ele>0.0</ele><time>1970-01-01T00:24:22Z</time></trkpt>
			<trkpt lat="55.070898" lon="21.934569"><ele>0.0</ele><time>1970-01-01T00:24:23Z</time></trkpt>
			<trkpt lat="55.070898" lon="21.934569"><ele>0.0</ele><time>1970-01-01T00:24:24Z</time></trkpt>
			<trkpt lat="55.071245" lon="21.934032"><ele>0.0</ele><time>1970-01-01T00:24:25Z</time></trkpt>
			<trkpt lat="55.071245" lon="21.934032"><ele>0.0</ele><time>1970-01-01T00:24:26Z</time></trkpt>
			<trkpt lat="55.071365" lon="21.933812"><ele>0.0</ele><time>1970-01-01T00:24:27Z</time></trkpt>
			<trkpt lat="55.071365" lon="21.933812"><ele>0.0</ele><time>1970-01-01T00:24:28Z</time></trkpt>
			<trkpt lat="55.072526" lon="21.932074"><ele>0.0</ele><time>1970-01-01T00:24:29Z</time></trkpt>
			<trkpt lat="55.072526" lon="21.932074"><ele>0.0</ele><time>1970-01-01T00:24:30Z</time></trkpt>
			<trkpt lat="55.073042" lon="21.931275"><ele>0.0</ele><time>1970-01-01T00:24:31Z</time></trkpt>
			<trkpt lat="55.073042" lon="21.931275"><ele>0.0</ele><time>1970-01-01T00:24:32Z</time></trkpt>
			<trkpt lat="55.073318" lon="21.930851"><ele>0.0</ele><time>1970-01-01T00:24:33Z</time></trkpt>
			<trkpt lat="55.073318" lon="21.930851"><ele>0.0</ele><time>1970-01-01T00:24:34Z</time></trkpt>
			<trkpt lat="55.074519" lon="21.928303"><ele>0.0</ele><time>1970-01-01T00:24:35Z</time></trkpt>
			<trkpt lat="55.074519" lon="21.928303"><ele>0.0</ele><time>1970-01-01T00:24:36Z</time></trkpt>
			<trkpt lat="55.074888" lon="21.927402"><ele>0.0</ele><time>1970-01-01T00:24:37Z</time></trkpt>
			<trkpt lat="55.074888" lon="21.927402"><ele>0.0</ele><time>1970-01-01T00:24:38Z</time></trkpt>
			<trkpt lat="55.075173" lon="21.926656"><ele>0.0</ele><time>1970-01-01T00:24:39Z</time></trkpt>
			<trkpt lat="55.075173" lon="21.926656"><ele>0.0</ele><time>1970-01-01T00:24:40Z</time></trkpt>
			<trkpt lat="55.075533" lon="21.925305"><ele>0.0</ele><time>1970-01-01T00:24:41Z</time></trkpt>
			<trkpt lat="55.075533" lon="21.925305"><ele>0.0</ele><time>1970-01-01T00:24:42Z</time></trkpt>
			<trkpt lat="55.075726" lon="21.924419"><ele>0.0</ele><time>1970-01-01T00:24:43Z</time></trkpt>
			<trkpt lat="55.075726" lon="21.924419"><ele>0.0</ele><time>1970-01-01T00:24:44Z</time></trkpt>
			<trkpt lat="55.076325" lon="21.921946"><ele>0.0</ele><time>1970-01-01T00:24:45Z</time></trkpt>
			<trkpt lat="55.076325" lon="21.921946"><ele>0.0</ele><time>1970-01-01T00:24:46Z</time></trkpt>
			<trkpt lat="55.076666" lon="21.921131"><ele>0.0</ele><time>1970-01-01T00:24:47Z</time></trkpt>
			<trkpt lat="55.076666" lon="21.921131"><ele>0.0</ele><time>1970-01-01T00:24:48Z</time></trkpt>
			<trkpt lat="55.077016" lon="21.920316"><ele>0.0</ele><time>1970-01-01T00:24:49Z</time></trkpt>
			<trkpt lat="55.077016" lon="21.920316"><ele>0.0</ele><time>1970-01-01T00:24:50Z</time></trkpt>
			<trkpt lat="55.077464" lon="21.919216"><ele>0.0</ele><time>1970-01-01T00:24:51Z</time></trkpt>
			<trkpt lat="55.077464" lon="21.919216"><ele>0.0</ele><time>1970-01-01T00:24:52Z</time></trkpt>
			<trkpt lat="55.077805" lon="21.918309"><ele>0.0</ele><time>1970-01-01T00:24:53Z</time></trkpt>
			<trkpt lat="55.077805" lon="21.918309"><ele>0.0</ele><time>1970-01-01T00:24:54Z</time></trkpt>
			<trkpt lat="55.078026" lon="21.917773"><ele>0.0</ele><time>1970-01-01T00:24:55Z</time></trkpt>
			<trkpt lat="55.078026" lon="21.917773"><ele>0.0</ele><time>1970-01-01T00:24:56Z</time></trkpt>
			<trkpt lat="55.078094" lon="21.917397"><ele>0.0</ele><time>1970-01-01T00:24:57Z</time></trkpt>
			<trkpt lat="55.078094" lon="21.917397"><ele>0.0</ele><time>1970-01-01T00:24:58Z</time></trkpt>
			<trkpt lat="55.078125" lon="21.916040"><ele>0.0</ele><time>1970-01-01T00:24:59Z</time></trkpt>
			<trkpt lat="55.078125" lon="21.916040"><ele>0.0</ele><time>1970-01-01T00:25:00Z</time></trkpt>
			<trkpt lat="55.078165" lon="21.915160"><ele>0.0</ele><time>1970-01-01T00:25:01Z</time></trkpt>
			<trkpt lat="55.078165" lon="21.915160"><ele>0.0</ele><time>1970-01-01T00:25:02Z</time></trkpt>
			<trkpt lat="55.078355" lon="21.914152"><ele>0.0</ele><time>1970-01-01T00:25:03Z</time></trkpt>
			<trkpt lat="55.078355" lon="21.914152"><ele>0.0</ele><time>1970-01-01T00:25:04Z</time></trkpt>
			<trkpt lat="55.078806" lon="21.911985"><ele>0.0</ele><time>1970-01-01T00:25:05Z</time></trkpt>
			<trkpt lat="55.078806" lon="21.911985"><ele>0.0</ele><time>1970-01-01T00:25:06Z</time></trkpt>
			<trkpt lat="55.079319" lon="21.909614"><ele>0.0</ele><time>1970-01-01T00:25:07Z</time></trkpt>
			<trkpt lat="55.079319" lon="21.909614"><ele>0.0</ele><time>1970-01-01T00:25:08Z</time></trkpt>
			<trkpt lat="55.079546" lon="21.908562"><ele>0.0</ele><time>1970-01-01T00:25:09Z</time></trkpt>
			<trkpt lat="55.079546" lon="21.908562"><ele>0.0</ele><time>1970-01-01T00:25:10Z</time></trkpt>
			<trkpt lat="55.079890" lon="21.907505"><ele>0.0</ele><time>1970-01-01T00:25:11Z</time></trkpt>
			<trkpt lat="55.079890" lon="21.907505"><ele>0.0</ele><time>1970-01-01T00:25:12Z</time></trkpt>
			<trkpt lat="55.080231" lon="21.906642"><ele>0.0</ele><time>1970-01-01T00:25:13Z</time></trkpt>
			<trkpt lat="55.080231" lon="21.906642"><ele>0.0</ele><time>1970-01-01T00:25:14Z</time></trkpt>
			<trkpt lat="55.080597" lon="21.905762"><ele>0.0</ele><time>1970-01-01T00:25:15Z</time></trkpt>
			<trkpt lat="55.080597" lon="21.905762"><ele>0.0</ele><time>1970-01-01T00:25:16Z</time></trkpt>
			<trkpt lat="55.081045" lon="21.905022"><ele>0.0</ele><time>1970-01-01T00:25:17Z</time></trkpt>
			<trkpt lat="55.081045" lon="21.905022"><ele>0.0</ele><time>1970-01-01T00:25:18Z</time></trkpt>
			<trkpt lat="55.081354" lon="21.904594"><ele>0.0</ele><time>1970-01-01T00:25:19Z</time></trkpt>
			<trkpt lat="55.081354" lon="21.904594"><ele>0.0</ele><time>1970-01-01T00:25:20Z</time></trkpt>
			<trkpt lat="55.082129" lon="21.903686"><ele>0.0</ele><time>1970-01-01T00:25:21Z</time></trkpt>
			<trkpt lat="55.082129" lon="21.903686"><ele>0.0</ele><time>1970-01-01T00:25:22Z</time></trkpt>
			<trkpt lat="55.081891" lon="21.903070"><ele>0.0</ele><time>1970-01-01T00:25:23Z</time></trkpt>
			<trkpt lat="55.081891" lon="21.903070"><ele>0.0</ele><time>1970-01-01T00:25:24Z</time></trkpt>
			<trkpt lat="55.081825" lon="21.902114"><ele>0.0</ele><time>1970-01-01T00:25:25Z</time></trkpt>
			<trkpt lat="55.081825" lon="21.902114"><ele>0.0</ele><time>1970-01-01T00:25:26Z</time></trkpt>
			<trkpt lat="55.081757" lon="21.901122"><ele>0.0</ele><time>1970-01-01T00:25:27Z</time></trkpt>
			<trkpt lat="55.081757" lon="21.901122"><ele>0.0</ele><time>1970-01-01T00:25:28Z</time></trkpt>
			<trkpt lat="55.081714" lon="21.900676"><ele>0.0</ele><time>1970-01-01T00:25:29Z</time></trkpt>
			<trkpt lat="55.081714" lon="21.900676"><ele>0.0</ele><time>1970-01-01T00:25:30Z</time></trkpt>
			<trkpt lat="55.081678" lon="21.900285"><ele>0.0</ele><time>1970-01-01T00:25:31Z</time></trkpt>
			<trkpt lat="55.081678" lon="21.900285"><ele>0.0</ele><time>1970-01-01T00:25:32Z</time></trkpt>
			<trkpt lat="55.081625" lon="21.899829"><ele>0.0</ele><time>1970-01-01T00:25:33Z</time></trkpt>
			<trkpt lat="55.081625" lon="21.899829"><ele>0.0</ele><time>1970-01-01T00:25:34Z</time></trkpt>
			<trkpt lat="55.081619" lon="21.899228"><ele>0.0</ele><time>1970-01-01T00:25:35Z</time></trkpt>
			<trkpt lat="55.081619" lon="21.899228"><ele>0.0</ele><time>1970-01-01T00:25:36Z</time></trkpt>
			<trkpt lat="55.081625" lon="21.898220"><ele>0.0</ele><time>1970-01-01T00:25:37Z</time></trkpt>
			<trkpt lat="55.081625" lon="21.898220"><ele>0.0</ele><time>1970-01-01T00:25:38Z</time></trkpt>
			<trkpt lat="55.081644" lon="21.896986"><ele>0.0</ele><time>1970-01-01T00:25:39Z</time></trkpt>
			<trkpt lat="55.081644" lon="21.896986"><ele>0.0</ele><time>1970-01-01T00:25:40Z</time></trkpt>
			<trkpt lat="55.081678" lon="21.896144"><ele>0.0</ele><time>1970-01-01T00:25:41Z</time></trkpt>
			<trkpt lat="55.081678" lon="21.896144"><ele>0.0</ele><time>1970-01-01T00:25:42Z</time></trkpt>
			<trkpt lat="55.081654" lon="21.895431"><ele>0.0</ele><time>1970-01-01T00:25:43Z</time></trkpt>
			<trkpt lat="55.081654" lon="21.895431"><ele>0.0</ele><time>1970-01-01T00:25:44Z</time></trkpt>
			<trkpt lat="55.081650" lon="21.894540"><ele>0.0</ele><time>1970-01-01T00:25:45Z</time></trkpt>
			<trkpt lat="55.081650" lon="21.894540"><ele>0.0</ele><time>1970-01-01T00:25:46Z</time></trkpt>
			<trkpt lat="55.081590" lon="21.893801"><ele>0.0</ele><time>1970-01-01T00:25:47Z</time></trkpt>
			<trkpt lat="55.081590" lon="21.893801"><ele>0.0</ele><time>1970-01-01T00:25:48Z</time></trkpt>
			<trkpt lat="55.081536" lon="21.893059"><ele>0.0</ele><time>1970-01-01T00:25:49Z</time></trkpt>
			<trkpt lat="55.081536" lon="21.893059"><ele>0.0</ele><time>1970-01-01T00:25:50Z</time></trkpt>
			<trkpt lat="55.081331" lon="21.891493"><ele>0.0</ele><time>1970-01-01T00:25:51Z</time></trkpt>
			<trkpt lat="55.081331" lon="21.891493"><ele>0.0</ele><time>1970-01-01T00:25:52Z</time></trkpt>
			<trkpt lat="55.081180" lon="21.890286"><ele>0.0</ele><time>1970-01-01T00:25:53Z</time></trkpt>
			<trkpt lat="55.081180" lon="21.890286"><ele>0.0</ele><time>1970-01-01T00:25:54Z</time></trkpt>
			<trkpt lat="55.081097" lon="21.889252"><ele>0.0</ele><time>1970-01-01T00:25:55Z</time></trkpt>
		</trkseg>
	</trk>
</gpx>